<?xml version="1.0" encoding="UTF-8" standalone="no" ?>
<gpx xmlns="http://www.topografix.com/GPX/1/1" xmlns:xsi="http://www.w3.org/2001/XMLSchema-instance" xsi:schemaLocation="http://www.topografix.com/GPX/1/1 http://www.topografix.com/GPX/1/1/gpx.xsd" version="1.1" creator="VisuGPX - https://www.visugpx.com">
  <metadata>
    <name>Cycling 9/17/21 12:50 pm</name>
  </metadata>
  <trk>
    <name><![CDATA[Cycling 9/17/21 12:50 pm]]></name>
    <trkseg>
      <trkpt lat="49.31922" lon="1.19006">
        <ele>13.2</ele>
        <time>2021-09-17T12:50:42Z</time>
      </trkpt>
      <trkpt lat="49.31925" lon="1.19006">
        <ele>13.1</ele>
        <time>2021-09-17T12:50:43Z</time>
      </trkpt>
      <trkpt lat="49.31931" lon="1.19006">
        <ele>13.1</ele>
        <time>2021-09-17T12:50:45Z</time>
      </trkpt>
      <trkpt lat="49.31935" lon="1.19007">
        <ele>13.1</ele>
        <time>2021-09-17T12:50:46Z</time>
      </trkpt>
      <trkpt lat="49.31938" lon="1.19006">
        <ele>13.1</ele>
        <time>2021-09-17T12:50:47Z</time>
      </trkpt>
      <trkpt lat="49.3194" lon="1.19">
        <ele>13.1</ele>
        <time>2021-09-17T12:50:48Z</time>
      </trkpt>
      <trkpt lat="49.3194" lon="1.19">
        <ele>13</ele>
        <time>2021-09-17T12:50:50Z</time>
      </trkpt>
      <trkpt lat="49.31941" lon="1.19004">
        <ele>13</ele>
        <time>2021-09-17T12:50:51Z</time>
      </trkpt>
      <trkpt lat="49.31952" lon="1.18989">
        <ele>13</ele>
        <time>2021-09-17T12:50:52Z</time>
      </trkpt>
      <trkpt lat="49.31956" lon="1.18981">
        <ele>13</ele>
        <time>2021-09-17T12:50:53Z</time>
      </trkpt>
      <trkpt lat="49.31965" lon="1.18966">
        <ele>12.9</ele>
        <time>2021-09-17T12:50:55Z</time>
      </trkpt>
      <trkpt lat="49.31969" lon="1.18958">
        <ele>12.8</ele>
        <time>2021-09-17T12:50:56Z</time>
      </trkpt>
      <trkpt lat="49.31974" lon="1.1895">
        <ele>12.7</ele>
        <time>2021-09-17T12:50:57Z</time>
      </trkpt>
      <trkpt lat="49.31984" lon="1.18932">
        <ele>12.6</ele>
        <time>2021-09-17T12:50:59Z</time>
      </trkpt>
      <trkpt lat="49.3199" lon="1.18923">
        <ele>12.5</ele>
        <time>2021-09-17T12:51:00Z</time>
      </trkpt>
      <trkpt lat="49.31994" lon="1.18915">
        <ele>12.5</ele>
        <time>2021-09-17T12:51:01Z</time>
      </trkpt>
      <trkpt lat="49.32004" lon="1.18899">
        <ele>12.4</ele>
        <time>2021-09-17T12:51:03Z</time>
      </trkpt>
      <trkpt lat="49.32012" lon="1.18881">
        <ele>12.3</ele>
        <time>2021-09-17T12:51:05Z</time>
      </trkpt>
      <trkpt lat="49.32015" lon="1.18872">
        <ele>12.3</ele>
        <time>2021-09-17T12:51:06Z</time>
      </trkpt>
      <trkpt lat="49.32018" lon="1.18863">
        <ele>12.3</ele>
        <time>2021-09-17T12:51:07Z</time>
      </trkpt>
      <trkpt lat="49.32021" lon="1.18853">
        <ele>12.4</ele>
        <time>2021-09-17T12:51:08Z</time>
      </trkpt>
      <trkpt lat="49.32028" lon="1.18838">
        <ele>12.5</ele>
        <time>2021-09-17T12:51:10Z</time>
      </trkpt>
      <trkpt lat="49.32031" lon="1.18831">
        <ele>12.7</ele>
        <time>2021-09-17T12:51:11Z</time>
      </trkpt>
      <trkpt lat="49.32035" lon="1.18826">
        <ele>13</ele>
        <time>2021-09-17T12:51:13Z</time>
      </trkpt>
      <trkpt lat="49.32038" lon="1.18823">
        <ele>13.2</ele>
        <time>2021-09-17T12:51:14Z</time>
      </trkpt>
      <trkpt lat="49.32047" lon="1.18818">
        <ele>13.4</ele>
        <time>2021-09-17T12:51:16Z</time>
      </trkpt>
      <trkpt lat="49.32051" lon="1.18818">
        <ele>13.5</ele>
        <time>2021-09-17T12:51:17Z</time>
      </trkpt>
      <trkpt lat="49.32061" lon="1.18819">
        <ele>13.7</ele>
        <time>2021-09-17T12:51:19Z</time>
      </trkpt>
      <trkpt lat="49.3207" lon="1.18808">
        <ele>13.9</ele>
        <time>2021-09-17T12:51:21Z</time>
      </trkpt>
      <trkpt lat="49.32076" lon="1.18791">
        <ele>14.1</ele>
        <time>2021-09-17T12:51:23Z</time>
      </trkpt>
      <trkpt lat="49.32077" lon="1.18781">
        <ele>14.3</ele>
        <time>2021-09-17T12:51:24Z</time>
      </trkpt>
      <trkpt lat="49.3208" lon="1.18773">
        <ele>14.4</ele>
        <time>2021-09-17T12:51:25Z</time>
      </trkpt>
      <trkpt lat="49.32086" lon="1.18766">
        <ele>14.5</ele>
        <time>2021-09-17T12:51:26Z</time>
      </trkpt>
      <trkpt lat="49.3209" lon="1.18758">
        <ele>14.5</ele>
        <time>2021-09-17T12:51:27Z</time>
      </trkpt>
      <trkpt lat="49.32093" lon="1.1875">
        <ele>14.5</ele>
        <time>2021-09-17T12:51:28Z</time>
      </trkpt>
      <trkpt lat="49.32097" lon="1.18732">
        <ele>14.6</ele>
        <time>2021-09-17T12:51:30Z</time>
      </trkpt>
      <trkpt lat="49.321" lon="1.18722">
        <ele>14.7</ele>
        <time>2021-09-17T12:51:31Z</time>
      </trkpt>
      <trkpt lat="49.32102" lon="1.18712">
        <ele>14.8</ele>
        <time>2021-09-17T12:51:32Z</time>
      </trkpt>
      <trkpt lat="49.32107" lon="1.18693">
        <ele>14.9</ele>
        <time>2021-09-17T12:51:34Z</time>
      </trkpt>
      <trkpt lat="49.32109" lon="1.18683">
        <ele>15</ele>
        <time>2021-09-17T12:51:35Z</time>
      </trkpt>
      <trkpt lat="49.32115" lon="1.18664">
        <ele>15</ele>
        <time>2021-09-17T12:51:37Z</time>
      </trkpt>
      <trkpt lat="49.32123" lon="1.18646">
        <ele>15.1</ele>
        <time>2021-09-17T12:51:39Z</time>
      </trkpt>
      <trkpt lat="49.32128" lon="1.18637">
        <ele>15.2</ele>
        <time>2021-09-17T12:51:40Z</time>
      </trkpt>
      <trkpt lat="49.32137" lon="1.1862">
        <ele>15.3</ele>
        <time>2021-09-17T12:51:42Z</time>
      </trkpt>
      <trkpt lat="49.32142" lon="1.18613">
        <ele>15.4</ele>
        <time>2021-09-17T12:51:43Z</time>
      </trkpt>
      <trkpt lat="49.32153" lon="1.1861">
        <ele>15.5</ele>
        <time>2021-09-17T12:51:45Z</time>
      </trkpt>
      <trkpt lat="49.32159" lon="1.18605">
        <ele>15.5</ele>
        <time>2021-09-17T12:51:47Z</time>
      </trkpt>
      <trkpt lat="49.32155" lon="1.18588">
        <ele>15.7</ele>
        <time>2021-09-17T12:51:49Z</time>
      </trkpt>
      <trkpt lat="49.32154" lon="1.1858">
        <ele>15.9</ele>
        <time>2021-09-17T12:51:50Z</time>
      </trkpt>
      <trkpt lat="49.32155" lon="1.1856">
        <ele>16.1</ele>
        <time>2021-09-17T12:51:52Z</time>
      </trkpt>
      <trkpt lat="49.32156" lon="1.18549">
        <ele>16.3</ele>
        <time>2021-09-17T12:51:53Z</time>
      </trkpt>
      <trkpt lat="49.32155" lon="1.18538">
        <ele>16.5</ele>
        <time>2021-09-17T12:51:54Z</time>
      </trkpt>
      <trkpt lat="49.32154" lon="1.18526">
        <ele>16.5</ele>
        <time>2021-09-17T12:51:55Z</time>
      </trkpt>
      <trkpt lat="49.32151" lon="1.18503">
        <ele>16.6</ele>
        <time>2021-09-17T12:51:57Z</time>
      </trkpt>
      <trkpt lat="49.32148" lon="1.18484">
        <ele>16.7</ele>
        <time>2021-09-17T12:51:59Z</time>
      </trkpt>
      <trkpt lat="49.32149" lon="1.18479">
        <ele>16.9</ele>
        <time>2021-09-17T12:52:00Z</time>
      </trkpt>
      <trkpt lat="49.3215" lon="1.18475">
        <ele>17.1</ele>
        <time>2021-09-17T12:52:01Z</time>
      </trkpt>
      <trkpt lat="49.32157" lon="1.18474">
        <ele>17.3</ele>
        <time>2021-09-17T12:52:03Z</time>
      </trkpt>
      <trkpt lat="49.32161" lon="1.18474">
        <ele>17.4</ele>
        <time>2021-09-17T12:52:04Z</time>
      </trkpt>
      <trkpt lat="49.32173" lon="1.18474">
        <ele>17.5</ele>
        <time>2021-09-17T12:52:06Z</time>
      </trkpt>
      <trkpt lat="49.32184" lon="1.18475">
        <ele>17.5</ele>
        <time>2021-09-17T12:52:08Z</time>
      </trkpt>
      <trkpt lat="49.32189" lon="1.18476">
        <ele>17.7</ele>
        <time>2021-09-17T12:52:09Z</time>
      </trkpt>
      <trkpt lat="49.32201" lon="1.18477">
        <ele>17.9</ele>
        <time>2021-09-17T12:52:11Z</time>
      </trkpt>
      <trkpt lat="49.32214" lon="1.18479">
        <ele>18.3</ele>
        <time>2021-09-17T12:52:13Z</time>
      </trkpt>
      <trkpt lat="49.32226" lon="1.18481">
        <ele>18.7</ele>
        <time>2021-09-17T12:52:15Z</time>
      </trkpt>
      <trkpt lat="49.32231" lon="1.18482">
        <ele>19.3</ele>
        <time>2021-09-17T12:52:16Z</time>
      </trkpt>
      <trkpt lat="49.32237" lon="1.18484">
        <ele>19.7</ele>
        <time>2021-09-17T12:52:17Z</time>
      </trkpt>
      <trkpt lat="49.32248" lon="1.18486">
        <ele>20.3</ele>
        <time>2021-09-17T12:52:19Z</time>
      </trkpt>
      <trkpt lat="49.32259" lon="1.18488">
        <ele>20.8</ele>
        <time>2021-09-17T12:52:21Z</time>
      </trkpt>
      <trkpt lat="49.32269" lon="1.18491">
        <ele>21.4</ele>
        <time>2021-09-17T12:52:23Z</time>
      </trkpt>
      <trkpt lat="49.3228" lon="1.18491">
        <ele>21.9</ele>
        <time>2021-09-17T12:52:25Z</time>
      </trkpt>
      <trkpt lat="49.32291" lon="1.18491">
        <ele>22.5</ele>
        <time>2021-09-17T12:52:27Z</time>
      </trkpt>
      <trkpt lat="49.32296" lon="1.18491">
        <ele>22.9</ele>
        <time>2021-09-17T12:52:28Z</time>
      </trkpt>
      <trkpt lat="49.32301" lon="1.1849">
        <ele>23.5</ele>
        <time>2021-09-17T12:52:29Z</time>
      </trkpt>
      <trkpt lat="49.32311" lon="1.1849">
        <ele>23.8</ele>
        <time>2021-09-17T12:52:31Z</time>
      </trkpt>
      <trkpt lat="49.32317" lon="1.18491">
        <ele>24.2</ele>
        <time>2021-09-17T12:52:32Z</time>
      </trkpt>
      <trkpt lat="49.32322" lon="1.18491">
        <ele>24.5</ele>
        <time>2021-09-17T12:52:33Z</time>
      </trkpt>
      <trkpt lat="49.32332" lon="1.18492">
        <ele>24.7</ele>
        <time>2021-09-17T12:52:35Z</time>
      </trkpt>
      <trkpt lat="49.32337" lon="1.18492">
        <ele>24.9</ele>
        <time>2021-09-17T12:52:36Z</time>
      </trkpt>
      <trkpt lat="49.32342" lon="1.18493">
        <ele>25.2</ele>
        <time>2021-09-17T12:52:37Z</time>
      </trkpt>
      <trkpt lat="49.32352" lon="1.18494">
        <ele>25.5</ele>
        <time>2021-09-17T12:52:39Z</time>
      </trkpt>
      <trkpt lat="49.32362" lon="1.18496">
        <ele>25.8</ele>
        <time>2021-09-17T12:52:41Z</time>
      </trkpt>
      <trkpt lat="49.32367" lon="1.18497">
        <ele>26.2</ele>
        <time>2021-09-17T12:52:42Z</time>
      </trkpt>
      <trkpt lat="49.32371" lon="1.18498">
        <ele>26.6</ele>
        <time>2021-09-17T12:52:43Z</time>
      </trkpt>
      <trkpt lat="49.32381" lon="1.18499">
        <ele>27</ele>
        <time>2021-09-17T12:52:45Z</time>
      </trkpt>
      <trkpt lat="49.32386" lon="1.185">
        <ele>27.5</ele>
        <time>2021-09-17T12:52:46Z</time>
      </trkpt>
      <trkpt lat="49.32397" lon="1.185">
        <ele>28.1</ele>
        <time>2021-09-17T12:52:48Z</time>
      </trkpt>
      <trkpt lat="49.32402" lon="1.185">
        <ele>28.7</ele>
        <time>2021-09-17T12:52:49Z</time>
      </trkpt>
      <trkpt lat="49.32411" lon="1.185">
        <ele>29.5</ele>
        <time>2021-09-17T12:52:51Z</time>
      </trkpt>
      <trkpt lat="49.32415" lon="1.185">
        <ele>30.3</ele>
        <time>2021-09-17T12:52:52Z</time>
      </trkpt>
      <trkpt lat="49.32423" lon="1.18499">
        <ele>31.1</ele>
        <time>2021-09-17T12:52:54Z</time>
      </trkpt>
      <trkpt lat="49.32432" lon="1.18499">
        <ele>31.9</ele>
        <time>2021-09-17T12:52:56Z</time>
      </trkpt>
      <trkpt lat="49.32436" lon="1.185">
        <ele>32.7</ele>
        <time>2021-09-17T12:52:57Z</time>
      </trkpt>
      <trkpt lat="49.32439" lon="1.18501">
        <ele>33.5</ele>
        <time>2021-09-17T12:52:58Z</time>
      </trkpt>
      <trkpt lat="49.32447" lon="1.18503">
        <ele>34.4</ele>
        <time>2021-09-17T12:53:00Z</time>
      </trkpt>
      <trkpt lat="49.32451" lon="1.18502">
        <ele>35.2</ele>
        <time>2021-09-17T12:53:01Z</time>
      </trkpt>
      <trkpt lat="49.32456" lon="1.18503">
        <ele>35.9</ele>
        <time>2021-09-17T12:53:03Z</time>
      </trkpt>
      <trkpt lat="49.32459" lon="1.18505">
        <ele>36.5</ele>
        <time>2021-09-17T12:53:04Z</time>
      </trkpt>
      <trkpt lat="49.32464" lon="1.18508">
        <ele>37.2</ele>
        <time>2021-09-17T12:53:05Z</time>
      </trkpt>
      <trkpt lat="49.32469" lon="1.18511">
        <ele>37.7</ele>
        <time>2021-09-17T12:53:07Z</time>
      </trkpt>
      <trkpt lat="49.32472" lon="1.18512">
        <ele>38.3</ele>
        <time>2021-09-17T12:53:08Z</time>
      </trkpt>
      <trkpt lat="49.32475" lon="1.18514">
        <ele>38.7</ele>
        <time>2021-09-17T12:53:09Z</time>
      </trkpt>
      <trkpt lat="49.32478" lon="1.18515">
        <ele>39.3</ele>
        <time>2021-09-17T12:53:11Z</time>
      </trkpt>
      <trkpt lat="49.32481" lon="1.18516">
        <ele>39.7</ele>
        <time>2021-09-17T12:53:12Z</time>
      </trkpt>
      <trkpt lat="49.32484" lon="1.18517">
        <ele>40.3</ele>
        <time>2021-09-17T12:53:13Z</time>
      </trkpt>
      <trkpt lat="49.32489" lon="1.18519">
        <ele>40.7</ele>
        <time>2021-09-17T12:53:15Z</time>
      </trkpt>
      <trkpt lat="49.32491" lon="1.1852">
        <ele>41.3</ele>
        <time>2021-09-17T12:53:16Z</time>
      </trkpt>
      <trkpt lat="49.32496" lon="1.18522">
        <ele>41.8</ele>
        <time>2021-09-17T12:53:18Z</time>
      </trkpt>
      <trkpt lat="49.32499" lon="1.18524">
        <ele>42.5</ele>
        <time>2021-09-17T12:53:20Z</time>
      </trkpt>
      <trkpt lat="49.32503" lon="1.18525">
        <ele>43.1</ele>
        <time>2021-09-17T12:53:21Z</time>
      </trkpt>
      <trkpt lat="49.32506" lon="1.18527">
        <ele>43.8</ele>
        <time>2021-09-17T12:53:22Z</time>
      </trkpt>
      <trkpt lat="49.32508" lon="1.18528">
        <ele>44.5</ele>
        <time>2021-09-17T12:53:23Z</time>
      </trkpt>
      <trkpt lat="49.32512" lon="1.18529">
        <ele>45.2</ele>
        <time>2021-09-17T12:53:25Z</time>
      </trkpt>
      <trkpt lat="49.32517" lon="1.18531">
        <ele>45.9</ele>
        <time>2021-09-17T12:53:27Z</time>
      </trkpt>
      <trkpt lat="49.3252" lon="1.18532">
        <ele>46.6</ele>
        <time>2021-09-17T12:53:28Z</time>
      </trkpt>
      <trkpt lat="49.32524" lon="1.18534">
        <ele>47.4</ele>
        <time>2021-09-17T12:53:30Z</time>
      </trkpt>
      <trkpt lat="49.32527" lon="1.18535">
        <ele>48.1</ele>
        <time>2021-09-17T12:53:31Z</time>
      </trkpt>
      <trkpt lat="49.3253" lon="1.18536">
        <ele>48.7</ele>
        <time>2021-09-17T12:53:32Z</time>
      </trkpt>
      <trkpt lat="49.32533" lon="1.18538">
        <ele>49.3</ele>
        <time>2021-09-17T12:53:33Z</time>
      </trkpt>
      <trkpt lat="49.32537" lon="1.18541">
        <ele>49.8</ele>
        <time>2021-09-17T12:53:35Z</time>
      </trkpt>
      <trkpt lat="49.3254" lon="1.18544">
        <ele>50.3</ele>
        <time>2021-09-17T12:53:37Z</time>
      </trkpt>
      <trkpt lat="49.32542" lon="1.18547">
        <ele>50.6</ele>
        <time>2021-09-17T12:53:38Z</time>
      </trkpt>
      <trkpt lat="49.32545" lon="1.1855">
        <ele>51</ele>
        <time>2021-09-17T12:53:39Z</time>
      </trkpt>
      <trkpt lat="49.32547" lon="1.18553">
        <ele>51.3</ele>
        <time>2021-09-17T12:53:40Z</time>
      </trkpt>
      <trkpt lat="49.32551" lon="1.18558">
        <ele>51.5</ele>
        <time>2021-09-17T12:53:42Z</time>
      </trkpt>
      <trkpt lat="49.32554" lon="1.18561">
        <ele>51.6</ele>
        <time>2021-09-17T12:53:43Z</time>
      </trkpt>
      <trkpt lat="49.32557" lon="1.18564">
        <ele>51.7</ele>
        <time>2021-09-17T12:53:44Z</time>
      </trkpt>
      <trkpt lat="49.32559" lon="1.18567">
        <ele>51.7</ele>
        <time>2021-09-17T12:53:45Z</time>
      </trkpt>
      <trkpt lat="49.32562" lon="1.18572">
        <ele>51.7</ele>
        <time>2021-09-17T12:53:46Z</time>
      </trkpt>
      <trkpt lat="49.32565" lon="1.18577">
        <ele>51.7</ele>
        <time>2021-09-17T12:53:48Z</time>
      </trkpt>
      <trkpt lat="49.32568" lon="1.1858">
        <ele>51.6</ele>
        <time>2021-09-17T12:53:49Z</time>
      </trkpt>
      <trkpt lat="49.32573" lon="1.18585">
        <ele>51.5</ele>
        <time>2021-09-17T12:53:50Z</time>
      </trkpt>
      <trkpt lat="49.32576" lon="1.18589">
        <ele>51.5</ele>
        <time>2021-09-17T12:53:51Z</time>
      </trkpt>
      <trkpt lat="49.32579" lon="1.18594">
        <ele>51.5</ele>
        <time>2021-09-17T12:53:52Z</time>
      </trkpt>
      <trkpt lat="49.32585" lon="1.18599">
        <ele>51.6</ele>
        <time>2021-09-17T12:53:54Z</time>
      </trkpt>
      <trkpt lat="49.3259" lon="1.18602">
        <ele>51.7</ele>
        <time>2021-09-17T12:53:55Z</time>
      </trkpt>
      <trkpt lat="49.32593" lon="1.18605">
        <ele>51.9</ele>
        <time>2021-09-17T12:53:56Z</time>
      </trkpt>
      <trkpt lat="49.326" lon="1.18609">
        <ele>52.1</ele>
        <time>2021-09-17T12:53:58Z</time>
      </trkpt>
      <trkpt lat="49.32603" lon="1.1861">
        <ele>52.5</ele>
        <time>2021-09-17T12:53:59Z</time>
      </trkpt>
      <trkpt lat="49.32607" lon="1.1861">
        <ele>52.9</ele>
        <time>2021-09-17T12:54:00Z</time>
      </trkpt>
      <trkpt lat="49.32612" lon="1.18611">
        <ele>53.5</ele>
        <time>2021-09-17T12:54:01Z</time>
      </trkpt>
      <trkpt lat="49.32616" lon="1.18612">
        <ele>53.9</ele>
        <time>2021-09-17T12:54:02Z</time>
      </trkpt>
      <trkpt lat="49.32621" lon="1.18612">
        <ele>54.5</ele>
        <time>2021-09-17T12:54:03Z</time>
      </trkpt>
      <trkpt lat="49.32626" lon="1.18613">
        <ele>54.9</ele>
        <time>2021-09-17T12:54:05Z</time>
      </trkpt>
      <trkpt lat="49.32633" lon="1.18615">
        <ele>55.4</ele>
        <time>2021-09-17T12:54:06Z</time>
      </trkpt>
      <trkpt lat="49.32641" lon="1.18616">
        <ele>55.8</ele>
        <time>2021-09-17T12:54:08Z</time>
      </trkpt>
      <trkpt lat="49.32644" lon="1.18621">
        <ele>56.3</ele>
        <time>2021-09-17T12:54:09Z</time>
      </trkpt>
      <trkpt lat="49.32649" lon="1.18621">
        <ele>56.6</ele>
        <time>2021-09-17T12:54:10Z</time>
      </trkpt>
      <trkpt lat="49.32654" lon="1.1862">
        <ele>57.1</ele>
        <time>2021-09-17T12:54:11Z</time>
      </trkpt>
      <trkpt lat="49.32658" lon="1.18619">
        <ele>57.5</ele>
        <time>2021-09-17T12:54:12Z</time>
      </trkpt>
      <trkpt lat="49.32664" lon="1.18618">
        <ele>57.7</ele>
        <time>2021-09-17T12:54:13Z</time>
      </trkpt>
      <trkpt lat="49.32669" lon="1.18617">
        <ele>57.9</ele>
        <time>2021-09-17T12:54:15Z</time>
      </trkpt>
      <trkpt lat="49.32675" lon="1.18616">
        <ele>58.2</ele>
        <time>2021-09-17T12:54:16Z</time>
      </trkpt>
      <trkpt lat="49.3268" lon="1.18615">
        <ele>58.5</ele>
        <time>2021-09-17T12:54:17Z</time>
      </trkpt>
      <trkpt lat="49.32689" lon="1.18612">
        <ele>58.7</ele>
        <time>2021-09-17T12:54:19Z</time>
      </trkpt>
      <trkpt lat="49.32694" lon="1.18611">
        <ele>59</ele>
        <time>2021-09-17T12:54:20Z</time>
      </trkpt>
      <trkpt lat="49.32701" lon="1.1861">
        <ele>59.3</ele>
        <time>2021-09-17T12:54:22Z</time>
      </trkpt>
      <trkpt lat="49.32707" lon="1.18609">
        <ele>59.5</ele>
        <time>2021-09-17T12:54:23Z</time>
      </trkpt>
      <trkpt lat="49.32713" lon="1.18607">
        <ele>59.8</ele>
        <time>2021-09-17T12:54:25Z</time>
      </trkpt>
      <trkpt lat="49.32717" lon="1.18605">
        <ele>60.1</ele>
        <time>2021-09-17T12:54:26Z</time>
      </trkpt>
      <trkpt lat="49.32721" lon="1.18602">
        <ele>60.5</ele>
        <time>2021-09-17T12:54:27Z</time>
      </trkpt>
      <trkpt lat="49.32724" lon="1.18599">
        <ele>60.9</ele>
        <time>2021-09-17T12:54:28Z</time>
      </trkpt>
      <trkpt lat="49.32728" lon="1.18596">
        <ele>61.4</ele>
        <time>2021-09-17T12:54:29Z</time>
      </trkpt>
      <trkpt lat="49.32732" lon="1.18591">
        <ele>61.9</ele>
        <time>2021-09-17T12:54:31Z</time>
      </trkpt>
      <trkpt lat="49.32737" lon="1.18582">
        <ele>62.5</ele>
        <time>2021-09-17T12:54:33Z</time>
      </trkpt>
      <trkpt lat="49.3274" lon="1.18574">
        <ele>63</ele>
        <time>2021-09-17T12:54:34Z</time>
      </trkpt>
      <trkpt lat="49.32743" lon="1.18565">
        <ele>63.5</ele>
        <time>2021-09-17T12:54:36Z</time>
      </trkpt>
      <trkpt lat="49.32745" lon="1.18558">
        <ele>64.1</ele>
        <time>2021-09-17T12:54:37Z</time>
      </trkpt>
      <trkpt lat="49.32749" lon="1.18549">
        <ele>64.6</ele>
        <time>2021-09-17T12:54:39Z</time>
      </trkpt>
      <trkpt lat="49.3275" lon="1.18544">
        <ele>65.3</ele>
        <time>2021-09-17T12:54:40Z</time>
      </trkpt>
      <trkpt lat="49.32752" lon="1.18539">
        <ele>65.8</ele>
        <time>2021-09-17T12:54:41Z</time>
      </trkpt>
      <trkpt lat="49.32755" lon="1.18534">
        <ele>66.4</ele>
        <time>2021-09-17T12:54:43Z</time>
      </trkpt>
      <trkpt lat="49.32757" lon="1.18528">
        <ele>66.8</ele>
        <time>2021-09-17T12:54:44Z</time>
      </trkpt>
      <trkpt lat="49.32758" lon="1.18522">
        <ele>67.4</ele>
        <time>2021-09-17T12:54:45Z</time>
      </trkpt>
      <trkpt lat="49.3276" lon="1.18514">
        <ele>67.9</ele>
        <time>2021-09-17T12:54:47Z</time>
      </trkpt>
      <trkpt lat="49.32761" lon="1.18509">
        <ele>68.4</ele>
        <time>2021-09-17T12:54:48Z</time>
      </trkpt>
      <trkpt lat="49.32762" lon="1.18502">
        <ele>68.9</ele>
        <time>2021-09-17T12:54:49Z</time>
      </trkpt>
      <trkpt lat="49.32762" lon="1.18496">
        <ele>69.5</ele>
        <time>2021-09-17T12:54:50Z</time>
      </trkpt>
      <trkpt lat="49.32763" lon="1.18489">
        <ele>69.9</ele>
        <time>2021-09-17T12:54:51Z</time>
      </trkpt>
      <trkpt lat="49.32763" lon="1.18481">
        <ele>70.5</ele>
        <time>2021-09-17T12:54:53Z</time>
      </trkpt>
      <trkpt lat="49.32764" lon="1.18475">
        <ele>70.9</ele>
        <time>2021-09-17T12:54:54Z</time>
      </trkpt>
      <trkpt lat="49.32764" lon="1.18468">
        <ele>71.4</ele>
        <time>2021-09-17T12:54:55Z</time>
      </trkpt>
      <trkpt lat="49.32765" lon="1.18459">
        <ele>71.7</ele>
        <time>2021-09-17T12:54:57Z</time>
      </trkpt>
      <trkpt lat="49.32766" lon="1.18451">
        <ele>72.1</ele>
        <time>2021-09-17T12:54:59Z</time>
      </trkpt>
      <trkpt lat="49.32766" lon="1.18443">
        <ele>72.5</ele>
        <time>2021-09-17T12:55:00Z</time>
      </trkpt>
      <trkpt lat="49.32767" lon="1.18433">
        <ele>72.7</ele>
        <time>2021-09-17T12:55:02Z</time>
      </trkpt>
      <trkpt lat="49.32767" lon="1.18432">
        <ele>72.9</ele>
        <time>2021-09-17T12:55:04Z</time>
      </trkpt>
      <trkpt lat="49.32767" lon="1.18431">
        <ele>73</ele>
        <time>2021-09-17T12:55:05Z</time>
      </trkpt>
      <trkpt lat="49.32767" lon="1.18431">
        <ele>73.1</ele>
        <time>2021-09-17T12:55:06Z</time>
      </trkpt>
      <trkpt lat="49.32765" lon="1.18423">
        <ele>73.2</ele>
        <time>2021-09-17T12:55:08Z</time>
      </trkpt>
      <trkpt lat="49.32767" lon="1.18408">
        <ele>73.3</ele>
        <time>2021-09-17T12:55:09Z</time>
      </trkpt>
      <trkpt lat="49.32771" lon="1.18386">
        <ele>73.4</ele>
        <time>2021-09-17T12:55:10Z</time>
      </trkpt>
      <trkpt lat="49.32772" lon="1.18375">
        <ele>73.5</ele>
        <time>2021-09-17T12:55:12Z</time>
      </trkpt>
      <trkpt lat="49.32773" lon="1.18366">
        <ele>73.5</ele>
        <time>2021-09-17T12:55:13Z</time>
      </trkpt>
      <trkpt lat="49.32773" lon="1.18359">
        <ele>73.5</ele>
        <time>2021-09-17T12:55:14Z</time>
      </trkpt>
      <trkpt lat="49.32773" lon="1.1835">
        <ele>73.5</ele>
        <time>2021-09-17T12:55:16Z</time>
      </trkpt>
      <trkpt lat="49.32774" lon="1.18344">
        <ele>73.5</ele>
        <time>2021-09-17T12:55:17Z</time>
      </trkpt>
      <trkpt lat="49.32775" lon="1.18339">
        <ele>73.6</ele>
        <time>2021-09-17T12:55:18Z</time>
      </trkpt>
      <trkpt lat="49.32778" lon="1.18335">
        <ele>73.8</ele>
        <time>2021-09-17T12:55:19Z</time>
      </trkpt>
      <trkpt lat="49.32779" lon="1.18331">
        <ele>74.1</ele>
        <time>2021-09-17T12:55:20Z</time>
      </trkpt>
      <trkpt lat="49.32781" lon="1.18324">
        <ele>74.4</ele>
        <time>2021-09-17T12:55:22Z</time>
      </trkpt>
      <trkpt lat="49.32782" lon="1.18321">
        <ele>74.6</ele>
        <time>2021-09-17T12:55:23Z</time>
      </trkpt>
      <trkpt lat="49.32783" lon="1.18314">
        <ele>74.9</ele>
        <time>2021-09-17T12:55:24Z</time>
      </trkpt>
      <trkpt lat="49.32784" lon="1.18307">
        <ele>75.2</ele>
        <time>2021-09-17T12:55:26Z</time>
      </trkpt>
      <trkpt lat="49.32785" lon="1.18298">
        <ele>75.6</ele>
        <time>2021-09-17T12:55:27Z</time>
      </trkpt>
      <trkpt lat="49.32785" lon="1.18296">
        <ele>76.2</ele>
        <time>2021-09-17T12:55:28Z</time>
      </trkpt>
      <trkpt lat="49.32784" lon="1.18292">
        <ele>76.6</ele>
        <time>2021-09-17T12:55:29Z</time>
      </trkpt>
      <trkpt lat="49.32783" lon="1.18289">
        <ele>77.2</ele>
        <time>2021-09-17T12:55:31Z</time>
      </trkpt>
      <trkpt lat="49.32784" lon="1.18284">
        <ele>77.6</ele>
        <time>2021-09-17T12:55:32Z</time>
      </trkpt>
      <trkpt lat="49.32788" lon="1.18276">
        <ele>78.1</ele>
        <time>2021-09-17T12:55:34Z</time>
      </trkpt>
      <trkpt lat="49.32791" lon="1.18268">
        <ele>78.5</ele>
        <time>2021-09-17T12:55:35Z</time>
      </trkpt>
      <trkpt lat="49.32795" lon="1.18257">
        <ele>79.1</ele>
        <time>2021-09-17T12:55:36Z</time>
      </trkpt>
      <trkpt lat="49.32798" lon="1.18249">
        <ele>79.6</ele>
        <time>2021-09-17T12:55:37Z</time>
      </trkpt>
      <trkpt lat="49.32801" lon="1.18243">
        <ele>80.4</ele>
        <time>2021-09-17T12:55:38Z</time>
      </trkpt>
      <trkpt lat="49.32806" lon="1.18232">
        <ele>81.2</ele>
        <time>2021-09-17T12:55:40Z</time>
      </trkpt>
      <trkpt lat="49.32808" lon="1.18226">
        <ele>82</ele>
        <time>2021-09-17T12:55:41Z</time>
      </trkpt>
      <trkpt lat="49.32811" lon="1.18219">
        <ele>82.8</ele>
        <time>2021-09-17T12:55:42Z</time>
      </trkpt>
      <trkpt lat="49.32813" lon="1.1821">
        <ele>83.6</ele>
        <time>2021-09-17T12:55:43Z</time>
      </trkpt>
      <trkpt lat="49.32818" lon="1.18199">
        <ele>84.5</ele>
        <time>2021-09-17T12:55:45Z</time>
      </trkpt>
      <trkpt lat="49.3282" lon="1.18192">
        <ele>85.3</ele>
        <time>2021-09-17T12:55:46Z</time>
      </trkpt>
      <trkpt lat="49.32823" lon="1.18183">
        <ele>86.2</ele>
        <time>2021-09-17T12:55:47Z</time>
      </trkpt>
      <trkpt lat="49.32824" lon="1.18175">
        <ele>87</ele>
        <time>2021-09-17T12:55:49Z</time>
      </trkpt>
      <trkpt lat="49.32826" lon="1.18169">
        <ele>87.7</ele>
        <time>2021-09-17T12:55:50Z</time>
      </trkpt>
      <trkpt lat="49.32828" lon="1.18161">
        <ele>88.4</ele>
        <time>2021-09-17T12:55:51Z</time>
      </trkpt>
      <trkpt lat="49.32831" lon="1.18152">
        <ele>88.8</ele>
        <time>2021-09-17T12:55:53Z</time>
      </trkpt>
      <trkpt lat="49.32832" lon="1.18146">
        <ele>89.2</ele>
        <time>2021-09-17T12:55:54Z</time>
      </trkpt>
      <trkpt lat="49.32835" lon="1.18139">
        <ele>89.5</ele>
        <time>2021-09-17T12:55:55Z</time>
      </trkpt>
      <trkpt lat="49.32838" lon="1.18131">
        <ele>89.8</ele>
        <time>2021-09-17T12:55:57Z</time>
      </trkpt>
      <trkpt lat="49.3284" lon="1.18126">
        <ele>90.1</ele>
        <time>2021-09-17T12:55:58Z</time>
      </trkpt>
      <trkpt lat="49.32844" lon="1.18118">
        <ele>90.3</ele>
        <time>2021-09-17T12:56:00Z</time>
      </trkpt>
      <trkpt lat="49.32846" lon="1.18112">
        <ele>90.5</ele>
        <time>2021-09-17T12:56:01Z</time>
      </trkpt>
      <trkpt lat="49.32847" lon="1.18107">
        <ele>90.5</ele>
        <time>2021-09-17T12:56:02Z</time>
      </trkpt>
      <trkpt lat="49.32849" lon="1.18102">
        <ele>90.7</ele>
        <time>2021-09-17T12:56:03Z</time>
      </trkpt>
      <trkpt lat="49.32851" lon="1.18095">
        <ele>90.9</ele>
        <time>2021-09-17T12:56:04Z</time>
      </trkpt>
      <trkpt lat="49.32853" lon="1.1809">
        <ele>91.2</ele>
        <time>2021-09-17T12:56:05Z</time>
      </trkpt>
      <trkpt lat="49.32856" lon="1.18082">
        <ele>91.5</ele>
        <time>2021-09-17T12:56:07Z</time>
      </trkpt>
      <trkpt lat="49.3286" lon="1.18072">
        <ele>91.9</ele>
        <time>2021-09-17T12:56:09Z</time>
      </trkpt>
      <trkpt lat="49.32863" lon="1.18068">
        <ele>92.2</ele>
        <time>2021-09-17T12:56:10Z</time>
      </trkpt>
      <trkpt lat="49.32866" lon="1.18063">
        <ele>92.5</ele>
        <time>2021-09-17T12:56:11Z</time>
      </trkpt>
      <trkpt lat="49.32871" lon="1.18055">
        <ele>92.8</ele>
        <time>2021-09-17T12:56:13Z</time>
      </trkpt>
      <trkpt lat="49.32876" lon="1.18044">
        <ele>93.2</ele>
        <time>2021-09-17T12:56:15Z</time>
      </trkpt>
      <trkpt lat="49.3288" lon="1.18037">
        <ele>93.6</ele>
        <time>2021-09-17T12:56:16Z</time>
      </trkpt>
      <trkpt lat="49.32884" lon="1.1803">
        <ele>94.2</ele>
        <time>2021-09-17T12:56:17Z</time>
      </trkpt>
      <trkpt lat="49.32887" lon="1.18025">
        <ele>94.6</ele>
        <time>2021-09-17T12:56:19Z</time>
      </trkpt>
      <trkpt lat="49.3289" lon="1.18021">
        <ele>95.2</ele>
        <time>2021-09-17T12:56:20Z</time>
      </trkpt>
      <trkpt lat="49.32895" lon="1.18016">
        <ele>95.6</ele>
        <time>2021-09-17T12:56:21Z</time>
      </trkpt>
      <trkpt lat="49.329" lon="1.18009">
        <ele>96</ele>
        <time>2021-09-17T12:56:23Z</time>
      </trkpt>
      <trkpt lat="49.32902" lon="1.18005">
        <ele>96.4</ele>
        <time>2021-09-17T12:56:24Z</time>
      </trkpt>
      <trkpt lat="49.32904" lon="1.18001">
        <ele>96.7</ele>
        <time>2021-09-17T12:56:25Z</time>
      </trkpt>
      <trkpt lat="49.32908" lon="1.17995">
        <ele>97.1</ele>
        <time>2021-09-17T12:56:27Z</time>
      </trkpt>
      <trkpt lat="49.32911" lon="1.1799">
        <ele>97.4</ele>
        <time>2021-09-17T12:56:28Z</time>
      </trkpt>
      <trkpt lat="49.32912" lon="1.17984">
        <ele>97.6</ele>
        <time>2021-09-17T12:56:30Z</time>
      </trkpt>
      <trkpt lat="49.32913" lon="1.17981">
        <ele>97.8</ele>
        <time>2021-09-17T12:56:31Z</time>
      </trkpt>
      <trkpt lat="49.32914" lon="1.17978">
        <ele>98</ele>
        <time>2021-09-17T12:56:32Z</time>
      </trkpt>
      <trkpt lat="49.32915" lon="1.17975">
        <ele>98.2</ele>
        <time>2021-09-17T12:56:33Z</time>
      </trkpt>
      <trkpt lat="49.32916" lon="1.17973">
        <ele>98.3</ele>
        <time>2021-09-17T12:56:34Z</time>
      </trkpt>
      <trkpt lat="49.32919" lon="1.17969">
        <ele>98.4</ele>
        <time>2021-09-17T12:56:36Z</time>
      </trkpt>
      <trkpt lat="49.32919" lon="1.17969">
        <ele>98.5</ele>
        <time>2021-09-17T12:56:37Z</time>
      </trkpt>
      <trkpt lat="49.32924" lon="1.17965">
        <ele>98.5</ele>
        <time>2021-09-17T12:56:39Z</time>
      </trkpt>
      <trkpt lat="49.32926" lon="1.17961">
        <ele>98.6</ele>
        <time>2021-09-17T12:56:40Z</time>
      </trkpt>
      <trkpt lat="49.32929" lon="1.17957">
        <ele>98.8</ele>
        <time>2021-09-17T12:56:42Z</time>
      </trkpt>
      <trkpt lat="49.32931" lon="1.17953">
        <ele>99</ele>
        <time>2021-09-17T12:56:43Z</time>
      </trkpt>
      <trkpt lat="49.32933" lon="1.17949">
        <ele>99.1</ele>
        <time>2021-09-17T12:56:44Z</time>
      </trkpt>
      <trkpt lat="49.32934" lon="1.17945">
        <ele>99.2</ele>
        <time>2021-09-17T12:56:45Z</time>
      </trkpt>
      <trkpt lat="49.32937" lon="1.1794">
        <ele>99.3</ele>
        <time>2021-09-17T12:56:47Z</time>
      </trkpt>
      <trkpt lat="49.32939" lon="1.17936">
        <ele>99.5</ele>
        <time>2021-09-17T12:56:48Z</time>
      </trkpt>
      <trkpt lat="49.32941" lon="1.1793">
        <ele>99.6</ele>
        <time>2021-09-17T12:56:49Z</time>
      </trkpt>
      <trkpt lat="49.32943" lon="1.17925">
        <ele>99.9</ele>
        <time>2021-09-17T12:56:50Z</time>
      </trkpt>
      <trkpt lat="49.32945" lon="1.17919">
        <ele>100.2</ele>
        <time>2021-09-17T12:56:52Z</time>
      </trkpt>
      <trkpt lat="49.32948" lon="1.17911">
        <ele>100.5</ele>
        <time>2021-09-17T12:56:54Z</time>
      </trkpt>
      <trkpt lat="49.3295" lon="1.17905">
        <ele>101</ele>
        <time>2021-09-17T12:56:55Z</time>
      </trkpt>
      <trkpt lat="49.32952" lon="1.17899">
        <ele>101.4</ele>
        <time>2021-09-17T12:56:56Z</time>
      </trkpt>
      <trkpt lat="49.32955" lon="1.17892">
        <ele>101.8</ele>
        <time>2021-09-17T12:56:58Z</time>
      </trkpt>
      <trkpt lat="49.32957" lon="1.17887">
        <ele>102.4</ele>
        <time>2021-09-17T12:56:59Z</time>
      </trkpt>
      <trkpt lat="49.32962" lon="1.17877">
        <ele>102.9</ele>
        <time>2021-09-17T12:57:01Z</time>
      </trkpt>
      <trkpt lat="49.32964" lon="1.17873">
        <ele>103.4</ele>
        <time>2021-09-17T12:57:02Z</time>
      </trkpt>
      <trkpt lat="49.32967" lon="1.17867">
        <ele>103.8</ele>
        <time>2021-09-17T12:57:04Z</time>
      </trkpt>
      <trkpt lat="49.3297" lon="1.17863">
        <ele>104.3</ele>
        <time>2021-09-17T12:57:05Z</time>
      </trkpt>
      <trkpt lat="49.32972" lon="1.1786">
        <ele>104.6</ele>
        <time>2021-09-17T12:57:06Z</time>
      </trkpt>
      <trkpt lat="49.32975" lon="1.17856">
        <ele>105.1</ele>
        <time>2021-09-17T12:57:07Z</time>
      </trkpt>
      <trkpt lat="49.32977" lon="1.17852">
        <ele>105.5</ele>
        <time>2021-09-17T12:57:08Z</time>
      </trkpt>
      <trkpt lat="49.32981" lon="1.17847">
        <ele>105.7</ele>
        <time>2021-09-17T12:57:10Z</time>
      </trkpt>
      <trkpt lat="49.32984" lon="1.17844">
        <ele>106</ele>
        <time>2021-09-17T12:57:11Z</time>
      </trkpt>
      <trkpt lat="49.32988" lon="1.17839">
        <ele>106.2</ele>
        <time>2021-09-17T12:57:13Z</time>
      </trkpt>
      <trkpt lat="49.32991" lon="1.17835">
        <ele>106.5</ele>
        <time>2021-09-17T12:57:14Z</time>
      </trkpt>
      <trkpt lat="49.32993" lon="1.17833">
        <ele>106.7</ele>
        <time>2021-09-17T12:57:15Z</time>
      </trkpt>
      <trkpt lat="49.32997" lon="1.17829">
        <ele>107</ele>
        <time>2021-09-17T12:57:17Z</time>
      </trkpt>
      <trkpt lat="49.32999" lon="1.17826">
        <ele>107.2</ele>
        <time>2021-09-17T12:57:18Z</time>
      </trkpt>
      <trkpt lat="49.33001" lon="1.17824">
        <ele>107.4</ele>
        <time>2021-09-17T12:57:19Z</time>
      </trkpt>
      <trkpt lat="49.33003" lon="1.17823">
        <ele>107.5</ele>
        <time>2021-09-17T12:57:20Z</time>
      </trkpt>
      <trkpt lat="49.33006" lon="1.1782">
        <ele>107.7</ele>
        <time>2021-09-17T12:57:21Z</time>
      </trkpt>
      <trkpt lat="49.33009" lon="1.17818">
        <ele>107.9</ele>
        <time>2021-09-17T12:57:23Z</time>
      </trkpt>
      <trkpt lat="49.33012" lon="1.17816">
        <ele>108.1</ele>
        <time>2021-09-17T12:57:24Z</time>
      </trkpt>
      <trkpt lat="49.33014" lon="1.17814">
        <ele>108.3</ele>
        <time>2021-09-17T12:57:25Z</time>
      </trkpt>
      <trkpt lat="49.33016" lon="1.17813">
        <ele>108.5</ele>
        <time>2021-09-17T12:57:26Z</time>
      </trkpt>
      <trkpt lat="49.33019" lon="1.17812">
        <ele>108.7</ele>
        <time>2021-09-17T12:57:27Z</time>
      </trkpt>
      <trkpt lat="49.33023" lon="1.17811">
        <ele>108.9</ele>
        <time>2021-09-17T12:57:29Z</time>
      </trkpt>
      <trkpt lat="49.33027" lon="1.1781">
        <ele>109.1</ele>
        <time>2021-09-17T12:57:30Z</time>
      </trkpt>
      <trkpt lat="49.33032" lon="1.17808">
        <ele>109.4</ele>
        <time>2021-09-17T12:57:32Z</time>
      </trkpt>
      <trkpt lat="49.33035" lon="1.17807">
        <ele>109.6</ele>
        <time>2021-09-17T12:57:33Z</time>
      </trkpt>
      <trkpt lat="49.3304" lon="1.17806">
        <ele>109.9</ele>
        <time>2021-09-17T12:57:35Z</time>
      </trkpt>
      <trkpt lat="49.33042" lon="1.17806">
        <ele>110.2</ele>
        <time>2021-09-17T12:57:36Z</time>
      </trkpt>
      <trkpt lat="49.33046" lon="1.17805">
        <ele>110.5</ele>
        <time>2021-09-17T12:57:37Z</time>
      </trkpt>
      <trkpt lat="49.3305" lon="1.17805">
        <ele>110.8</ele>
        <time>2021-09-17T12:57:38Z</time>
      </trkpt>
      <trkpt lat="49.33054" lon="1.17804">
        <ele>111.2</ele>
        <time>2021-09-17T12:57:40Z</time>
      </trkpt>
      <trkpt lat="49.3306" lon="1.17803">
        <ele>111.5</ele>
        <time>2021-09-17T12:57:41Z</time>
      </trkpt>
      <trkpt lat="49.33064" lon="1.17802">
        <ele>111.8</ele>
        <time>2021-09-17T12:57:43Z</time>
      </trkpt>
      <trkpt lat="49.33069" lon="1.17801">
        <ele>112.3</ele>
        <time>2021-09-17T12:57:45Z</time>
      </trkpt>
      <trkpt lat="49.33072" lon="1.178">
        <ele>112.7</ele>
        <time>2021-09-17T12:57:46Z</time>
      </trkpt>
      <trkpt lat="49.33075" lon="1.178">
        <ele>113.2</ele>
        <time>2021-09-17T12:57:47Z</time>
      </trkpt>
      <trkpt lat="49.33077" lon="1.17799">
        <ele>113.6</ele>
        <time>2021-09-17T12:57:48Z</time>
      </trkpt>
      <trkpt lat="49.33092" lon="1.17795">
        <ele>114.1</ele>
        <time>2021-09-17T12:57:50Z</time>
      </trkpt>
      <trkpt lat="49.33099" lon="1.17793">
        <ele>114.5</ele>
        <time>2021-09-17T12:57:51Z</time>
      </trkpt>
      <trkpt lat="49.33109" lon="1.17789">
        <ele>114.8</ele>
        <time>2021-09-17T12:57:53Z</time>
      </trkpt>
      <trkpt lat="49.33116" lon="1.17786">
        <ele>115.1</ele>
        <time>2021-09-17T12:57:55Z</time>
      </trkpt>
      <trkpt lat="49.33122" lon="1.17785">
        <ele>115.5</ele>
        <time>2021-09-17T12:57:56Z</time>
      </trkpt>
      <trkpt lat="49.33127" lon="1.17784">
        <ele>115.8</ele>
        <time>2021-09-17T12:57:57Z</time>
      </trkpt>
      <trkpt lat="49.33133" lon="1.17783">
        <ele>116.1</ele>
        <time>2021-09-17T12:57:59Z</time>
      </trkpt>
      <trkpt lat="49.33138" lon="1.17782">
        <ele>116.4</ele>
        <time>2021-09-17T12:58:00Z</time>
      </trkpt>
      <trkpt lat="49.33142" lon="1.1778">
        <ele>116.6</ele>
        <time>2021-09-17T12:58:01Z</time>
      </trkpt>
      <trkpt lat="49.33147" lon="1.17778">
        <ele>116.8</ele>
        <time>2021-09-17T12:58:02Z</time>
      </trkpt>
      <trkpt lat="49.33154" lon="1.17776">
        <ele>117.1</ele>
        <time>2021-09-17T12:58:04Z</time>
      </trkpt>
      <trkpt lat="49.33159" lon="1.17774">
        <ele>117.4</ele>
        <time>2021-09-17T12:58:05Z</time>
      </trkpt>
      <trkpt lat="49.33164" lon="1.17772">
        <ele>117.6</ele>
        <time>2021-09-17T12:58:06Z</time>
      </trkpt>
      <trkpt lat="49.33172" lon="1.1777">
        <ele>118</ele>
        <time>2021-09-17T12:58:08Z</time>
      </trkpt>
      <trkpt lat="49.33176" lon="1.17769">
        <ele>118.4</ele>
        <time>2021-09-17T12:58:09Z</time>
      </trkpt>
      <trkpt lat="49.3318" lon="1.17767">
        <ele>118.6</ele>
        <time>2021-09-17T12:58:10Z</time>
      </trkpt>
      <trkpt lat="49.33184" lon="1.17766">
        <ele>118.9</ele>
        <time>2021-09-17T12:58:11Z</time>
      </trkpt>
      <trkpt lat="49.33193" lon="1.17765">
        <ele>119.2</ele>
        <time>2021-09-17T12:58:13Z</time>
      </trkpt>
      <trkpt lat="49.33198" lon="1.17764">
        <ele>119.4</ele>
        <time>2021-09-17T12:58:14Z</time>
      </trkpt>
      <trkpt lat="49.33204" lon="1.17763">
        <ele>119.6</ele>
        <time>2021-09-17T12:58:16Z</time>
      </trkpt>
      <trkpt lat="49.3321" lon="1.17761">
        <ele>119.9</ele>
        <time>2021-09-17T12:58:17Z</time>
      </trkpt>
      <trkpt lat="49.33214" lon="1.1776">
        <ele>120.2</ele>
        <time>2021-09-17T12:58:18Z</time>
      </trkpt>
      <trkpt lat="49.33221" lon="1.17758">
        <ele>120.5</ele>
        <time>2021-09-17T12:58:20Z</time>
      </trkpt>
      <trkpt lat="49.33228" lon="1.17756">
        <ele>120.7</ele>
        <time>2021-09-17T12:58:21Z</time>
      </trkpt>
      <trkpt lat="49.33233" lon="1.17755">
        <ele>121</ele>
        <time>2021-09-17T12:58:22Z</time>
      </trkpt>
      <trkpt lat="49.3324" lon="1.17754">
        <ele>121.3</ele>
        <time>2021-09-17T12:58:24Z</time>
      </trkpt>
      <trkpt lat="49.33243" lon="1.17749">
        <ele>121.5</ele>
        <time>2021-09-17T12:58:25Z</time>
      </trkpt>
      <trkpt lat="49.33248" lon="1.17749">
        <ele>121.8</ele>
        <time>2021-09-17T12:58:26Z</time>
      </trkpt>
      <trkpt lat="49.33252" lon="1.17756">
        <ele>122.1</ele>
        <time>2021-09-17T12:58:27Z</time>
      </trkpt>
      <trkpt lat="49.33261" lon="1.1776">
        <ele>122.4</ele>
        <time>2021-09-17T12:58:29Z</time>
      </trkpt>
      <trkpt lat="49.33266" lon="1.17761">
        <ele>122.5</ele>
        <time>2021-09-17T12:58:30Z</time>
      </trkpt>
      <trkpt lat="49.33275" lon="1.17763">
        <ele>122.5</ele>
        <time>2021-09-17T12:58:32Z</time>
      </trkpt>
      <trkpt lat="49.33283" lon="1.17766">
        <ele>122.5</ele>
        <time>2021-09-17T12:58:34Z</time>
      </trkpt>
      <trkpt lat="49.33289" lon="1.17766">
        <ele>122.5</ele>
        <time>2021-09-17T12:58:35Z</time>
      </trkpt>
      <trkpt lat="49.33293" lon="1.17768">
        <ele>122.4</ele>
        <time>2021-09-17T12:58:36Z</time>
      </trkpt>
      <trkpt lat="49.33299" lon="1.1777">
        <ele>122.2</ele>
        <time>2021-09-17T12:58:37Z</time>
      </trkpt>
      <trkpt lat="49.33311" lon="1.17776">
        <ele>122</ele>
        <time>2021-09-17T12:58:39Z</time>
      </trkpt>
      <trkpt lat="49.33317" lon="1.17779">
        <ele>121.8</ele>
        <time>2021-09-17T12:58:40Z</time>
      </trkpt>
      <trkpt lat="49.33329" lon="1.17784">
        <ele>121.6</ele>
        <time>2021-09-17T12:58:42Z</time>
      </trkpt>
      <trkpt lat="49.33335" lon="1.17788">
        <ele>121.5</ele>
        <time>2021-09-17T12:58:43Z</time>
      </trkpt>
      <trkpt lat="49.33348" lon="1.17798">
        <ele>121.3</ele>
        <time>2021-09-17T12:58:45Z</time>
      </trkpt>
      <trkpt lat="49.33355" lon="1.17803">
        <ele>121.3</ele>
        <time>2021-09-17T12:58:46Z</time>
      </trkpt>
      <trkpt lat="49.33366" lon="1.17815">
        <ele>121.3</ele>
        <time>2021-09-17T12:58:48Z</time>
      </trkpt>
      <trkpt lat="49.33372" lon="1.17821">
        <ele>121.4</ele>
        <time>2021-09-17T12:58:49Z</time>
      </trkpt>
      <trkpt lat="49.33377" lon="1.17827">
        <ele>121.5</ele>
        <time>2021-09-17T12:58:50Z</time>
      </trkpt>
      <trkpt lat="49.33382" lon="1.17833">
        <ele>121.7</ele>
        <time>2021-09-17T12:58:51Z</time>
      </trkpt>
      <trkpt lat="49.33392" lon="1.17846">
        <ele>122</ele>
        <time>2021-09-17T12:58:53Z</time>
      </trkpt>
      <trkpt lat="49.33403" lon="1.17858">
        <ele>122.3</ele>
        <time>2021-09-17T12:58:55Z</time>
      </trkpt>
      <trkpt lat="49.33408" lon="1.17863">
        <ele>122.6</ele>
        <time>2021-09-17T12:58:56Z</time>
      </trkpt>
      <trkpt lat="49.33413" lon="1.17869">
        <ele>123</ele>
        <time>2021-09-17T12:58:57Z</time>
      </trkpt>
      <trkpt lat="49.33418" lon="1.17875">
        <ele>123.4</ele>
        <time>2021-09-17T12:58:58Z</time>
      </trkpt>
      <trkpt lat="49.33428" lon="1.17886">
        <ele>123.7</ele>
        <time>2021-09-17T12:59:00Z</time>
      </trkpt>
      <trkpt lat="49.33439" lon="1.17898">
        <ele>124</ele>
        <time>2021-09-17T12:59:02Z</time>
      </trkpt>
      <trkpt lat="49.33444" lon="1.17904">
        <ele>124.3</ele>
        <time>2021-09-17T12:59:03Z</time>
      </trkpt>
      <trkpt lat="49.33455" lon="1.17917">
        <ele>124.5</ele>
        <time>2021-09-17T12:59:05Z</time>
      </trkpt>
      <trkpt lat="49.33461" lon="1.17922">
        <ele>124.8</ele>
        <time>2021-09-17T12:59:06Z</time>
      </trkpt>
      <trkpt lat="49.33472" lon="1.17933">
        <ele>125</ele>
        <time>2021-09-17T12:59:08Z</time>
      </trkpt>
      <trkpt lat="49.33483" lon="1.17945">
        <ele>125.1</ele>
        <time>2021-09-17T12:59:10Z</time>
      </trkpt>
      <trkpt lat="49.33488" lon="1.1795">
        <ele>125.1</ele>
        <time>2021-09-17T12:59:11Z</time>
      </trkpt>
      <trkpt lat="49.33499" lon="1.17961">
        <ele>125</ele>
        <time>2021-09-17T12:59:13Z</time>
      </trkpt>
      <trkpt lat="49.33511" lon="1.17971">
        <ele>124.8</ele>
        <time>2021-09-17T12:59:15Z</time>
      </trkpt>
      <trkpt lat="49.33523" lon="1.1798">
        <ele>124.6</ele>
        <time>2021-09-17T12:59:17Z</time>
      </trkpt>
      <trkpt lat="49.3353" lon="1.17985">
        <ele>124.5</ele>
        <time>2021-09-17T12:59:18Z</time>
      </trkpt>
      <trkpt lat="49.33536" lon="1.1799">
        <ele>124.4</ele>
        <time>2021-09-17T12:59:19Z</time>
      </trkpt>
      <trkpt lat="49.33542" lon="1.17995">
        <ele>124.4</ele>
        <time>2021-09-17T12:59:20Z</time>
      </trkpt>
      <trkpt lat="49.33555" lon="1.18005">
        <ele>124.3</ele>
        <time>2021-09-17T12:59:22Z</time>
      </trkpt>
      <trkpt lat="49.33561" lon="1.1801">
        <ele>124.3</ele>
        <time>2021-09-17T12:59:23Z</time>
      </trkpt>
      <trkpt lat="49.33573" lon="1.1802">
        <ele>124.4</ele>
        <time>2021-09-17T12:59:25Z</time>
      </trkpt>
      <trkpt lat="49.33586" lon="1.18031">
        <ele>124.5</ele>
        <time>2021-09-17T12:59:27Z</time>
      </trkpt>
      <trkpt lat="49.33599" lon="1.18041">
        <ele>124.6</ele>
        <time>2021-09-17T12:59:29Z</time>
      </trkpt>
      <trkpt lat="49.33606" lon="1.18046">
        <ele>124.8</ele>
        <time>2021-09-17T12:59:30Z</time>
      </trkpt>
      <trkpt lat="49.33619" lon="1.18057">
        <ele>125.1</ele>
        <time>2021-09-17T12:59:32Z</time>
      </trkpt>
      <trkpt lat="49.33632" lon="1.18066">
        <ele>125.4</ele>
        <time>2021-09-17T12:59:34Z</time>
      </trkpt>
      <trkpt lat="49.33639" lon="1.1807">
        <ele>125.6</ele>
        <time>2021-09-17T12:59:35Z</time>
      </trkpt>
      <trkpt lat="49.33651" lon="1.1808">
        <ele>125.9</ele>
        <time>2021-09-17T12:59:37Z</time>
      </trkpt>
      <trkpt lat="49.33664" lon="1.18089">
        <ele>126.1</ele>
        <time>2021-09-17T12:59:39Z</time>
      </trkpt>
      <trkpt lat="49.33671" lon="1.18093">
        <ele>126.3</ele>
        <time>2021-09-17T12:59:40Z</time>
      </trkpt>
      <trkpt lat="49.33684" lon="1.18102">
        <ele>126.4</ele>
        <time>2021-09-17T12:59:42Z</time>
      </trkpt>
      <trkpt lat="49.33697" lon="1.18109">
        <ele>126.5</ele>
        <time>2021-09-17T12:59:44Z</time>
      </trkpt>
      <trkpt lat="49.3371" lon="1.18118">
        <ele>126.5</ele>
        <time>2021-09-17T12:59:46Z</time>
      </trkpt>
      <trkpt lat="49.33722" lon="1.18127">
        <ele>126.6</ele>
        <time>2021-09-17T12:59:48Z</time>
      </trkpt>
      <trkpt lat="49.33735" lon="1.18136">
        <ele>126.7</ele>
        <time>2021-09-17T12:59:50Z</time>
      </trkpt>
      <trkpt lat="49.33748" lon="1.18146">
        <ele>126.8</ele>
        <time>2021-09-17T12:59:52Z</time>
      </trkpt>
      <trkpt lat="49.33754" lon="1.18151">
        <ele>126.9</ele>
        <time>2021-09-17T12:59:53Z</time>
      </trkpt>
      <trkpt lat="49.33767" lon="1.1816">
        <ele>127</ele>
        <time>2021-09-17T12:59:55Z</time>
      </trkpt>
      <trkpt lat="49.33781" lon="1.18169">
        <ele>127.1</ele>
        <time>2021-09-17T12:59:57Z</time>
      </trkpt>
      <trkpt lat="49.33787" lon="1.18174">
        <ele>127.2</ele>
        <time>2021-09-17T12:59:58Z</time>
      </trkpt>
      <trkpt lat="49.33794" lon="1.18178">
        <ele>127.3</ele>
        <time>2021-09-17T12:59:59Z</time>
      </trkpt>
      <trkpt lat="49.33807" lon="1.18186">
        <ele>127.4</ele>
        <time>2021-09-17T13:00:01Z</time>
      </trkpt>
      <trkpt lat="49.33819" lon="1.18196">
        <ele>127.5</ele>
        <time>2021-09-17T13:00:03Z</time>
      </trkpt>
      <trkpt lat="49.33832" lon="1.18204">
        <ele>127.6</ele>
        <time>2021-09-17T13:00:05Z</time>
      </trkpt>
      <trkpt lat="49.33845" lon="1.18212">
        <ele>127.7</ele>
        <time>2021-09-17T13:00:07Z</time>
      </trkpt>
      <trkpt lat="49.33852" lon="1.18216">
        <ele>127.8</ele>
        <time>2021-09-17T13:00:08Z</time>
      </trkpt>
      <trkpt lat="49.33865" lon="1.18223">
        <ele>127.9</ele>
        <time>2021-09-17T13:00:10Z</time>
      </trkpt>
      <trkpt lat="49.33879" lon="1.1823">
        <ele>128</ele>
        <time>2021-09-17T13:00:12Z</time>
      </trkpt>
      <trkpt lat="49.33886" lon="1.18233">
        <ele>128.2</ele>
        <time>2021-09-17T13:00:13Z</time>
      </trkpt>
      <trkpt lat="49.339" lon="1.18238">
        <ele>128.3</ele>
        <time>2021-09-17T13:00:15Z</time>
      </trkpt>
      <trkpt lat="49.33914" lon="1.18243">
        <ele>128.4</ele>
        <time>2021-09-17T13:00:17Z</time>
      </trkpt>
      <trkpt lat="49.33921" lon="1.18246">
        <ele>128.5</ele>
        <time>2021-09-17T13:00:18Z</time>
      </trkpt>
      <trkpt lat="49.33928" lon="1.18248">
        <ele>128.5</ele>
        <time>2021-09-17T13:00:19Z</time>
      </trkpt>
      <trkpt lat="49.33935" lon="1.18251">
        <ele>128.6</ele>
        <time>2021-09-17T13:00:20Z</time>
      </trkpt>
      <trkpt lat="49.33942" lon="1.18253">
        <ele>128.6</ele>
        <time>2021-09-17T13:00:21Z</time>
      </trkpt>
      <trkpt lat="49.33956" lon="1.18258">
        <ele>128.7</ele>
        <time>2021-09-17T13:00:23Z</time>
      </trkpt>
      <trkpt lat="49.33963" lon="1.1826">
        <ele>128.8</ele>
        <time>2021-09-17T13:00:24Z</time>
      </trkpt>
      <trkpt lat="49.33977" lon="1.18264">
        <ele>128.9</ele>
        <time>2021-09-17T13:00:26Z</time>
      </trkpt>
      <trkpt lat="49.33984" lon="1.18267">
        <ele>129</ele>
        <time>2021-09-17T13:00:27Z</time>
      </trkpt>
      <trkpt lat="49.33998" lon="1.18272">
        <ele>129.1</ele>
        <time>2021-09-17T13:00:29Z</time>
      </trkpt>
      <trkpt lat="49.34011" lon="1.18276">
        <ele>129.2</ele>
        <time>2021-09-17T13:00:31Z</time>
      </trkpt>
      <trkpt lat="49.34018" lon="1.18279">
        <ele>129.3</ele>
        <time>2021-09-17T13:00:32Z</time>
      </trkpt>
      <trkpt lat="49.34025" lon="1.18282">
        <ele>129.4</ele>
        <time>2021-09-17T13:00:33Z</time>
      </trkpt>
      <trkpt lat="49.3404" lon="1.1829">
        <ele>129.5</ele>
        <time>2021-09-17T13:00:35Z</time>
      </trkpt>
      <trkpt lat="49.34046" lon="1.18295">
        <ele>129.5</ele>
        <time>2021-09-17T13:00:36Z</time>
      </trkpt>
      <trkpt lat="49.3406" lon="1.18305">
        <ele>129.7</ele>
        <time>2021-09-17T13:00:38Z</time>
      </trkpt>
      <trkpt lat="49.34066" lon="1.18311">
        <ele>129.9</ele>
        <time>2021-09-17T13:00:39Z</time>
      </trkpt>
      <trkpt lat="49.34072" lon="1.18317">
        <ele>130.1</ele>
        <time>2021-09-17T13:00:40Z</time>
      </trkpt>
      <trkpt lat="49.34085" lon="1.1833">
        <ele>130.3</ele>
        <time>2021-09-17T13:00:42Z</time>
      </trkpt>
      <trkpt lat="49.34097" lon="1.18343">
        <ele>130.5</ele>
        <time>2021-09-17T13:00:44Z</time>
      </trkpt>
      <trkpt lat="49.34103" lon="1.1835">
        <ele>130.5</ele>
        <time>2021-09-17T13:00:45Z</time>
      </trkpt>
      <trkpt lat="49.34114" lon="1.18364">
        <ele>130.6</ele>
        <time>2021-09-17T13:00:47Z</time>
      </trkpt>
      <trkpt lat="49.34119" lon="1.18371">
        <ele>130.7</ele>
        <time>2021-09-17T13:00:48Z</time>
      </trkpt>
      <trkpt lat="49.3413" lon="1.18385">
        <ele>130.8</ele>
        <time>2021-09-17T13:00:50Z</time>
      </trkpt>
      <trkpt lat="49.34141" lon="1.18399">
        <ele>130.9</ele>
        <time>2021-09-17T13:00:52Z</time>
      </trkpt>
      <trkpt lat="49.34152" lon="1.18412">
        <ele>131</ele>
        <time>2021-09-17T13:00:54Z</time>
      </trkpt>
      <trkpt lat="49.34158" lon="1.18417">
        <ele>131</ele>
        <time>2021-09-17T13:00:55Z</time>
      </trkpt>
      <trkpt lat="49.34171" lon="1.18428">
        <ele>131</ele>
        <time>2021-09-17T13:00:57Z</time>
      </trkpt>
      <trkpt lat="49.34183" lon="1.18439">
        <ele>130.9</ele>
        <time>2021-09-17T13:00:59Z</time>
      </trkpt>
      <trkpt lat="49.34189" lon="1.18445">
        <ele>130.8</ele>
        <time>2021-09-17T13:01:00Z</time>
      </trkpt>
      <trkpt lat="49.34201" lon="1.18456">
        <ele>130.7</ele>
        <time>2021-09-17T13:01:02Z</time>
      </trkpt>
      <trkpt lat="49.34213" lon="1.18468">
        <ele>130.7</ele>
        <time>2021-09-17T13:01:04Z</time>
      </trkpt>
      <trkpt lat="49.34226" lon="1.18479">
        <ele>130.7</ele>
        <time>2021-09-17T13:01:06Z</time>
      </trkpt>
      <trkpt lat="49.34232" lon="1.18485">
        <ele>130.7</ele>
        <time>2021-09-17T13:01:07Z</time>
      </trkpt>
      <trkpt lat="49.34245" lon="1.18496">
        <ele>130.8</ele>
        <time>2021-09-17T13:01:09Z</time>
      </trkpt>
      <trkpt lat="49.34257" lon="1.18507">
        <ele>130.9</ele>
        <time>2021-09-17T13:01:11Z</time>
      </trkpt>
      <trkpt lat="49.34269" lon="1.18519">
        <ele>130.9</ele>
        <time>2021-09-17T13:01:13Z</time>
      </trkpt>
      <trkpt lat="49.34275" lon="1.18524">
        <ele>130.9</ele>
        <time>2021-09-17T13:01:14Z</time>
      </trkpt>
      <trkpt lat="49.3429" lon="1.18536">
        <ele>130.9</ele>
        <time>2021-09-17T13:01:16Z</time>
      </trkpt>
      <trkpt lat="49.343" lon="1.18547">
        <ele>131</ele>
        <time>2021-09-17T13:01:18Z</time>
      </trkpt>
      <trkpt lat="49.34305" lon="1.18552">
        <ele>131.1</ele>
        <time>2021-09-17T13:01:19Z</time>
      </trkpt>
      <trkpt lat="49.34318" lon="1.18563">
        <ele>131.2</ele>
        <time>2021-09-17T13:01:21Z</time>
      </trkpt>
      <trkpt lat="49.34324" lon="1.18568">
        <ele>131.3</ele>
        <time>2021-09-17T13:01:22Z</time>
      </trkpt>
      <trkpt lat="49.3433" lon="1.18573">
        <ele>131.4</ele>
        <time>2021-09-17T13:01:23Z</time>
      </trkpt>
      <trkpt lat="49.34336" lon="1.18578">
        <ele>131.5</ele>
        <time>2021-09-17T13:01:24Z</time>
      </trkpt>
      <trkpt lat="49.34347" lon="1.18588">
        <ele>131.6</ele>
        <time>2021-09-17T13:01:26Z</time>
      </trkpt>
      <trkpt lat="49.34352" lon="1.18594">
        <ele>131.7</ele>
        <time>2021-09-17T13:01:28Z</time>
      </trkpt>
      <trkpt lat="49.34363" lon="1.18598">
        <ele>131.9</ele>
        <time>2021-09-17T13:01:30Z</time>
      </trkpt>
      <trkpt lat="49.34369" lon="1.18597">
        <ele>132.1</ele>
        <time>2021-09-17T13:01:31Z</time>
      </trkpt>
      <trkpt lat="49.34383" lon="1.18591">
        <ele>132.3</ele>
        <time>2021-09-17T13:01:33Z</time>
      </trkpt>
      <trkpt lat="49.34392" lon="1.18589">
        <ele>132.5</ele>
        <time>2021-09-17T13:01:34Z</time>
      </trkpt>
      <trkpt lat="49.34408" lon="1.18586">
        <ele>132.6</ele>
        <time>2021-09-17T13:01:36Z</time>
      </trkpt>
      <trkpt lat="49.34416" lon="1.18584">
        <ele>132.8</ele>
        <time>2021-09-17T13:01:37Z</time>
      </trkpt>
      <trkpt lat="49.34432" lon="1.18581">
        <ele>132.9</ele>
        <time>2021-09-17T13:01:39Z</time>
      </trkpt>
      <trkpt lat="49.34448" lon="1.18578">
        <ele>133</ele>
        <time>2021-09-17T13:01:41Z</time>
      </trkpt>
      <trkpt lat="49.34463" lon="1.18574">
        <ele>133.1</ele>
        <time>2021-09-17T13:01:43Z</time>
      </trkpt>
      <trkpt lat="49.34479" lon="1.18571">
        <ele>133.2</ele>
        <time>2021-09-17T13:01:45Z</time>
      </trkpt>
      <trkpt lat="49.34493" lon="1.18565">
        <ele>133.3</ele>
        <time>2021-09-17T13:01:47Z</time>
      </trkpt>
      <trkpt lat="49.34501" lon="1.18562">
        <ele>133.5</ele>
        <time>2021-09-17T13:01:48Z</time>
      </trkpt>
      <trkpt lat="49.34508" lon="1.18558">
        <ele>133.6</ele>
        <time>2021-09-17T13:01:49Z</time>
      </trkpt>
      <trkpt lat="49.34515" lon="1.18554">
        <ele>133.7</ele>
        <time>2021-09-17T13:01:50Z</time>
      </trkpt>
      <trkpt lat="49.34529" lon="1.18546">
        <ele>133.8</ele>
        <time>2021-09-17T13:01:52Z</time>
      </trkpt>
      <trkpt lat="49.34536" lon="1.18542">
        <ele>133.9</ele>
        <time>2021-09-17T13:01:53Z</time>
      </trkpt>
      <trkpt lat="49.3455" lon="1.18533">
        <ele>134.1</ele>
        <time>2021-09-17T13:01:55Z</time>
      </trkpt>
      <trkpt lat="49.34557" lon="1.18529">
        <ele>134.3</ele>
        <time>2021-09-17T13:01:56Z</time>
      </trkpt>
      <trkpt lat="49.34571" lon="1.1852">
        <ele>134.5</ele>
        <time>2021-09-17T13:01:58Z</time>
      </trkpt>
      <trkpt lat="49.34584" lon="1.1851">
        <ele>134.5</ele>
        <time>2021-09-17T13:02:00Z</time>
      </trkpt>
      <trkpt lat="49.34591" lon="1.18506">
        <ele>134.6</ele>
        <time>2021-09-17T13:02:01Z</time>
      </trkpt>
      <trkpt lat="49.34605" lon="1.18496">
        <ele>134.7</ele>
        <time>2021-09-17T13:02:03Z</time>
      </trkpt>
      <trkpt lat="49.34612" lon="1.18491">
        <ele>134.7</ele>
        <time>2021-09-17T13:02:04Z</time>
      </trkpt>
      <trkpt lat="49.34626" lon="1.18482">
        <ele>134.7</ele>
        <time>2021-09-17T13:02:06Z</time>
      </trkpt>
      <trkpt lat="49.3464" lon="1.18471">
        <ele>134.8</ele>
        <time>2021-09-17T13:02:08Z</time>
      </trkpt>
      <trkpt lat="49.34647" lon="1.18466">
        <ele>134.9</ele>
        <time>2021-09-17T13:02:09Z</time>
      </trkpt>
      <trkpt lat="49.34661" lon="1.18457">
        <ele>135</ele>
        <time>2021-09-17T13:02:11Z</time>
      </trkpt>
      <trkpt lat="49.34676" lon="1.18449">
        <ele>135</ele>
        <time>2021-09-17T13:02:13Z</time>
      </trkpt>
      <trkpt lat="49.34692" lon="1.18445">
        <ele>135</ele>
        <time>2021-09-17T13:02:15Z</time>
      </trkpt>
      <trkpt lat="49.34707" lon="1.18442">
        <ele>135</ele>
        <time>2021-09-17T13:02:17Z</time>
      </trkpt>
      <trkpt lat="49.34715" lon="1.18442">
        <ele>135</ele>
        <time>2021-09-17T13:02:18Z</time>
      </trkpt>
      <trkpt lat="49.34723" lon="1.18441">
        <ele>135.1</ele>
        <time>2021-09-17T13:02:19Z</time>
      </trkpt>
      <trkpt lat="49.34739" lon="1.18441">
        <ele>135.2</ele>
        <time>2021-09-17T13:02:21Z</time>
      </trkpt>
      <trkpt lat="49.34747" lon="1.1844">
        <ele>135.3</ele>
        <time>2021-09-17T13:02:22Z</time>
      </trkpt>
      <trkpt lat="49.34762" lon="1.18438">
        <ele>135.5</ele>
        <time>2021-09-17T13:02:24Z</time>
      </trkpt>
      <trkpt lat="49.34778" lon="1.18437">
        <ele>135.6</ele>
        <time>2021-09-17T13:02:26Z</time>
      </trkpt>
      <trkpt lat="49.34794" lon="1.18436">
        <ele>135.8</ele>
        <time>2021-09-17T13:02:28Z</time>
      </trkpt>
      <trkpt lat="49.34809" lon="1.18437">
        <ele>136</ele>
        <time>2021-09-17T13:02:30Z</time>
      </trkpt>
      <trkpt lat="49.34817" lon="1.18436">
        <ele>136.1</ele>
        <time>2021-09-17T13:02:31Z</time>
      </trkpt>
      <trkpt lat="49.34832" lon="1.18435">
        <ele>136.3</ele>
        <time>2021-09-17T13:02:33Z</time>
      </trkpt>
      <trkpt lat="49.3484" lon="1.18435">
        <ele>136.5</ele>
        <time>2021-09-17T13:02:34Z</time>
      </trkpt>
      <trkpt lat="49.34856" lon="1.18434">
        <ele>136.7</ele>
        <time>2021-09-17T13:02:36Z</time>
      </trkpt>
      <trkpt lat="49.3487" lon="1.18434">
        <ele>136.9</ele>
        <time>2021-09-17T13:02:38Z</time>
      </trkpt>
      <trkpt lat="49.34885" lon="1.18433">
        <ele>137.2</ele>
        <time>2021-09-17T13:02:40Z</time>
      </trkpt>
      <trkpt lat="49.349" lon="1.18432">
        <ele>137.5</ele>
        <time>2021-09-17T13:02:42Z</time>
      </trkpt>
      <trkpt lat="49.34915" lon="1.18431">
        <ele>137.8</ele>
        <time>2021-09-17T13:02:44Z</time>
      </trkpt>
      <trkpt lat="49.34923" lon="1.1843">
        <ele>138.1</ele>
        <time>2021-09-17T13:02:45Z</time>
      </trkpt>
      <trkpt lat="49.34937" lon="1.18429">
        <ele>138.4</ele>
        <time>2021-09-17T13:02:47Z</time>
      </trkpt>
      <trkpt lat="49.34953" lon="1.18426">
        <ele>138.6</ele>
        <time>2021-09-17T13:02:49Z</time>
      </trkpt>
      <trkpt lat="49.34968" lon="1.18423">
        <ele>139</ele>
        <time>2021-09-17T13:02:51Z</time>
      </trkpt>
      <trkpt lat="49.34982" lon="1.18419">
        <ele>139.3</ele>
        <time>2021-09-17T13:02:53Z</time>
      </trkpt>
      <trkpt lat="49.34997" lon="1.18415">
        <ele>139.5</ele>
        <time>2021-09-17T13:02:55Z</time>
      </trkpt>
      <trkpt lat="49.35012" lon="1.18411">
        <ele>139.6</ele>
        <time>2021-09-17T13:02:57Z</time>
      </trkpt>
      <trkpt lat="49.35026" lon="1.18406">
        <ele>139.8</ele>
        <time>2021-09-17T13:02:59Z</time>
      </trkpt>
      <trkpt lat="49.35033" lon="1.18404">
        <ele>139.9</ele>
        <time>2021-09-17T13:03:00Z</time>
      </trkpt>
      <trkpt lat="49.35047" lon="1.184">
        <ele>140</ele>
        <time>2021-09-17T13:03:02Z</time>
      </trkpt>
      <trkpt lat="49.35061" lon="1.18396">
        <ele>140.1</ele>
        <time>2021-09-17T13:03:04Z</time>
      </trkpt>
      <trkpt lat="49.35075" lon="1.18393">
        <ele>140.2</ele>
        <time>2021-09-17T13:03:06Z</time>
      </trkpt>
      <trkpt lat="49.35083" lon="1.18392">
        <ele>140.3</ele>
        <time>2021-09-17T13:03:07Z</time>
      </trkpt>
      <trkpt lat="49.3509" lon="1.1839">
        <ele>140.4</ele>
        <time>2021-09-17T13:03:08Z</time>
      </trkpt>
      <trkpt lat="49.35104" lon="1.18389">
        <ele>140.4</ele>
        <time>2021-09-17T13:03:10Z</time>
      </trkpt>
      <trkpt lat="49.35117" lon="1.18385">
        <ele>140.4</ele>
        <time>2021-09-17T13:03:12Z</time>
      </trkpt>
      <trkpt lat="49.35124" lon="1.18383">
        <ele>140.5</ele>
        <time>2021-09-17T13:03:13Z</time>
      </trkpt>
      <trkpt lat="49.35137" lon="1.18381">
        <ele>140.6</ele>
        <time>2021-09-17T13:03:15Z</time>
      </trkpt>
      <trkpt lat="49.35151" lon="1.18377">
        <ele>140.8</ele>
        <time>2021-09-17T13:03:17Z</time>
      </trkpt>
      <trkpt lat="49.35157" lon="1.18375">
        <ele>141</ele>
        <time>2021-09-17T13:03:18Z</time>
      </trkpt>
      <trkpt lat="49.3517" lon="1.18367">
        <ele>141.2</ele>
        <time>2021-09-17T13:03:20Z</time>
      </trkpt>
      <trkpt lat="49.35183" lon="1.1836">
        <ele>141.4</ele>
        <time>2021-09-17T13:03:22Z</time>
      </trkpt>
      <trkpt lat="49.3519" lon="1.18358">
        <ele>141.5</ele>
        <time>2021-09-17T13:03:23Z</time>
      </trkpt>
      <trkpt lat="49.35197" lon="1.18356">
        <ele>141.7</ele>
        <time>2021-09-17T13:03:24Z</time>
      </trkpt>
      <trkpt lat="49.35211" lon="1.18352">
        <ele>141.9</ele>
        <time>2021-09-17T13:03:26Z</time>
      </trkpt>
      <trkpt lat="49.35225" lon="1.18348">
        <ele>142.2</ele>
        <time>2021-09-17T13:03:28Z</time>
      </trkpt>
      <trkpt lat="49.35233" lon="1.18346">
        <ele>142.5</ele>
        <time>2021-09-17T13:03:29Z</time>
      </trkpt>
      <trkpt lat="49.35247" lon="1.18342">
        <ele>142.7</ele>
        <time>2021-09-17T13:03:31Z</time>
      </trkpt>
      <trkpt lat="49.35255" lon="1.1834">
        <ele>143</ele>
        <time>2021-09-17T13:03:32Z</time>
      </trkpt>
      <trkpt lat="49.3527" lon="1.18337">
        <ele>143.3</ele>
        <time>2021-09-17T13:03:34Z</time>
      </trkpt>
      <trkpt lat="49.35277" lon="1.18335">
        <ele>143.5</ele>
        <time>2021-09-17T13:03:35Z</time>
      </trkpt>
      <trkpt lat="49.35285" lon="1.18334">
        <ele>143.8</ele>
        <time>2021-09-17T13:03:36Z</time>
      </trkpt>
      <trkpt lat="49.35292" lon="1.18332">
        <ele>144.1</ele>
        <time>2021-09-17T13:03:37Z</time>
      </trkpt>
      <trkpt lat="49.35306" lon="1.1833">
        <ele>144.4</ele>
        <time>2021-09-17T13:03:39Z</time>
      </trkpt>
      <trkpt lat="49.35314" lon="1.18328">
        <ele>144.6</ele>
        <time>2021-09-17T13:03:40Z</time>
      </trkpt>
      <trkpt lat="49.35321" lon="1.18328">
        <ele>144.9</ele>
        <time>2021-09-17T13:03:41Z</time>
      </trkpt>
      <trkpt lat="49.35336" lon="1.18325">
        <ele>145.2</ele>
        <time>2021-09-17T13:03:43Z</time>
      </trkpt>
      <trkpt lat="49.35352" lon="1.18324">
        <ele>145.5</ele>
        <time>2021-09-17T13:03:45Z</time>
      </trkpt>
      <trkpt lat="49.35367" lon="1.18321">
        <ele>145.6</ele>
        <time>2021-09-17T13:03:47Z</time>
      </trkpt>
      <trkpt lat="49.35383" lon="1.18319">
        <ele>145.7</ele>
        <time>2021-09-17T13:03:49Z</time>
      </trkpt>
      <trkpt lat="49.3539" lon="1.18318">
        <ele>145.7</ele>
        <time>2021-09-17T13:03:50Z</time>
      </trkpt>
      <trkpt lat="49.35398" lon="1.18316">
        <ele>145.6</ele>
        <time>2021-09-17T13:03:51Z</time>
      </trkpt>
      <trkpt lat="49.35406" lon="1.18314">
        <ele>145.5</ele>
        <time>2021-09-17T13:03:52Z</time>
      </trkpt>
      <trkpt lat="49.35421" lon="1.18311">
        <ele>145.3</ele>
        <time>2021-09-17T13:03:54Z</time>
      </trkpt>
      <trkpt lat="49.35437" lon="1.18308">
        <ele>145.2</ele>
        <time>2021-09-17T13:03:56Z</time>
      </trkpt>
      <trkpt lat="49.35445" lon="1.18307">
        <ele>145.1</ele>
        <time>2021-09-17T13:03:57Z</time>
      </trkpt>
      <trkpt lat="49.35461" lon="1.18303">
        <ele>145.1</ele>
        <time>2021-09-17T13:03:59Z</time>
      </trkpt>
      <trkpt lat="49.35469" lon="1.18302">
        <ele>145.1</ele>
        <time>2021-09-17T13:04:00Z</time>
      </trkpt>
      <trkpt lat="49.35476" lon="1.183">
        <ele>145.2</ele>
        <time>2021-09-17T13:04:01Z</time>
      </trkpt>
      <trkpt lat="49.35492" lon="1.18296">
        <ele>145.4</ele>
        <time>2021-09-17T13:04:03Z</time>
      </trkpt>
      <trkpt lat="49.35507" lon="1.18292">
        <ele>145.5</ele>
        <time>2021-09-17T13:04:05Z</time>
      </trkpt>
      <trkpt lat="49.35515" lon="1.18289">
        <ele>145.7</ele>
        <time>2021-09-17T13:04:06Z</time>
      </trkpt>
      <trkpt lat="49.3553" lon="1.18284">
        <ele>145.9</ele>
        <time>2021-09-17T13:04:08Z</time>
      </trkpt>
      <trkpt lat="49.35546" lon="1.18279">
        <ele>146</ele>
        <time>2021-09-17T13:04:10Z</time>
      </trkpt>
      <trkpt lat="49.35561" lon="1.18274">
        <ele>146.1</ele>
        <time>2021-09-17T13:04:12Z</time>
      </trkpt>
      <trkpt lat="49.35569" lon="1.18272">
        <ele>146</ele>
        <time>2021-09-17T13:04:13Z</time>
      </trkpt>
      <trkpt lat="49.35584" lon="1.18268">
        <ele>145.9</ele>
        <time>2021-09-17T13:04:15Z</time>
      </trkpt>
      <trkpt lat="49.35591" lon="1.18267">
        <ele>145.7</ele>
        <time>2021-09-17T13:04:16Z</time>
      </trkpt>
      <trkpt lat="49.35606" lon="1.18271">
        <ele>145.5</ele>
        <time>2021-09-17T13:04:18Z</time>
      </trkpt>
      <trkpt lat="49.35613" lon="1.18272">
        <ele>145.4</ele>
        <time>2021-09-17T13:04:19Z</time>
      </trkpt>
      <trkpt lat="49.3562" lon="1.18269">
        <ele>145.1</ele>
        <time>2021-09-17T13:04:20Z</time>
      </trkpt>
      <trkpt lat="49.35626" lon="1.18261">
        <ele>145</ele>
        <time>2021-09-17T13:04:21Z</time>
      </trkpt>
      <trkpt lat="49.35638" lon="1.18246">
        <ele>145</ele>
        <time>2021-09-17T13:04:23Z</time>
      </trkpt>
      <trkpt lat="49.35646" lon="1.18242">
        <ele>145.2</ele>
        <time>2021-09-17T13:04:24Z</time>
      </trkpt>
      <trkpt lat="49.35661" lon="1.18236">
        <ele>145.5</ele>
        <time>2021-09-17T13:04:26Z</time>
      </trkpt>
      <trkpt lat="49.35669" lon="1.18232">
        <ele>145.8</ele>
        <time>2021-09-17T13:04:27Z</time>
      </trkpt>
      <trkpt lat="49.35684" lon="1.18225">
        <ele>146.3</ele>
        <time>2021-09-17T13:04:29Z</time>
      </trkpt>
      <trkpt lat="49.35692" lon="1.18221">
        <ele>146.7</ele>
        <time>2021-09-17T13:04:30Z</time>
      </trkpt>
      <trkpt lat="49.35707" lon="1.18213">
        <ele>147.1</ele>
        <time>2021-09-17T13:04:32Z</time>
      </trkpt>
      <trkpt lat="49.35715" lon="1.18208">
        <ele>147.4</ele>
        <time>2021-09-17T13:04:33Z</time>
      </trkpt>
      <trkpt lat="49.3573" lon="1.18199">
        <ele>147.5</ele>
        <time>2021-09-17T13:04:35Z</time>
      </trkpt>
      <trkpt lat="49.35737" lon="1.18193">
        <ele>147.7</ele>
        <time>2021-09-17T13:04:36Z</time>
      </trkpt>
      <trkpt lat="49.35751" lon="1.1818">
        <ele>147.7</ele>
        <time>2021-09-17T13:04:38Z</time>
      </trkpt>
      <trkpt lat="49.35765" lon="1.18166">
        <ele>147.6</ele>
        <time>2021-09-17T13:04:40Z</time>
      </trkpt>
      <trkpt lat="49.35772" lon="1.18158">
        <ele>147.5</ele>
        <time>2021-09-17T13:04:41Z</time>
      </trkpt>
      <trkpt lat="49.35779" lon="1.18151">
        <ele>147.3</ele>
        <time>2021-09-17T13:04:42Z</time>
      </trkpt>
      <trkpt lat="49.35785" lon="1.18143">
        <ele>147</ele>
        <time>2021-09-17T13:04:43Z</time>
      </trkpt>
      <trkpt lat="49.35792" lon="1.18136">
        <ele>146.7</ele>
        <time>2021-09-17T13:04:44Z</time>
      </trkpt>
      <trkpt lat="49.35805" lon="1.18122">
        <ele>146.5</ele>
        <time>2021-09-17T13:04:46Z</time>
      </trkpt>
      <trkpt lat="49.35819" lon="1.18107">
        <ele>146.3</ele>
        <time>2021-09-17T13:04:48Z</time>
      </trkpt>
      <trkpt lat="49.35832" lon="1.18092">
        <ele>146.3</ele>
        <time>2021-09-17T13:04:50Z</time>
      </trkpt>
      <trkpt lat="49.35845" lon="1.18078">
        <ele>146.4</ele>
        <time>2021-09-17T13:04:52Z</time>
      </trkpt>
      <trkpt lat="49.35851" lon="1.18071">
        <ele>146.5</ele>
        <time>2021-09-17T13:04:53Z</time>
      </trkpt>
      <trkpt lat="49.35858" lon="1.18063">
        <ele>146.8</ele>
        <time>2021-09-17T13:04:54Z</time>
      </trkpt>
      <trkpt lat="49.35865" lon="1.18055">
        <ele>147.2</ele>
        <time>2021-09-17T13:04:55Z</time>
      </trkpt>
      <trkpt lat="49.35878" lon="1.18041">
        <ele>147.6</ele>
        <time>2021-09-17T13:04:57Z</time>
      </trkpt>
      <trkpt lat="49.35885" lon="1.18034">
        <ele>148.1</ele>
        <time>2021-09-17T13:04:58Z</time>
      </trkpt>
      <trkpt lat="49.35899" lon="1.18021">
        <ele>148.5</ele>
        <time>2021-09-17T13:05:00Z</time>
      </trkpt>
      <trkpt lat="49.35906" lon="1.18014">
        <ele>149.1</ele>
        <time>2021-09-17T13:05:01Z</time>
      </trkpt>
      <trkpt lat="49.35921" lon="1.18001">
        <ele>149.5</ele>
        <time>2021-09-17T13:05:03Z</time>
      </trkpt>
      <trkpt lat="49.35935" lon="1.17989">
        <ele>150</ele>
        <time>2021-09-17T13:05:05Z</time>
      </trkpt>
      <trkpt lat="49.3595" lon="1.17978">
        <ele>150.4</ele>
        <time>2021-09-17T13:05:07Z</time>
      </trkpt>
      <trkpt lat="49.35958" lon="1.17973">
        <ele>150.5</ele>
        <time>2021-09-17T13:05:08Z</time>
      </trkpt>
      <trkpt lat="49.35972" lon="1.17963">
        <ele>150.6</ele>
        <time>2021-09-17T13:05:10Z</time>
      </trkpt>
      <trkpt lat="49.35988" lon="1.17955">
        <ele>150.6</ele>
        <time>2021-09-17T13:05:12Z</time>
      </trkpt>
      <trkpt lat="49.35996" lon="1.17951">
        <ele>150.5</ele>
        <time>2021-09-17T13:05:13Z</time>
      </trkpt>
      <trkpt lat="49.36004" lon="1.17947">
        <ele>150.4</ele>
        <time>2021-09-17T13:05:14Z</time>
      </trkpt>
      <trkpt lat="49.36019" lon="1.17939">
        <ele>150.2</ele>
        <time>2021-09-17T13:05:16Z</time>
      </trkpt>
      <trkpt lat="49.36027" lon="1.17936">
        <ele>149.9</ele>
        <time>2021-09-17T13:05:17Z</time>
      </trkpt>
      <trkpt lat="49.36044" lon="1.17931">
        <ele>149.5</ele>
        <time>2021-09-17T13:05:19Z</time>
      </trkpt>
      <trkpt lat="49.36052" lon="1.17929">
        <ele>149.2</ele>
        <time>2021-09-17T13:05:20Z</time>
      </trkpt>
      <trkpt lat="49.36069" lon="1.17925">
        <ele>148.8</ele>
        <time>2021-09-17T13:05:22Z</time>
      </trkpt>
      <trkpt lat="49.36086" lon="1.17922">
        <ele>148.4</ele>
        <time>2021-09-17T13:05:24Z</time>
      </trkpt>
      <trkpt lat="49.36104" lon="1.17918">
        <ele>148</ele>
        <time>2021-09-17T13:05:26Z</time>
      </trkpt>
      <trkpt lat="49.36113" lon="1.17916">
        <ele>147.5</ele>
        <time>2021-09-17T13:05:27Z</time>
      </trkpt>
      <trkpt lat="49.36132" lon="1.17913">
        <ele>147.2</ele>
        <time>2021-09-17T13:05:29Z</time>
      </trkpt>
      <trkpt lat="49.36142" lon="1.17911">
        <ele>146.7</ele>
        <time>2021-09-17T13:05:30Z</time>
      </trkpt>
      <trkpt lat="49.36162" lon="1.17908">
        <ele>146.2</ele>
        <time>2021-09-17T13:05:32Z</time>
      </trkpt>
      <trkpt lat="49.36173" lon="1.17906">
        <ele>145.6</ele>
        <time>2021-09-17T13:05:33Z</time>
      </trkpt>
      <trkpt lat="49.36193" lon="1.17903">
        <ele>145.2</ele>
        <time>2021-09-17T13:05:35Z</time>
      </trkpt>
      <trkpt lat="49.36204" lon="1.17902">
        <ele>144.8</ele>
        <time>2021-09-17T13:05:36Z</time>
      </trkpt>
      <trkpt lat="49.36225" lon="1.17898">
        <ele>144.5</ele>
        <time>2021-09-17T13:05:38Z</time>
      </trkpt>
      <trkpt lat="49.36245" lon="1.17893">
        <ele>144.2</ele>
        <time>2021-09-17T13:05:40Z</time>
      </trkpt>
      <trkpt lat="49.36265" lon="1.17886">
        <ele>144</ele>
        <time>2021-09-17T13:05:42Z</time>
      </trkpt>
      <trkpt lat="49.36275" lon="1.17881">
        <ele>143.8</ele>
        <time>2021-09-17T13:05:43Z</time>
      </trkpt>
      <trkpt lat="49.36294" lon="1.17872">
        <ele>143.7</ele>
        <time>2021-09-17T13:05:45Z</time>
      </trkpt>
      <trkpt lat="49.36314" lon="1.17864">
        <ele>143.7</ele>
        <time>2021-09-17T13:05:47Z</time>
      </trkpt>
      <trkpt lat="49.36324" lon="1.1786">
        <ele>143.8</ele>
        <time>2021-09-17T13:05:48Z</time>
      </trkpt>
      <trkpt lat="49.36342" lon="1.17853">
        <ele>144</ele>
        <time>2021-09-17T13:05:50Z</time>
      </trkpt>
      <trkpt lat="49.36352" lon="1.1785">
        <ele>144.3</ele>
        <time>2021-09-17T13:05:51Z</time>
      </trkpt>
      <trkpt lat="49.36369" lon="1.17844">
        <ele>144.5</ele>
        <time>2021-09-17T13:05:53Z</time>
      </trkpt>
      <trkpt lat="49.36377" lon="1.17842">
        <ele>144.8</ele>
        <time>2021-09-17T13:05:54Z</time>
      </trkpt>
      <trkpt lat="49.36393" lon="1.17836">
        <ele>145.1</ele>
        <time>2021-09-17T13:05:56Z</time>
      </trkpt>
      <trkpt lat="49.36401" lon="1.17832">
        <ele>145.5</ele>
        <time>2021-09-17T13:05:57Z</time>
      </trkpt>
      <trkpt lat="49.36415" lon="1.17825">
        <ele>146</ele>
        <time>2021-09-17T13:05:59Z</time>
      </trkpt>
      <trkpt lat="49.36428" lon="1.17815">
        <ele>146.5</ele>
        <time>2021-09-17T13:06:01Z</time>
      </trkpt>
      <trkpt lat="49.36441" lon="1.17805">
        <ele>147</ele>
        <time>2021-09-17T13:06:03Z</time>
      </trkpt>
      <trkpt lat="49.36448" lon="1.178">
        <ele>147.5</ele>
        <time>2021-09-17T13:06:04Z</time>
      </trkpt>
      <trkpt lat="49.36454" lon="1.17794">
        <ele>147.9</ele>
        <time>2021-09-17T13:06:05Z</time>
      </trkpt>
      <trkpt lat="49.36467" lon="1.17783">
        <ele>148.5</ele>
        <time>2021-09-17T13:06:07Z</time>
      </trkpt>
      <trkpt lat="49.36474" lon="1.17777">
        <ele>148.9</ele>
        <time>2021-09-17T13:06:08Z</time>
      </trkpt>
      <trkpt lat="49.36487" lon="1.17765">
        <ele>149.4</ele>
        <time>2021-09-17T13:06:10Z</time>
      </trkpt>
      <trkpt lat="49.36493" lon="1.17759">
        <ele>149.8</ele>
        <time>2021-09-17T13:06:11Z</time>
      </trkpt>
      <trkpt lat="49.36506" lon="1.17748">
        <ele>150.4</ele>
        <time>2021-09-17T13:06:13Z</time>
      </trkpt>
      <trkpt lat="49.36519" lon="1.17736">
        <ele>150.8</ele>
        <time>2021-09-17T13:06:15Z</time>
      </trkpt>
      <trkpt lat="49.36532" lon="1.17725">
        <ele>151.2</ele>
        <time>2021-09-17T13:06:17Z</time>
      </trkpt>
      <trkpt lat="49.36539" lon="1.1772">
        <ele>151.6</ele>
        <time>2021-09-17T13:06:18Z</time>
      </trkpt>
      <trkpt lat="49.36551" lon="1.17708">
        <ele>152</ele>
        <time>2021-09-17T13:06:20Z</time>
      </trkpt>
      <trkpt lat="49.36558" lon="1.17703">
        <ele>152.4</ele>
        <time>2021-09-17T13:06:21Z</time>
      </trkpt>
      <trkpt lat="49.36571" lon="1.17691">
        <ele>152.7</ele>
        <time>2021-09-17T13:06:23Z</time>
      </trkpt>
      <trkpt lat="49.36577" lon="1.17686">
        <ele>153</ele>
        <time>2021-09-17T13:06:24Z</time>
      </trkpt>
      <trkpt lat="49.3659" lon="1.17674">
        <ele>153.3</ele>
        <time>2021-09-17T13:06:26Z</time>
      </trkpt>
      <trkpt lat="49.36604" lon="1.17663">
        <ele>153.5</ele>
        <time>2021-09-17T13:06:28Z</time>
      </trkpt>
      <trkpt lat="49.36617" lon="1.1765">
        <ele>153.7</ele>
        <time>2021-09-17T13:06:30Z</time>
      </trkpt>
      <trkpt lat="49.36631" lon="1.17636">
        <ele>153.8</ele>
        <time>2021-09-17T13:06:32Z</time>
      </trkpt>
      <trkpt lat="49.36645" lon="1.17622">
        <ele>153.9</ele>
        <time>2021-09-17T13:06:34Z</time>
      </trkpt>
      <trkpt lat="49.36658" lon="1.17607">
        <ele>154.1</ele>
        <time>2021-09-17T13:06:36Z</time>
      </trkpt>
      <trkpt lat="49.3667" lon="1.17591">
        <ele>154.2</ele>
        <time>2021-09-17T13:06:38Z</time>
      </trkpt>
      <trkpt lat="49.36682" lon="1.17573">
        <ele>154.3</ele>
        <time>2021-09-17T13:06:40Z</time>
      </trkpt>
      <trkpt lat="49.36687" lon="1.17564">
        <ele>154.4</ele>
        <time>2021-09-17T13:06:41Z</time>
      </trkpt>
      <trkpt lat="49.36699" lon="1.17545">
        <ele>154.5</ele>
        <time>2021-09-17T13:06:43Z</time>
      </trkpt>
      <trkpt lat="49.36705" lon="1.17536">
        <ele>154.5</ele>
        <time>2021-09-17T13:06:44Z</time>
      </trkpt>
      <trkpt lat="49.36716" lon="1.17518">
        <ele>154.6</ele>
        <time>2021-09-17T13:06:46Z</time>
      </trkpt>
      <trkpt lat="49.36729" lon="1.17499">
        <ele>154.7</ele>
        <time>2021-09-17T13:06:48Z</time>
      </trkpt>
      <trkpt lat="49.36742" lon="1.1748">
        <ele>154.8</ele>
        <time>2021-09-17T13:06:50Z</time>
      </trkpt>
      <trkpt lat="49.36749" lon="1.17472">
        <ele>154.9</ele>
        <time>2021-09-17T13:06:51Z</time>
      </trkpt>
      <trkpt lat="49.36756" lon="1.17463">
        <ele>155</ele>
        <time>2021-09-17T13:06:52Z</time>
      </trkpt>
      <trkpt lat="49.36764" lon="1.17455">
        <ele>155</ele>
        <time>2021-09-17T13:06:53Z</time>
      </trkpt>
      <trkpt lat="49.36778" lon="1.17438">
        <ele>155</ele>
        <time>2021-09-17T13:06:55Z</time>
      </trkpt>
      <trkpt lat="49.36793" lon="1.17421">
        <ele>155</ele>
        <time>2021-09-17T13:06:57Z</time>
      </trkpt>
      <trkpt lat="49.36801" lon="1.17413">
        <ele>155.1</ele>
        <time>2021-09-17T13:06:58Z</time>
      </trkpt>
      <trkpt lat="49.36817" lon="1.17397">
        <ele>155.2</ele>
        <time>2021-09-17T13:07:00Z</time>
      </trkpt>
      <trkpt lat="49.36824" lon="1.17389">
        <ele>155.4</ele>
        <time>2021-09-17T13:07:01Z</time>
      </trkpt>
      <trkpt lat="49.36839" lon="1.17374">
        <ele>155.6</ele>
        <time>2021-09-17T13:07:03Z</time>
      </trkpt>
      <trkpt lat="49.36847" lon="1.17366">
        <ele>155.9</ele>
        <time>2021-09-17T13:07:04Z</time>
      </trkpt>
      <trkpt lat="49.36862" lon="1.17351">
        <ele>156.2</ele>
        <time>2021-09-17T13:07:06Z</time>
      </trkpt>
      <trkpt lat="49.36869" lon="1.17343">
        <ele>156.5</ele>
        <time>2021-09-17T13:07:07Z</time>
      </trkpt>
      <trkpt lat="49.36877" lon="1.17336">
        <ele>156.7</ele>
        <time>2021-09-17T13:07:08Z</time>
      </trkpt>
      <trkpt lat="49.36884" lon="1.17329">
        <ele>157</ele>
        <time>2021-09-17T13:07:09Z</time>
      </trkpt>
      <trkpt lat="49.36899" lon="1.17314">
        <ele>157.2</ele>
        <time>2021-09-17T13:07:11Z</time>
      </trkpt>
      <trkpt lat="49.36914" lon="1.173">
        <ele>157.3</ele>
        <time>2021-09-17T13:07:13Z</time>
      </trkpt>
      <trkpt lat="49.36929" lon="1.17285">
        <ele>157.2</ele>
        <time>2021-09-17T13:07:15Z</time>
      </trkpt>
      <trkpt lat="49.36936" lon="1.17278">
        <ele>157.1</ele>
        <time>2021-09-17T13:07:16Z</time>
      </trkpt>
      <trkpt lat="49.36951" lon="1.17264">
        <ele>157</ele>
        <time>2021-09-17T13:07:18Z</time>
      </trkpt>
      <trkpt lat="49.36966" lon="1.17254">
        <ele>156.8</ele>
        <time>2021-09-17T13:07:20Z</time>
      </trkpt>
      <trkpt lat="49.36974" lon="1.17252">
        <ele>156.6</ele>
        <time>2021-09-17T13:07:21Z</time>
      </trkpt>
      <trkpt lat="49.36988" lon="1.17244">
        <ele>156.5</ele>
        <time>2021-09-17T13:07:23Z</time>
      </trkpt>
      <trkpt lat="49.36999" lon="1.17222">
        <ele>156.3</ele>
        <time>2021-09-17T13:07:25Z</time>
      </trkpt>
      <trkpt lat="49.37012" lon="1.17204">
        <ele>156.1</ele>
        <time>2021-09-17T13:07:27Z</time>
      </trkpt>
      <trkpt lat="49.3702" lon="1.17196">
        <ele>155.9</ele>
        <time>2021-09-17T13:07:28Z</time>
      </trkpt>
      <trkpt lat="49.37028" lon="1.17187">
        <ele>155.9</ele>
        <time>2021-09-17T13:07:29Z</time>
      </trkpt>
      <trkpt lat="49.37045" lon="1.17171">
        <ele>156</ele>
        <time>2021-09-17T13:07:31Z</time>
      </trkpt>
      <trkpt lat="49.37061" lon="1.17154">
        <ele>156.1</ele>
        <time>2021-09-17T13:07:33Z</time>
      </trkpt>
      <trkpt lat="49.3707" lon="1.17145">
        <ele>156.1</ele>
        <time>2021-09-17T13:07:34Z</time>
      </trkpt>
      <trkpt lat="49.37078" lon="1.17137">
        <ele>156</ele>
        <time>2021-09-17T13:07:35Z</time>
      </trkpt>
      <trkpt lat="49.37095" lon="1.1712">
        <ele>155.9</ele>
        <time>2021-09-17T13:07:37Z</time>
      </trkpt>
      <trkpt lat="49.37112" lon="1.17102">
        <ele>155.7</ele>
        <time>2021-09-17T13:07:39Z</time>
      </trkpt>
      <trkpt lat="49.37121" lon="1.17093">
        <ele>155.5</ele>
        <time>2021-09-17T13:07:40Z</time>
      </trkpt>
      <trkpt lat="49.37139" lon="1.17075">
        <ele>155.3</ele>
        <time>2021-09-17T13:07:42Z</time>
      </trkpt>
      <trkpt lat="49.37156" lon="1.17057">
        <ele>155</ele>
        <time>2021-09-17T13:07:44Z</time>
      </trkpt>
      <trkpt lat="49.37174" lon="1.17039">
        <ele>154.8</ele>
        <time>2021-09-17T13:07:46Z</time>
      </trkpt>
      <trkpt lat="49.37192" lon="1.1702">
        <ele>154.5</ele>
        <time>2021-09-17T13:07:48Z</time>
      </trkpt>
      <trkpt lat="49.37209" lon="1.17002">
        <ele>154.3</ele>
        <time>2021-09-17T13:07:50Z</time>
      </trkpt>
      <trkpt lat="49.37226" lon="1.16983">
        <ele>154</ele>
        <time>2021-09-17T13:07:52Z</time>
      </trkpt>
      <trkpt lat="49.37234" lon="1.16973">
        <ele>153.8</ele>
        <time>2021-09-17T13:07:53Z</time>
      </trkpt>
      <trkpt lat="49.37241" lon="1.16963">
        <ele>153.6</ele>
        <time>2021-09-17T13:07:54Z</time>
      </trkpt>
      <trkpt lat="49.37256" lon="1.1694">
        <ele>153.5</ele>
        <time>2021-09-17T13:07:56Z</time>
      </trkpt>
      <trkpt lat="49.37263" lon="1.16929">
        <ele>153.3</ele>
        <time>2021-09-17T13:07:57Z</time>
      </trkpt>
      <trkpt lat="49.37276" lon="1.16906">
        <ele>153.1</ele>
        <time>2021-09-17T13:07:59Z</time>
      </trkpt>
      <trkpt lat="49.37283" lon="1.16894">
        <ele>153</ele>
        <time>2021-09-17T13:08:00Z</time>
      </trkpt>
      <trkpt lat="49.37295" lon="1.1687">
        <ele>152.9</ele>
        <time>2021-09-17T13:08:02Z</time>
      </trkpt>
      <trkpt lat="49.37307" lon="1.16845">
        <ele>152.7</ele>
        <time>2021-09-17T13:08:04Z</time>
      </trkpt>
      <trkpt lat="49.37317" lon="1.16818">
        <ele>152.5</ele>
        <time>2021-09-17T13:08:06Z</time>
      </trkpt>
      <trkpt lat="49.37322" lon="1.16804">
        <ele>152.3</ele>
        <time>2021-09-17T13:08:07Z</time>
      </trkpt>
      <trkpt lat="49.37332" lon="1.16777">
        <ele>152.1</ele>
        <time>2021-09-17T13:08:09Z</time>
      </trkpt>
      <trkpt lat="49.37341" lon="1.16749">
        <ele>151.9</ele>
        <time>2021-09-17T13:08:11Z</time>
      </trkpt>
      <trkpt lat="49.37349" lon="1.1672">
        <ele>151.7</ele>
        <time>2021-09-17T13:08:13Z</time>
      </trkpt>
      <trkpt lat="49.37353" lon="1.16706">
        <ele>151.6</ele>
        <time>2021-09-17T13:08:14Z</time>
      </trkpt>
      <trkpt lat="49.37359" lon="1.16675">
        <ele>151.6</ele>
        <time>2021-09-17T13:08:16Z</time>
      </trkpt>
      <trkpt lat="49.37365" lon="1.16645">
        <ele>151.6</ele>
        <time>2021-09-17T13:08:18Z</time>
      </trkpt>
      <trkpt lat="49.3737" lon="1.16615">
        <ele>151.6</ele>
        <time>2021-09-17T13:08:20Z</time>
      </trkpt>
      <trkpt lat="49.37372" lon="1.16599">
        <ele>151.7</ele>
        <time>2021-09-17T13:08:21Z</time>
      </trkpt>
      <trkpt lat="49.37378" lon="1.16569">
        <ele>151.8</ele>
        <time>2021-09-17T13:08:23Z</time>
      </trkpt>
      <trkpt lat="49.37385" lon="1.16541">
        <ele>151.9</ele>
        <time>2021-09-17T13:08:25Z</time>
      </trkpt>
      <trkpt lat="49.37392" lon="1.16513">
        <ele>152.1</ele>
        <time>2021-09-17T13:08:27Z</time>
      </trkpt>
      <trkpt lat="49.37401" lon="1.16486">
        <ele>152.3</ele>
        <time>2021-09-17T13:08:29Z</time>
      </trkpt>
      <trkpt lat="49.37411" lon="1.1646">
        <ele>152.5</ele>
        <time>2021-09-17T13:08:31Z</time>
      </trkpt>
      <trkpt lat="49.37421" lon="1.16434">
        <ele>152.6</ele>
        <time>2021-09-17T13:08:33Z</time>
      </trkpt>
      <trkpt lat="49.37426" lon="1.16422">
        <ele>152.8</ele>
        <time>2021-09-17T13:08:34Z</time>
      </trkpt>
      <trkpt lat="49.37438" lon="1.16397">
        <ele>153</ele>
        <time>2021-09-17T13:08:36Z</time>
      </trkpt>
      <trkpt lat="49.37451" lon="1.16372">
        <ele>153.2</ele>
        <time>2021-09-17T13:08:38Z</time>
      </trkpt>
      <trkpt lat="49.37465" lon="1.16347">
        <ele>153.4</ele>
        <time>2021-09-17T13:08:40Z</time>
      </trkpt>
      <trkpt lat="49.3748" lon="1.16324">
        <ele>153.5</ele>
        <time>2021-09-17T13:08:42Z</time>
      </trkpt>
      <trkpt lat="49.37488" lon="1.16312">
        <ele>153.5</ele>
        <time>2021-09-17T13:08:43Z</time>
      </trkpt>
      <trkpt lat="49.37505" lon="1.1629">
        <ele>153.7</ele>
        <time>2021-09-17T13:08:45Z</time>
      </trkpt>
      <trkpt lat="49.37514" lon="1.1628">
        <ele>153.9</ele>
        <time>2021-09-17T13:08:46Z</time>
      </trkpt>
      <trkpt lat="49.37531" lon="1.16261">
        <ele>154.1</ele>
        <time>2021-09-17T13:08:48Z</time>
      </trkpt>
      <trkpt lat="49.3754" lon="1.16251">
        <ele>154.2</ele>
        <time>2021-09-17T13:08:49Z</time>
      </trkpt>
      <trkpt lat="49.37549" lon="1.16244">
        <ele>154.3</ele>
        <time>2021-09-17T13:08:50Z</time>
      </trkpt>
      <trkpt lat="49.37567" lon="1.16228">
        <ele>154.2</ele>
        <time>2021-09-17T13:08:52Z</time>
      </trkpt>
      <trkpt lat="49.37585" lon="1.16213">
        <ele>154.1</ele>
        <time>2021-09-17T13:08:54Z</time>
      </trkpt>
      <trkpt lat="49.37595" lon="1.16206">
        <ele>153.9</ele>
        <time>2021-09-17T13:08:55Z</time>
      </trkpt>
      <trkpt lat="49.37604" lon="1.162">
        <ele>153.6</ele>
        <time>2021-09-17T13:08:56Z</time>
      </trkpt>
      <trkpt lat="49.37623" lon="1.16188">
        <ele>153.4</ele>
        <time>2021-09-17T13:08:58Z</time>
      </trkpt>
      <trkpt lat="49.37642" lon="1.16178">
        <ele>153</ele>
        <time>2021-09-17T13:09:00Z</time>
      </trkpt>
      <trkpt lat="49.37652" lon="1.16174">
        <ele>152.5</ele>
        <time>2021-09-17T13:09:01Z</time>
      </trkpt>
      <trkpt lat="49.37672" lon="1.16168">
        <ele>152.1</ele>
        <time>2021-09-17T13:09:03Z</time>
      </trkpt>
      <trkpt lat="49.37691" lon="1.16162">
        <ele>151.6</ele>
        <time>2021-09-17T13:09:05Z</time>
      </trkpt>
      <trkpt lat="49.3771" lon="1.16158">
        <ele>151.3</ele>
        <time>2021-09-17T13:09:07Z</time>
      </trkpt>
      <trkpt lat="49.37719" lon="1.16156">
        <ele>150.9</ele>
        <time>2021-09-17T13:09:08Z</time>
      </trkpt>
      <trkpt lat="49.37729" lon="1.16155">
        <ele>150.6</ele>
        <time>2021-09-17T13:09:09Z</time>
      </trkpt>
      <trkpt lat="49.37738" lon="1.16153">
        <ele>150.3</ele>
        <time>2021-09-17T13:09:10Z</time>
      </trkpt>
      <trkpt lat="49.37756" lon="1.16151">
        <ele>149.9</ele>
        <time>2021-09-17T13:09:12Z</time>
      </trkpt>
      <trkpt lat="49.37774" lon="1.16153">
        <ele>149.5</ele>
        <time>2021-09-17T13:09:14Z</time>
      </trkpt>
      <trkpt lat="49.37783" lon="1.16153">
        <ele>149.2</ele>
        <time>2021-09-17T13:09:15Z</time>
      </trkpt>
      <trkpt lat="49.37801" lon="1.16155">
        <ele>148.9</ele>
        <time>2021-09-17T13:09:17Z</time>
      </trkpt>
      <trkpt lat="49.37819" lon="1.16159">
        <ele>148.6</ele>
        <time>2021-09-17T13:09:19Z</time>
      </trkpt>
      <trkpt lat="49.37829" lon="1.16162">
        <ele>148.4</ele>
        <time>2021-09-17T13:09:20Z</time>
      </trkpt>
      <trkpt lat="49.37848" lon="1.16169">
        <ele>148.2</ele>
        <time>2021-09-17T13:09:22Z</time>
      </trkpt>
      <trkpt lat="49.37868" lon="1.16177">
        <ele>148</ele>
        <time>2021-09-17T13:09:24Z</time>
      </trkpt>
      <trkpt lat="49.37887" lon="1.16185">
        <ele>147.8</ele>
        <time>2021-09-17T13:09:26Z</time>
      </trkpt>
      <trkpt lat="49.37897" lon="1.1619">
        <ele>147.7</ele>
        <time>2021-09-17T13:09:27Z</time>
      </trkpt>
      <trkpt lat="49.37915" lon="1.16201">
        <ele>147.7</ele>
        <time>2021-09-17T13:09:29Z</time>
      </trkpt>
      <trkpt lat="49.37924" lon="1.16207">
        <ele>147.8</ele>
        <time>2021-09-17T13:09:30Z</time>
      </trkpt>
      <trkpt lat="49.37933" lon="1.16214">
        <ele>148</ele>
        <time>2021-09-17T13:09:31Z</time>
      </trkpt>
      <trkpt lat="49.37942" lon="1.1622">
        <ele>148.2</ele>
        <time>2021-09-17T13:09:32Z</time>
      </trkpt>
      <trkpt lat="49.37958" lon="1.16233">
        <ele>148.3</ele>
        <time>2021-09-17T13:09:34Z</time>
      </trkpt>
      <trkpt lat="49.37966" lon="1.1624">
        <ele>148.4</ele>
        <time>2021-09-17T13:09:35Z</time>
      </trkpt>
      <trkpt lat="49.37974" lon="1.16247">
        <ele>148.5</ele>
        <time>2021-09-17T13:09:36Z</time>
      </trkpt>
      <trkpt lat="49.37982" lon="1.16254">
        <ele>148.6</ele>
        <time>2021-09-17T13:09:37Z</time>
      </trkpt>
      <trkpt lat="49.37989" lon="1.16261">
        <ele>148.8</ele>
        <time>2021-09-17T13:09:38Z</time>
      </trkpt>
      <trkpt lat="49.38004" lon="1.16275">
        <ele>149.1</ele>
        <time>2021-09-17T13:09:40Z</time>
      </trkpt>
      <trkpt lat="49.38012" lon="1.16282">
        <ele>149.4</ele>
        <time>2021-09-17T13:09:41Z</time>
      </trkpt>
      <trkpt lat="49.3802" lon="1.16289">
        <ele>149.7</ele>
        <time>2021-09-17T13:09:42Z</time>
      </trkpt>
      <trkpt lat="49.38034" lon="1.16301">
        <ele>150.1</ele>
        <time>2021-09-17T13:09:44Z</time>
      </trkpt>
      <trkpt lat="49.38041" lon="1.16307">
        <ele>150.5</ele>
        <time>2021-09-17T13:09:45Z</time>
      </trkpt>
      <trkpt lat="49.38055" lon="1.1632">
        <ele>150.8</ele>
        <time>2021-09-17T13:09:47Z</time>
      </trkpt>
      <trkpt lat="49.3807" lon="1.16334">
        <ele>151.3</ele>
        <time>2021-09-17T13:09:49Z</time>
      </trkpt>
      <trkpt lat="49.38084" lon="1.16347">
        <ele>151.7</ele>
        <time>2021-09-17T13:09:51Z</time>
      </trkpt>
      <trkpt lat="49.38091" lon="1.16354">
        <ele>152.1</ele>
        <time>2021-09-17T13:09:52Z</time>
      </trkpt>
      <trkpt lat="49.38098" lon="1.1636">
        <ele>152.5</ele>
        <time>2021-09-17T13:09:53Z</time>
      </trkpt>
      <trkpt lat="49.38112" lon="1.16373">
        <ele>152.8</ele>
        <time>2021-09-17T13:09:55Z</time>
      </trkpt>
      <trkpt lat="49.38127" lon="1.16387">
        <ele>153.1</ele>
        <time>2021-09-17T13:09:57Z</time>
      </trkpt>
      <trkpt lat="49.38141" lon="1.16401">
        <ele>153.3</ele>
        <time>2021-09-17T13:09:59Z</time>
      </trkpt>
      <trkpt lat="49.38148" lon="1.16408">
        <ele>153.3</ele>
        <time>2021-09-17T13:10:00Z</time>
      </trkpt>
      <trkpt lat="49.38162" lon="1.16421">
        <ele>153.3</ele>
        <time>2021-09-17T13:10:02Z</time>
      </trkpt>
      <trkpt lat="49.38177" lon="1.16434">
        <ele>153.2</ele>
        <time>2021-09-17T13:10:04Z</time>
      </trkpt>
      <trkpt lat="49.38191" lon="1.16448">
        <ele>153.1</ele>
        <time>2021-09-17T13:10:06Z</time>
      </trkpt>
      <trkpt lat="49.38198" lon="1.16455">
        <ele>153</ele>
        <time>2021-09-17T13:10:07Z</time>
      </trkpt>
      <trkpt lat="49.38213" lon="1.16468">
        <ele>152.9</ele>
        <time>2021-09-17T13:10:09Z</time>
      </trkpt>
      <trkpt lat="49.38227" lon="1.16482">
        <ele>152.8</ele>
        <time>2021-09-17T13:10:11Z</time>
      </trkpt>
      <trkpt lat="49.38241" lon="1.16496">
        <ele>152.7</ele>
        <time>2021-09-17T13:10:13Z</time>
      </trkpt>
      <trkpt lat="49.38255" lon="1.16509">
        <ele>152.5</ele>
        <time>2021-09-17T13:10:15Z</time>
      </trkpt>
      <trkpt lat="49.38263" lon="1.16516">
        <ele>152.4</ele>
        <time>2021-09-17T13:10:16Z</time>
      </trkpt>
      <trkpt lat="49.3827" lon="1.16523">
        <ele>152.2</ele>
        <time>2021-09-17T13:10:17Z</time>
      </trkpt>
      <trkpt lat="49.38278" lon="1.1653">
        <ele>152.1</ele>
        <time>2021-09-17T13:10:18Z</time>
      </trkpt>
      <trkpt lat="49.38293" lon="1.16544">
        <ele>152.1</ele>
        <time>2021-09-17T13:10:20Z</time>
      </trkpt>
      <trkpt lat="49.38308" lon="1.16558">
        <ele>152.2</ele>
        <time>2021-09-17T13:10:22Z</time>
      </trkpt>
      <trkpt lat="49.38323" lon="1.16572">
        <ele>152.3</ele>
        <time>2021-09-17T13:10:24Z</time>
      </trkpt>
      <trkpt lat="49.3833" lon="1.16579">
        <ele>152.4</ele>
        <time>2021-09-17T13:10:25Z</time>
      </trkpt>
      <trkpt lat="49.38338" lon="1.16586">
        <ele>152.5</ele>
        <time>2021-09-17T13:10:26Z</time>
      </trkpt>
      <trkpt lat="49.38353" lon="1.166">
        <ele>152.5</ele>
        <time>2021-09-17T13:10:28Z</time>
      </trkpt>
      <trkpt lat="49.3836" lon="1.16607">
        <ele>152.6</ele>
        <time>2021-09-17T13:10:29Z</time>
      </trkpt>
      <trkpt lat="49.38368" lon="1.16614">
        <ele>152.7</ele>
        <time>2021-09-17T13:10:30Z</time>
      </trkpt>
      <trkpt lat="49.38375" lon="1.16621">
        <ele>152.8</ele>
        <time>2021-09-17T13:10:31Z</time>
      </trkpt>
      <trkpt lat="49.3839" lon="1.16634">
        <ele>152.9</ele>
        <time>2021-09-17T13:10:33Z</time>
      </trkpt>
      <trkpt lat="49.38397" lon="1.16641">
        <ele>153</ele>
        <time>2021-09-17T13:10:34Z</time>
      </trkpt>
      <trkpt lat="49.38412" lon="1.16655">
        <ele>153</ele>
        <time>2021-09-17T13:10:36Z</time>
      </trkpt>
      <trkpt lat="49.38419" lon="1.16662">
        <ele>153</ele>
        <time>2021-09-17T13:10:37Z</time>
      </trkpt>
      <trkpt lat="49.38433" lon="1.16675">
        <ele>153</ele>
        <time>2021-09-17T13:10:39Z</time>
      </trkpt>
      <trkpt lat="49.38448" lon="1.16689">
        <ele>152.9</ele>
        <time>2021-09-17T13:10:41Z</time>
      </trkpt>
      <trkpt lat="49.38463" lon="1.16702">
        <ele>152.8</ele>
        <time>2021-09-17T13:10:43Z</time>
      </trkpt>
      <trkpt lat="49.38477" lon="1.16715">
        <ele>152.7</ele>
        <time>2021-09-17T13:10:45Z</time>
      </trkpt>
      <trkpt lat="49.38484" lon="1.16721">
        <ele>152.7</ele>
        <time>2021-09-17T13:10:46Z</time>
      </trkpt>
      <trkpt lat="49.38498" lon="1.16734">
        <ele>152.7</ele>
        <time>2021-09-17T13:10:48Z</time>
      </trkpt>
      <trkpt lat="49.38506" lon="1.16741">
        <ele>152.8</ele>
        <time>2021-09-17T13:10:49Z</time>
      </trkpt>
      <trkpt lat="49.3852" lon="1.16753">
        <ele>152.8</ele>
        <time>2021-09-17T13:10:51Z</time>
      </trkpt>
      <trkpt lat="49.38535" lon="1.16767">
        <ele>152.7</ele>
        <time>2021-09-17T13:10:53Z</time>
      </trkpt>
      <trkpt lat="49.3855" lon="1.16781">
        <ele>152.5</ele>
        <time>2021-09-17T13:10:55Z</time>
      </trkpt>
      <trkpt lat="49.38565" lon="1.16795">
        <ele>152</ele>
        <time>2021-09-17T13:10:57Z</time>
      </trkpt>
      <trkpt lat="49.38581" lon="1.16809">
        <ele>151.4</ele>
        <time>2021-09-17T13:10:59Z</time>
      </trkpt>
      <trkpt lat="49.38597" lon="1.16823">
        <ele>150.9</ele>
        <time>2021-09-17T13:11:01Z</time>
      </trkpt>
      <trkpt lat="49.38606" lon="1.1683">
        <ele>150.5</ele>
        <time>2021-09-17T13:11:02Z</time>
      </trkpt>
      <trkpt lat="49.38624" lon="1.16842">
        <ele>150</ele>
        <time>2021-09-17T13:11:04Z</time>
      </trkpt>
      <trkpt lat="49.38643" lon="1.16853">
        <ele>149.4</ele>
        <time>2021-09-17T13:11:06Z</time>
      </trkpt>
      <trkpt lat="49.38663" lon="1.16864">
        <ele>148.7</ele>
        <time>2021-09-17T13:11:08Z</time>
      </trkpt>
      <trkpt lat="49.38684" lon="1.16874">
        <ele>147.9</ele>
        <time>2021-09-17T13:11:10Z</time>
      </trkpt>
      <trkpt lat="49.38696" lon="1.16877">
        <ele>147.2</ele>
        <time>2021-09-17T13:11:11Z</time>
      </trkpt>
      <trkpt lat="49.38719" lon="1.16884">
        <ele>146.5</ele>
        <time>2021-09-17T13:11:13Z</time>
      </trkpt>
      <trkpt lat="49.38742" lon="1.16894">
        <ele>146.1</ele>
        <time>2021-09-17T13:11:15Z</time>
      </trkpt>
      <trkpt lat="49.38763" lon="1.16907">
        <ele>145.8</ele>
        <time>2021-09-17T13:11:17Z</time>
      </trkpt>
      <trkpt lat="49.38772" lon="1.16915">
        <ele>145.8</ele>
        <time>2021-09-17T13:11:18Z</time>
      </trkpt>
      <trkpt lat="49.38782" lon="1.16923">
        <ele>145.7</ele>
        <time>2021-09-17T13:11:19Z</time>
      </trkpt>
      <trkpt lat="49.38791" lon="1.16931">
        <ele>145.6</ele>
        <time>2021-09-17T13:11:20Z</time>
      </trkpt>
      <trkpt lat="49.388" lon="1.1694">
        <ele>145.5</ele>
        <time>2021-09-17T13:11:21Z</time>
      </trkpt>
      <trkpt lat="49.38818" lon="1.16956">
        <ele>145.6</ele>
        <time>2021-09-17T13:11:23Z</time>
      </trkpt>
      <trkpt lat="49.38827" lon="1.16962">
        <ele>145.7</ele>
        <time>2021-09-17T13:11:24Z</time>
      </trkpt>
      <trkpt lat="49.38837" lon="1.16967">
        <ele>145.8</ele>
        <time>2021-09-17T13:11:25Z</time>
      </trkpt>
      <trkpt lat="49.38858" lon="1.16973">
        <ele>145.9</ele>
        <time>2021-09-17T13:11:27Z</time>
      </trkpt>
      <trkpt lat="49.38869" lon="1.16975">
        <ele>146</ele>
        <time>2021-09-17T13:11:28Z</time>
      </trkpt>
      <trkpt lat="49.38891" lon="1.16976">
        <ele>146.1</ele>
        <time>2021-09-17T13:11:30Z</time>
      </trkpt>
      <trkpt lat="49.38901" lon="1.16976">
        <ele>146.2</ele>
        <time>2021-09-17T13:11:31Z</time>
      </trkpt>
      <trkpt lat="49.38912" lon="1.16976">
        <ele>146.3</ele>
        <time>2021-09-17T13:11:32Z</time>
      </trkpt>
      <trkpt lat="49.38933" lon="1.16977">
        <ele>146.3</ele>
        <time>2021-09-17T13:11:34Z</time>
      </trkpt>
      <trkpt lat="49.38953" lon="1.1698">
        <ele>146.3</ele>
        <time>2021-09-17T13:11:36Z</time>
      </trkpt>
      <trkpt lat="49.38963" lon="1.16982">
        <ele>146.3</ele>
        <time>2021-09-17T13:11:37Z</time>
      </trkpt>
      <trkpt lat="49.38984" lon="1.16989">
        <ele>146.1</ele>
        <time>2021-09-17T13:11:39Z</time>
      </trkpt>
      <trkpt lat="49.39004" lon="1.16997">
        <ele>145.9</ele>
        <time>2021-09-17T13:11:41Z</time>
      </trkpt>
      <trkpt lat="49.39023" lon="1.17005">
        <ele>145.9</ele>
        <time>2021-09-17T13:11:43Z</time>
      </trkpt>
      <trkpt lat="49.39043" lon="1.17012">
        <ele>145.9</ele>
        <time>2021-09-17T13:11:45Z</time>
      </trkpt>
      <trkpt lat="49.39063" lon="1.1702">
        <ele>145.9</ele>
        <time>2021-09-17T13:11:47Z</time>
      </trkpt>
      <trkpt lat="49.39083" lon="1.17027">
        <ele>145.9</ele>
        <time>2021-09-17T13:11:49Z</time>
      </trkpt>
      <trkpt lat="49.39093" lon="1.17031">
        <ele>145.9</ele>
        <time>2021-09-17T13:11:50Z</time>
      </trkpt>
      <trkpt lat="49.39112" lon="1.17039">
        <ele>145.8</ele>
        <time>2021-09-17T13:11:52Z</time>
      </trkpt>
      <trkpt lat="49.39132" lon="1.17046">
        <ele>145.8</ele>
        <time>2021-09-17T13:11:54Z</time>
      </trkpt>
      <trkpt lat="49.39142" lon="1.17049">
        <ele>145.8</ele>
        <time>2021-09-17T13:11:55Z</time>
      </trkpt>
      <trkpt lat="49.39152" lon="1.17053">
        <ele>145.7</ele>
        <time>2021-09-17T13:11:56Z</time>
      </trkpt>
      <trkpt lat="49.39172" lon="1.17062">
        <ele>145.6</ele>
        <time>2021-09-17T13:11:58Z</time>
      </trkpt>
      <trkpt lat="49.39192" lon="1.17075">
        <ele>145.5</ele>
        <time>2021-09-17T13:12:00Z</time>
      </trkpt>
      <trkpt lat="49.39202" lon="1.17081">
        <ele>145.4</ele>
        <time>2021-09-17T13:12:01Z</time>
      </trkpt>
      <trkpt lat="49.39223" lon="1.17094">
        <ele>145.2</ele>
        <time>2021-09-17T13:12:03Z</time>
      </trkpt>
      <trkpt lat="49.39244" lon="1.17107">
        <ele>145</ele>
        <time>2021-09-17T13:12:05Z</time>
      </trkpt>
      <trkpt lat="49.39266" lon="1.17121">
        <ele>144.8</ele>
        <time>2021-09-17T13:12:07Z</time>
      </trkpt>
      <trkpt lat="49.39277" lon="1.17126">
        <ele>144.6</ele>
        <time>2021-09-17T13:12:08Z</time>
      </trkpt>
      <trkpt lat="49.39289" lon="1.17132">
        <ele>144.4</ele>
        <time>2021-09-17T13:12:09Z</time>
      </trkpt>
      <trkpt lat="49.39313" lon="1.17141">
        <ele>143.8</ele>
        <time>2021-09-17T13:12:11Z</time>
      </trkpt>
      <trkpt lat="49.39325" lon="1.17145">
        <ele>143.2</ele>
        <time>2021-09-17T13:12:12Z</time>
      </trkpt>
      <trkpt lat="49.39337" lon="1.17149">
        <ele>142.5</ele>
        <time>2021-09-17T13:12:13Z</time>
      </trkpt>
      <trkpt lat="49.39363" lon="1.17157">
        <ele>141.9</ele>
        <time>2021-09-17T13:12:15Z</time>
      </trkpt>
      <trkpt lat="49.39376" lon="1.17164">
        <ele>141.3</ele>
        <time>2021-09-17T13:12:16Z</time>
      </trkpt>
      <trkpt lat="49.394" lon="1.17182">
        <ele>140.7</ele>
        <time>2021-09-17T13:12:18Z</time>
      </trkpt>
      <trkpt lat="49.39411" lon="1.17194">
        <ele>140.2</ele>
        <time>2021-09-17T13:12:19Z</time>
      </trkpt>
      <trkpt lat="49.39422" lon="1.17207">
        <ele>139.6</ele>
        <time>2021-09-17T13:12:20Z</time>
      </trkpt>
      <trkpt lat="49.39443" lon="1.17234">
        <ele>139.1</ele>
        <time>2021-09-17T13:12:22Z</time>
      </trkpt>
      <trkpt lat="49.39464" lon="1.17261">
        <ele>138.6</ele>
        <time>2021-09-17T13:12:24Z</time>
      </trkpt>
      <trkpt lat="49.39484" lon="1.17283">
        <ele>138.3</ele>
        <time>2021-09-17T13:12:26Z</time>
      </trkpt>
      <trkpt lat="49.39495" lon="1.1729">
        <ele>138.2</ele>
        <time>2021-09-17T13:12:27Z</time>
      </trkpt>
      <trkpt lat="49.39518" lon="1.17297">
        <ele>138.2</ele>
        <time>2021-09-17T13:12:29Z</time>
      </trkpt>
      <trkpt lat="49.39528" lon="1.17297">
        <ele>138.3</ele>
        <time>2021-09-17T13:12:30Z</time>
      </trkpt>
      <trkpt lat="49.39539" lon="1.17296">
        <ele>138.5</ele>
        <time>2021-09-17T13:12:31Z</time>
      </trkpt>
      <trkpt lat="49.39548" lon="1.17292">
        <ele>138.6</ele>
        <time>2021-09-17T13:12:32Z</time>
      </trkpt>
      <trkpt lat="49.39558" lon="1.17288">
        <ele>138.7</ele>
        <time>2021-09-17T13:12:33Z</time>
      </trkpt>
      <trkpt lat="49.39574" lon="1.17278">
        <ele>138.8</ele>
        <time>2021-09-17T13:12:35Z</time>
      </trkpt>
      <trkpt lat="49.39583" lon="1.17274">
        <ele>139.1</ele>
        <time>2021-09-17T13:12:36Z</time>
      </trkpt>
      <trkpt lat="49.39591" lon="1.17269">
        <ele>139.5</ele>
        <time>2021-09-17T13:12:37Z</time>
      </trkpt>
      <trkpt lat="49.39606" lon="1.17262">
        <ele>139.8</ele>
        <time>2021-09-17T13:12:39Z</time>
      </trkpt>
      <trkpt lat="49.39613" lon="1.17259">
        <ele>140.2</ele>
        <time>2021-09-17T13:12:40Z</time>
      </trkpt>
      <trkpt lat="49.39621" lon="1.17256">
        <ele>140.5</ele>
        <time>2021-09-17T13:12:41Z</time>
      </trkpt>
      <trkpt lat="49.39635" lon="1.1725">
        <ele>140.9</ele>
        <time>2021-09-17T13:12:43Z</time>
      </trkpt>
      <trkpt lat="49.39649" lon="1.17243">
        <ele>141.3</ele>
        <time>2021-09-17T13:12:45Z</time>
      </trkpt>
      <trkpt lat="49.39662" lon="1.17236">
        <ele>141.6</ele>
        <time>2021-09-17T13:12:47Z</time>
      </trkpt>
      <trkpt lat="49.39669" lon="1.17233">
        <ele>141.9</ele>
        <time>2021-09-17T13:12:48Z</time>
      </trkpt>
      <trkpt lat="49.39683" lon="1.17227">
        <ele>142.2</ele>
        <time>2021-09-17T13:12:50Z</time>
      </trkpt>
      <trkpt lat="49.3969" lon="1.17225">
        <ele>142.5</ele>
        <time>2021-09-17T13:12:51Z</time>
      </trkpt>
      <trkpt lat="49.39697" lon="1.17224">
        <ele>142.7</ele>
        <time>2021-09-17T13:12:52Z</time>
      </trkpt>
      <trkpt lat="49.39703" lon="1.17223">
        <ele>142.8</ele>
        <time>2021-09-17T13:12:53Z</time>
      </trkpt>
      <trkpt lat="49.39716" lon="1.17223">
        <ele>142.8</ele>
        <time>2021-09-17T13:12:55Z</time>
      </trkpt>
      <trkpt lat="49.39726" lon="1.17231">
        <ele>142.8</ele>
        <time>2021-09-17T13:12:57Z</time>
      </trkpt>
      <trkpt lat="49.39731" lon="1.17237">
        <ele>142.8</ele>
        <time>2021-09-17T13:12:58Z</time>
      </trkpt>
      <trkpt lat="49.39736" lon="1.17242">
        <ele>142.8</ele>
        <time>2021-09-17T13:12:59Z</time>
      </trkpt>
      <trkpt lat="49.39747" lon="1.17251">
        <ele>142.8</ele>
        <time>2021-09-17T13:13:01Z</time>
      </trkpt>
      <trkpt lat="49.39756" lon="1.17265">
        <ele>142.9</ele>
        <time>2021-09-17T13:13:03Z</time>
      </trkpt>
      <trkpt lat="49.39765" lon="1.1728">
        <ele>143.1</ele>
        <time>2021-09-17T13:13:05Z</time>
      </trkpt>
      <trkpt lat="49.39776" lon="1.17294">
        <ele>143.3</ele>
        <time>2021-09-17T13:13:07Z</time>
      </trkpt>
      <trkpt lat="49.39787" lon="1.17306">
        <ele>143.4</ele>
        <time>2021-09-17T13:13:09Z</time>
      </trkpt>
      <trkpt lat="49.39792" lon="1.17313">
        <ele>143.5</ele>
        <time>2021-09-17T13:13:10Z</time>
      </trkpt>
      <trkpt lat="49.39803" lon="1.17325">
        <ele>143.5</ele>
        <time>2021-09-17T13:13:12Z</time>
      </trkpt>
      <trkpt lat="49.39808" lon="1.17332">
        <ele>143.6</ele>
        <time>2021-09-17T13:13:13Z</time>
      </trkpt>
      <trkpt lat="49.39819" lon="1.17344">
        <ele>143.7</ele>
        <time>2021-09-17T13:13:15Z</time>
      </trkpt>
      <trkpt lat="49.3983" lon="1.17357">
        <ele>143.8</ele>
        <time>2021-09-17T13:13:17Z</time>
      </trkpt>
      <trkpt lat="49.39841" lon="1.17371">
        <ele>144</ele>
        <time>2021-09-17T13:13:19Z</time>
      </trkpt>
      <trkpt lat="49.39852" lon="1.17384">
        <ele>144.2</ele>
        <time>2021-09-17T13:13:21Z</time>
      </trkpt>
      <trkpt lat="49.39858" lon="1.17391">
        <ele>144.3</ele>
        <time>2021-09-17T13:13:22Z</time>
      </trkpt>
      <trkpt lat="49.39868" lon="1.17405">
        <ele>144.4</ele>
        <time>2021-09-17T13:13:24Z</time>
      </trkpt>
      <trkpt lat="49.39874" lon="1.17411">
        <ele>144.5</ele>
        <time>2021-09-17T13:13:25Z</time>
      </trkpt>
      <trkpt lat="49.39878" lon="1.17417">
        <ele>144.5</ele>
        <time>2021-09-17T13:13:26Z</time>
      </trkpt>
      <trkpt lat="49.39882" lon="1.17426">
        <ele>144.6</ele>
        <time>2021-09-17T13:13:28Z</time>
      </trkpt>
      <trkpt lat="49.39883" lon="1.17432">
        <ele>144.8</ele>
        <time>2021-09-17T13:13:30Z</time>
      </trkpt>
      <trkpt lat="49.39883" lon="1.17437">
        <ele>145</ele>
        <time>2021-09-17T13:13:32Z</time>
      </trkpt>
      <trkpt lat="49.39884" lon="1.17444">
        <ele>145.2</ele>
        <time>2021-09-17T13:13:34Z</time>
      </trkpt>
      <trkpt lat="49.39887" lon="1.17448">
        <ele>145.4</ele>
        <time>2021-09-17T13:13:36Z</time>
      </trkpt>
      <trkpt lat="49.39891" lon="1.17446">
        <ele>145.5</ele>
        <time>2021-09-17T13:13:37Z</time>
      </trkpt>
      <trkpt lat="49.39903" lon="1.17444">
        <ele>145.5</ele>
        <time>2021-09-17T13:13:39Z</time>
      </trkpt>
      <trkpt lat="49.39909" lon="1.17428">
        <ele>145.5</ele>
        <time>2021-09-17T13:13:41Z</time>
      </trkpt>
      <trkpt lat="49.39911" lon="1.17409">
        <ele>145.5</ele>
        <time>2021-09-17T13:13:43Z</time>
      </trkpt>
      <trkpt lat="49.39914" lon="1.174">
        <ele>145.5</ele>
        <time>2021-09-17T13:13:44Z</time>
      </trkpt>
      <trkpt lat="49.39919" lon="1.17382">
        <ele>145.5</ele>
        <time>2021-09-17T13:13:46Z</time>
      </trkpt>
      <trkpt lat="49.39922" lon="1.17372">
        <ele>145.5</ele>
        <time>2021-09-17T13:13:47Z</time>
      </trkpt>
      <trkpt lat="49.39928" lon="1.17354">
        <ele>145.5</ele>
        <time>2021-09-17T13:13:49Z</time>
      </trkpt>
      <trkpt lat="49.39935" lon="1.17336">
        <ele>145.3</ele>
        <time>2021-09-17T13:13:51Z</time>
      </trkpt>
      <trkpt lat="49.3994" lon="1.17316">
        <ele>145.2</ele>
        <time>2021-09-17T13:13:53Z</time>
      </trkpt>
      <trkpt lat="49.39943" lon="1.17305">
        <ele>145.1</ele>
        <time>2021-09-17T13:13:54Z</time>
      </trkpt>
      <trkpt lat="49.39947" lon="1.17295">
        <ele>145</ele>
        <time>2021-09-17T13:13:55Z</time>
      </trkpt>
      <trkpt lat="49.39953" lon="1.17274">
        <ele>144.9</ele>
        <time>2021-09-17T13:13:57Z</time>
      </trkpt>
      <trkpt lat="49.39959" lon="1.17252">
        <ele>144.9</ele>
        <time>2021-09-17T13:13:59Z</time>
      </trkpt>
      <trkpt lat="49.39962" lon="1.17241">
        <ele>145</ele>
        <time>2021-09-17T13:14:00Z</time>
      </trkpt>
      <trkpt lat="49.39964" lon="1.1723">
        <ele>145.1</ele>
        <time>2021-09-17T13:14:01Z</time>
      </trkpt>
      <trkpt lat="49.39969" lon="1.17208">
        <ele>145.1</ele>
        <time>2021-09-17T13:14:03Z</time>
      </trkpt>
      <trkpt lat="49.39971" lon="1.17197">
        <ele>145.1</ele>
        <time>2021-09-17T13:14:04Z</time>
      </trkpt>
      <trkpt lat="49.39974" lon="1.17185">
        <ele>145.1</ele>
        <time>2021-09-17T13:14:05Z</time>
      </trkpt>
      <trkpt lat="49.39977" lon="1.17174">
        <ele>145.2</ele>
        <time>2021-09-17T13:14:06Z</time>
      </trkpt>
      <trkpt lat="49.39982" lon="1.17151">
        <ele>145.2</ele>
        <time>2021-09-17T13:14:08Z</time>
      </trkpt>
      <trkpt lat="49.39987" lon="1.17128">
        <ele>145.3</ele>
        <time>2021-09-17T13:14:10Z</time>
      </trkpt>
      <trkpt lat="49.39993" lon="1.17105">
        <ele>145.5</ele>
        <time>2021-09-17T13:14:12Z</time>
      </trkpt>
      <trkpt lat="49.39996" lon="1.17093">
        <ele>145.6</ele>
        <time>2021-09-17T13:14:13Z</time>
      </trkpt>
      <trkpt lat="49.40002" lon="1.1707">
        <ele>145.9</ele>
        <time>2021-09-17T13:14:15Z</time>
      </trkpt>
      <trkpt lat="49.40005" lon="1.17058">
        <ele>146.1</ele>
        <time>2021-09-17T13:14:16Z</time>
      </trkpt>
      <trkpt lat="49.40011" lon="1.17035">
        <ele>146.4</ele>
        <time>2021-09-17T13:14:18Z</time>
      </trkpt>
      <trkpt lat="49.40017" lon="1.17012">
        <ele>146.7</ele>
        <time>2021-09-17T13:14:20Z</time>
      </trkpt>
      <trkpt lat="49.40022" lon="1.16991">
        <ele>147.2</ele>
        <time>2021-09-17T13:14:22Z</time>
      </trkpt>
      <trkpt lat="49.40025" lon="1.1698">
        <ele>147.6</ele>
        <time>2021-09-17T13:14:23Z</time>
      </trkpt>
      <trkpt lat="49.4003" lon="1.1696">
        <ele>148.2</ele>
        <time>2021-09-17T13:14:25Z</time>
      </trkpt>
      <trkpt lat="49.40035" lon="1.1694">
        <ele>148.8</ele>
        <time>2021-09-17T13:14:27Z</time>
      </trkpt>
      <trkpt lat="49.40038" lon="1.1693">
        <ele>149.4</ele>
        <time>2021-09-17T13:14:28Z</time>
      </trkpt>
      <trkpt lat="49.40043" lon="1.1691">
        <ele>149.8</ele>
        <time>2021-09-17T13:14:30Z</time>
      </trkpt>
      <trkpt lat="49.40045" lon="1.169">
        <ele>150.3</ele>
        <time>2021-09-17T13:14:31Z</time>
      </trkpt>
      <trkpt lat="49.4005" lon="1.1688">
        <ele>150.6</ele>
        <time>2021-09-17T13:14:33Z</time>
      </trkpt>
      <trkpt lat="49.40054" lon="1.1686">
        <ele>151</ele>
        <time>2021-09-17T13:14:35Z</time>
      </trkpt>
      <trkpt lat="49.40057" lon="1.1685">
        <ele>151.3</ele>
        <time>2021-09-17T13:14:36Z</time>
      </trkpt>
      <trkpt lat="49.40059" lon="1.16839">
        <ele>151.5</ele>
        <time>2021-09-17T13:14:37Z</time>
      </trkpt>
      <trkpt lat="49.40062" lon="1.16829">
        <ele>151.7</ele>
        <time>2021-09-17T13:14:38Z</time>
      </trkpt>
      <trkpt lat="49.40066" lon="1.16809">
        <ele>151.9</ele>
        <time>2021-09-17T13:14:40Z</time>
      </trkpt>
      <trkpt lat="49.40069" lon="1.16799">
        <ele>152.1</ele>
        <time>2021-09-17T13:14:41Z</time>
      </trkpt>
      <trkpt lat="49.40072" lon="1.16789">
        <ele>152.2</ele>
        <time>2021-09-17T13:14:42Z</time>
      </trkpt>
      <trkpt lat="49.40077" lon="1.16769">
        <ele>152.3</ele>
        <time>2021-09-17T13:14:44Z</time>
      </trkpt>
      <trkpt lat="49.40079" lon="1.16759">
        <ele>152.4</ele>
        <time>2021-09-17T13:14:45Z</time>
      </trkpt>
      <trkpt lat="49.40083" lon="1.16739">
        <ele>152.5</ele>
        <time>2021-09-17T13:14:47Z</time>
      </trkpt>
      <trkpt lat="49.40086" lon="1.16729">
        <ele>152.7</ele>
        <time>2021-09-17T13:14:48Z</time>
      </trkpt>
      <trkpt lat="49.4009" lon="1.16709">
        <ele>152.9</ele>
        <time>2021-09-17T13:14:50Z</time>
      </trkpt>
      <trkpt lat="49.40093" lon="1.16698">
        <ele>153.1</ele>
        <time>2021-09-17T13:14:51Z</time>
      </trkpt>
      <trkpt lat="49.40095" lon="1.16688">
        <ele>153.3</ele>
        <time>2021-09-17T13:14:52Z</time>
      </trkpt>
      <trkpt lat="49.40097" lon="1.16678">
        <ele>153.5</ele>
        <time>2021-09-17T13:14:53Z</time>
      </trkpt>
      <trkpt lat="49.40102" lon="1.16658">
        <ele>153.6</ele>
        <time>2021-09-17T13:14:55Z</time>
      </trkpt>
      <trkpt lat="49.40107" lon="1.16639">
        <ele>153.7</ele>
        <time>2021-09-17T13:14:57Z</time>
      </trkpt>
      <trkpt lat="49.40112" lon="1.1662">
        <ele>153.8</ele>
        <time>2021-09-17T13:14:59Z</time>
      </trkpt>
      <trkpt lat="49.40114" lon="1.1661">
        <ele>154</ele>
        <time>2021-09-17T13:15:00Z</time>
      </trkpt>
      <trkpt lat="49.40115" lon="1.16601">
        <ele>154.2</ele>
        <time>2021-09-17T13:15:01Z</time>
      </trkpt>
      <trkpt lat="49.40117" lon="1.16583">
        <ele>154.3</ele>
        <time>2021-09-17T13:15:03Z</time>
      </trkpt>
      <trkpt lat="49.40119" lon="1.16574">
        <ele>154.4</ele>
        <time>2021-09-17T13:15:04Z</time>
      </trkpt>
      <trkpt lat="49.40121" lon="1.16566">
        <ele>154.5</ele>
        <time>2021-09-17T13:15:05Z</time>
      </trkpt>
      <trkpt lat="49.40125" lon="1.16551">
        <ele>154.5</ele>
        <time>2021-09-17T13:15:07Z</time>
      </trkpt>
      <trkpt lat="49.40129" lon="1.16534">
        <ele>154.6</ele>
        <time>2021-09-17T13:15:09Z</time>
      </trkpt>
      <trkpt lat="49.40133" lon="1.16517">
        <ele>154.7</ele>
        <time>2021-09-17T13:15:11Z</time>
      </trkpt>
      <trkpt lat="49.40135" lon="1.16508">
        <ele>154.8</ele>
        <time>2021-09-17T13:15:12Z</time>
      </trkpt>
      <trkpt lat="49.4014" lon="1.1649">
        <ele>154.9</ele>
        <time>2021-09-17T13:15:14Z</time>
      </trkpt>
      <trkpt lat="49.40143" lon="1.16481">
        <ele>155</ele>
        <time>2021-09-17T13:15:15Z</time>
      </trkpt>
      <trkpt lat="49.40146" lon="1.16472">
        <ele>155</ele>
        <time>2021-09-17T13:15:16Z</time>
      </trkpt>
      <trkpt lat="49.4015" lon="1.16452">
        <ele>155</ele>
        <time>2021-09-17T13:15:18Z</time>
      </trkpt>
      <trkpt lat="49.40153" lon="1.16441">
        <ele>155</ele>
        <time>2021-09-17T13:15:19Z</time>
      </trkpt>
      <trkpt lat="49.40159" lon="1.1642">
        <ele>155</ele>
        <time>2021-09-17T13:15:21Z</time>
      </trkpt>
      <trkpt lat="49.40164" lon="1.16399">
        <ele>155</ele>
        <time>2021-09-17T13:15:23Z</time>
      </trkpt>
      <trkpt lat="49.40167" lon="1.16388">
        <ele>155.1</ele>
        <time>2021-09-17T13:15:24Z</time>
      </trkpt>
      <trkpt lat="49.40172" lon="1.16367">
        <ele>155.3</ele>
        <time>2021-09-17T13:15:26Z</time>
      </trkpt>
      <trkpt lat="49.40175" lon="1.16356">
        <ele>155.5</ele>
        <time>2021-09-17T13:15:27Z</time>
      </trkpt>
      <trkpt lat="49.4018" lon="1.16333">
        <ele>155.8</ele>
        <time>2021-09-17T13:15:29Z</time>
      </trkpt>
      <trkpt lat="49.40185" lon="1.16311">
        <ele>156.2</ele>
        <time>2021-09-17T13:15:31Z</time>
      </trkpt>
      <trkpt lat="49.40191" lon="1.16289">
        <ele>156.6</ele>
        <time>2021-09-17T13:15:33Z</time>
      </trkpt>
      <trkpt lat="49.40194" lon="1.16278">
        <ele>157.1</ele>
        <time>2021-09-17T13:15:34Z</time>
      </trkpt>
      <trkpt lat="49.40199" lon="1.16255">
        <ele>157.5</ele>
        <time>2021-09-17T13:15:36Z</time>
      </trkpt>
      <trkpt lat="49.40204" lon="1.16232">
        <ele>157.9</ele>
        <time>2021-09-17T13:15:38Z</time>
      </trkpt>
      <trkpt lat="49.4021" lon="1.1621">
        <ele>158.3</ele>
        <time>2021-09-17T13:15:40Z</time>
      </trkpt>
      <trkpt lat="49.40215" lon="1.16187">
        <ele>158.6</ele>
        <time>2021-09-17T13:15:42Z</time>
      </trkpt>
      <trkpt lat="49.40221" lon="1.16164">
        <ele>159</ele>
        <time>2021-09-17T13:15:44Z</time>
      </trkpt>
      <trkpt lat="49.40227" lon="1.16141">
        <ele>159.3</ele>
        <time>2021-09-17T13:15:46Z</time>
      </trkpt>
      <trkpt lat="49.40234" lon="1.1612">
        <ele>159.5</ele>
        <time>2021-09-17T13:15:48Z</time>
      </trkpt>
      <trkpt lat="49.40244" lon="1.16102">
        <ele>159.6</ele>
        <time>2021-09-17T13:15:50Z</time>
      </trkpt>
      <trkpt lat="49.40251" lon="1.16095">
        <ele>159.7</ele>
        <time>2021-09-17T13:15:51Z</time>
      </trkpt>
      <trkpt lat="49.40266" lon="1.16085">
        <ele>159.7</ele>
        <time>2021-09-17T13:15:53Z</time>
      </trkpt>
      <trkpt lat="49.4027" lon="1.16077">
        <ele>159.7</ele>
        <time>2021-09-17T13:15:54Z</time>
      </trkpt>
      <trkpt lat="49.40272" lon="1.16066">
        <ele>159.8</ele>
        <time>2021-09-17T13:15:55Z</time>
      </trkpt>
      <trkpt lat="49.4027" lon="1.16045">
        <ele>160</ele>
        <time>2021-09-17T13:15:57Z</time>
      </trkpt>
      <trkpt lat="49.40267" lon="1.16033">
        <ele>160.1</ele>
        <time>2021-09-17T13:15:58Z</time>
      </trkpt>
      <trkpt lat="49.40263" lon="1.16022">
        <ele>160.2</ele>
        <time>2021-09-17T13:15:59Z</time>
      </trkpt>
      <trkpt lat="49.40262" lon="1.15998">
        <ele>160.2</ele>
        <time>2021-09-17T13:16:01Z</time>
      </trkpt>
      <trkpt lat="49.40265" lon="1.15975">
        <ele>160.1</ele>
        <time>2021-09-17T13:16:03Z</time>
      </trkpt>
      <trkpt lat="49.4027" lon="1.15952">
        <ele>160</ele>
        <time>2021-09-17T13:16:05Z</time>
      </trkpt>
      <trkpt lat="49.40276" lon="1.15928">
        <ele>160</ele>
        <time>2021-09-17T13:16:07Z</time>
      </trkpt>
      <trkpt lat="49.40281" lon="1.15904">
        <ele>160</ele>
        <time>2021-09-17T13:16:09Z</time>
      </trkpt>
      <trkpt lat="49.40284" lon="1.15892">
        <ele>160.1</ele>
        <time>2021-09-17T13:16:10Z</time>
      </trkpt>
      <trkpt lat="49.4029" lon="1.15869">
        <ele>160.2</ele>
        <time>2021-09-17T13:16:12Z</time>
      </trkpt>
      <trkpt lat="49.40293" lon="1.15857">
        <ele>160.3</ele>
        <time>2021-09-17T13:16:13Z</time>
      </trkpt>
      <trkpt lat="49.40296" lon="1.15845">
        <ele>160.4</ele>
        <time>2021-09-17T13:16:14Z</time>
      </trkpt>
      <trkpt lat="49.40299" lon="1.15832">
        <ele>160.6</ele>
        <time>2021-09-17T13:16:15Z</time>
      </trkpt>
      <trkpt lat="49.40304" lon="1.15809">
        <ele>160.9</ele>
        <time>2021-09-17T13:16:17Z</time>
      </trkpt>
      <trkpt lat="49.40307" lon="1.15797">
        <ele>161.2</ele>
        <time>2021-09-17T13:16:18Z</time>
      </trkpt>
      <trkpt lat="49.40312" lon="1.15773">
        <ele>161.5</ele>
        <time>2021-09-17T13:16:20Z</time>
      </trkpt>
      <trkpt lat="49.40315" lon="1.15761">
        <ele>161.9</ele>
        <time>2021-09-17T13:16:21Z</time>
      </trkpt>
      <trkpt lat="49.4032" lon="1.15738">
        <ele>162.2</ele>
        <time>2021-09-17T13:16:23Z</time>
      </trkpt>
      <trkpt lat="49.40325" lon="1.15714">
        <ele>162.4</ele>
        <time>2021-09-17T13:16:25Z</time>
      </trkpt>
      <trkpt lat="49.4033" lon="1.1569">
        <ele>162.5</ele>
        <time>2021-09-17T13:16:27Z</time>
      </trkpt>
      <trkpt lat="49.40332" lon="1.15678">
        <ele>162.5</ele>
        <time>2021-09-17T13:16:28Z</time>
      </trkpt>
      <trkpt lat="49.40338" lon="1.15654">
        <ele>162.5</ele>
        <time>2021-09-17T13:16:30Z</time>
      </trkpt>
      <trkpt lat="49.40341" lon="1.15642">
        <ele>162.5</ele>
        <time>2021-09-17T13:16:31Z</time>
      </trkpt>
      <trkpt lat="49.40348" lon="1.15619">
        <ele>162.5</ele>
        <time>2021-09-17T13:16:33Z</time>
      </trkpt>
      <trkpt lat="49.40351" lon="1.15608">
        <ele>162.4</ele>
        <time>2021-09-17T13:16:34Z</time>
      </trkpt>
      <trkpt lat="49.40359" lon="1.15586">
        <ele>162.3</ele>
        <time>2021-09-17T13:16:36Z</time>
      </trkpt>
      <trkpt lat="49.40363" lon="1.15575">
        <ele>162.2</ele>
        <time>2021-09-17T13:16:37Z</time>
      </trkpt>
      <trkpt lat="49.40373" lon="1.15555">
        <ele>162.1</ele>
        <time>2021-09-17T13:16:39Z</time>
      </trkpt>
      <trkpt lat="49.40384" lon="1.15534">
        <ele>162.1</ele>
        <time>2021-09-17T13:16:41Z</time>
      </trkpt>
      <trkpt lat="49.40394" lon="1.15513">
        <ele>162.2</ele>
        <time>2021-09-17T13:16:43Z</time>
      </trkpt>
      <trkpt lat="49.40399" lon="1.15503">
        <ele>162.3</ele>
        <time>2021-09-17T13:16:44Z</time>
      </trkpt>
      <trkpt lat="49.40409" lon="1.15482">
        <ele>162.4</ele>
        <time>2021-09-17T13:16:46Z</time>
      </trkpt>
      <trkpt lat="49.40419" lon="1.15461">
        <ele>162.5</ele>
        <time>2021-09-17T13:16:48Z</time>
      </trkpt>
      <trkpt lat="49.40429" lon="1.1544">
        <ele>162.5</ele>
        <time>2021-09-17T13:16:50Z</time>
      </trkpt>
      <trkpt lat="49.4044" lon="1.15419">
        <ele>162.6</ele>
        <time>2021-09-17T13:16:52Z</time>
      </trkpt>
      <trkpt lat="49.4045" lon="1.15398">
        <ele>162.6</ele>
        <time>2021-09-17T13:16:54Z</time>
      </trkpt>
      <trkpt lat="49.4046" lon="1.15377">
        <ele>162.6</ele>
        <time>2021-09-17T13:16:56Z</time>
      </trkpt>
      <trkpt lat="49.40465" lon="1.15367">
        <ele>162.6</ele>
        <time>2021-09-17T13:16:57Z</time>
      </trkpt>
      <trkpt lat="49.40476" lon="1.15347">
        <ele>162.6</ele>
        <time>2021-09-17T13:16:59Z</time>
      </trkpt>
      <trkpt lat="49.40483" lon="1.15325">
        <ele>162.5</ele>
        <time>2021-09-17T13:17:01Z</time>
      </trkpt>
      <trkpt lat="49.40493" lon="1.15304">
        <ele>162.5</ele>
        <time>2021-09-17T13:17:03Z</time>
      </trkpt>
      <trkpt lat="49.40499" lon="1.15294">
        <ele>162.4</ele>
        <time>2021-09-17T13:17:04Z</time>
      </trkpt>
      <trkpt lat="49.40509" lon="1.15273">
        <ele>162.4</ele>
        <time>2021-09-17T13:17:06Z</time>
      </trkpt>
      <trkpt lat="49.40514" lon="1.15263">
        <ele>162.4</ele>
        <time>2021-09-17T13:17:07Z</time>
      </trkpt>
      <trkpt lat="49.40519" lon="1.15253">
        <ele>162.3</ele>
        <time>2021-09-17T13:17:08Z</time>
      </trkpt>
      <trkpt lat="49.40529" lon="1.15232">
        <ele>162.1</ele>
        <time>2021-09-17T13:17:10Z</time>
      </trkpt>
      <trkpt lat="49.40534" lon="1.15221">
        <ele>162</ele>
        <time>2021-09-17T13:17:11Z</time>
      </trkpt>
      <trkpt lat="49.40545" lon="1.15199">
        <ele>161.9</ele>
        <time>2021-09-17T13:17:13Z</time>
      </trkpt>
      <trkpt lat="49.4055" lon="1.15188">
        <ele>161.8</ele>
        <time>2021-09-17T13:17:14Z</time>
      </trkpt>
      <trkpt lat="49.40561" lon="1.15165">
        <ele>161.7</ele>
        <time>2021-09-17T13:17:16Z</time>
      </trkpt>
      <trkpt lat="49.40567" lon="1.15152">
        <ele>161.5</ele>
        <time>2021-09-17T13:17:17Z</time>
      </trkpt>
      <trkpt lat="49.40572" lon="1.1514">
        <ele>161.4</ele>
        <time>2021-09-17T13:17:18Z</time>
      </trkpt>
      <trkpt lat="49.40578" lon="1.15128">
        <ele>161.3</ele>
        <time>2021-09-17T13:17:19Z</time>
      </trkpt>
      <trkpt lat="49.40589" lon="1.15103">
        <ele>161.2</ele>
        <time>2021-09-17T13:17:21Z</time>
      </trkpt>
      <trkpt lat="49.40594" lon="1.15091">
        <ele>161.1</ele>
        <time>2021-09-17T13:17:22Z</time>
      </trkpt>
      <trkpt lat="49.40606" lon="1.15067">
        <ele>161</ele>
        <time>2021-09-17T13:17:24Z</time>
      </trkpt>
      <trkpt lat="49.40618" lon="1.15041">
        <ele>161</ele>
        <time>2021-09-17T13:17:26Z</time>
      </trkpt>
      <trkpt lat="49.4063" lon="1.15017">
        <ele>160.9</ele>
        <time>2021-09-17T13:17:28Z</time>
      </trkpt>
      <trkpt lat="49.40636" lon="1.15004">
        <ele>160.7</ele>
        <time>2021-09-17T13:17:29Z</time>
      </trkpt>
      <trkpt lat="49.40648" lon="1.1498">
        <ele>160.5</ele>
        <time>2021-09-17T13:17:31Z</time>
      </trkpt>
      <trkpt lat="49.40654" lon="1.14967">
        <ele>160.5</ele>
        <time>2021-09-17T13:17:32Z</time>
      </trkpt>
      <trkpt lat="49.4066" lon="1.14955">
        <ele>160.5</ele>
        <time>2021-09-17T13:17:33Z</time>
      </trkpt>
      <trkpt lat="49.40673" lon="1.1493">
        <ele>160.5</ele>
        <time>2021-09-17T13:17:35Z</time>
      </trkpt>
      <trkpt lat="49.40686" lon="1.14906">
        <ele>160.5</ele>
        <time>2021-09-17T13:17:37Z</time>
      </trkpt>
      <trkpt lat="49.40699" lon="1.14881">
        <ele>160.5</ele>
        <time>2021-09-17T13:17:39Z</time>
      </trkpt>
      <trkpt lat="49.40712" lon="1.14857">
        <ele>160.4</ele>
        <time>2021-09-17T13:17:41Z</time>
      </trkpt>
      <trkpt lat="49.40724" lon="1.14831">
        <ele>160.3</ele>
        <time>2021-09-17T13:17:43Z</time>
      </trkpt>
      <trkpt lat="49.40736" lon="1.14805">
        <ele>160.1</ele>
        <time>2021-09-17T13:17:45Z</time>
      </trkpt>
      <trkpt lat="49.40742" lon="1.14793">
        <ele>160</ele>
        <time>2021-09-17T13:17:46Z</time>
      </trkpt>
      <trkpt lat="49.40753" lon="1.1477">
        <ele>160</ele>
        <time>2021-09-17T13:17:48Z</time>
      </trkpt>
      <trkpt lat="49.40759" lon="1.14759">
        <ele>160</ele>
        <time>2021-09-17T13:17:49Z</time>
      </trkpt>
      <trkpt lat="49.4077" lon="1.14737">
        <ele>159.9</ele>
        <time>2021-09-17T13:17:51Z</time>
      </trkpt>
      <trkpt lat="49.4078" lon="1.14715">
        <ele>159.8</ele>
        <time>2021-09-17T13:17:53Z</time>
      </trkpt>
      <trkpt lat="49.40785" lon="1.14704">
        <ele>159.6</ele>
        <time>2021-09-17T13:17:54Z</time>
      </trkpt>
      <trkpt lat="49.40794" lon="1.14681">
        <ele>159.5</ele>
        <time>2021-09-17T13:17:56Z</time>
      </trkpt>
      <trkpt lat="49.40803" lon="1.1466">
        <ele>159.3</ele>
        <time>2021-09-17T13:17:58Z</time>
      </trkpt>
      <trkpt lat="49.40807" lon="1.14652">
        <ele>159.1</ele>
        <time>2021-09-17T13:17:59Z</time>
      </trkpt>
      <trkpt lat="49.40809" lon="1.14646">
        <ele>159</ele>
        <time>2021-09-17T13:18:00Z</time>
      </trkpt>
      <trkpt lat="49.40812" lon="1.1464">
        <ele>159.1</ele>
        <time>2021-09-17T13:18:02Z</time>
      </trkpt>
      <trkpt lat="49.40813" lon="1.14637">
        <ele>159.2</ele>
        <time>2021-09-17T13:18:03Z</time>
      </trkpt>
      <trkpt lat="49.40815" lon="1.14634">
        <ele>159.3</ele>
        <time>2021-09-17T13:18:05Z</time>
      </trkpt>
      <trkpt lat="49.40818" lon="1.14628">
        <ele>159.4</ele>
        <time>2021-09-17T13:18:07Z</time>
      </trkpt>
      <trkpt lat="49.40822" lon="1.14619">
        <ele>159.5</ele>
        <time>2021-09-17T13:18:09Z</time>
      </trkpt>
      <trkpt lat="49.4083" lon="1.14603">
        <ele>159.5</ele>
        <time>2021-09-17T13:18:11Z</time>
      </trkpt>
      <trkpt lat="49.40834" lon="1.14595">
        <ele>159.6</ele>
        <time>2021-09-17T13:18:12Z</time>
      </trkpt>
      <trkpt lat="49.40839" lon="1.14586">
        <ele>159.7</ele>
        <time>2021-09-17T13:18:13Z</time>
      </trkpt>
      <trkpt lat="49.40843" lon="1.14578">
        <ele>159.7</ele>
        <time>2021-09-17T13:18:14Z</time>
      </trkpt>
      <trkpt lat="49.40853" lon="1.1456">
        <ele>159.7</ele>
        <time>2021-09-17T13:18:16Z</time>
      </trkpt>
      <trkpt lat="49.40862" lon="1.14539">
        <ele>159.7</ele>
        <time>2021-09-17T13:18:18Z</time>
      </trkpt>
      <trkpt lat="49.4087" lon="1.14518">
        <ele>159.6</ele>
        <time>2021-09-17T13:18:20Z</time>
      </trkpt>
      <trkpt lat="49.40879" lon="1.14497">
        <ele>159.5</ele>
        <time>2021-09-17T13:18:22Z</time>
      </trkpt>
      <trkpt lat="49.40885" lon="1.14488">
        <ele>159.5</ele>
        <time>2021-09-17T13:18:23Z</time>
      </trkpt>
      <trkpt lat="49.4089" lon="1.14478">
        <ele>159.4</ele>
        <time>2021-09-17T13:18:24Z</time>
      </trkpt>
      <trkpt lat="49.40895" lon="1.14468">
        <ele>159.2</ele>
        <time>2021-09-17T13:18:25Z</time>
      </trkpt>
      <trkpt lat="49.409" lon="1.14458">
        <ele>159.1</ele>
        <time>2021-09-17T13:18:26Z</time>
      </trkpt>
      <trkpt lat="49.40909" lon="1.14437">
        <ele>159</ele>
        <time>2021-09-17T13:18:28Z</time>
      </trkpt>
      <trkpt lat="49.40919" lon="1.14419">
        <ele>158.9</ele>
        <time>2021-09-17T13:18:30Z</time>
      </trkpt>
      <trkpt lat="49.40925" lon="1.14409">
        <ele>159</ele>
        <time>2021-09-17T13:18:31Z</time>
      </trkpt>
      <trkpt lat="49.40935" lon="1.14389">
        <ele>159.1</ele>
        <time>2021-09-17T13:18:33Z</time>
      </trkpt>
      <trkpt lat="49.40944" lon="1.14367">
        <ele>159.2</ele>
        <time>2021-09-17T13:18:35Z</time>
      </trkpt>
      <trkpt lat="49.40949" lon="1.14356">
        <ele>159.3</ele>
        <time>2021-09-17T13:18:36Z</time>
      </trkpt>
      <trkpt lat="49.40959" lon="1.14335">
        <ele>159.5</ele>
        <time>2021-09-17T13:18:38Z</time>
      </trkpt>
      <trkpt lat="49.40964" lon="1.14326">
        <ele>159.6</ele>
        <time>2021-09-17T13:18:39Z</time>
      </trkpt>
      <trkpt lat="49.40975" lon="1.14306">
        <ele>159.7</ele>
        <time>2021-09-17T13:18:41Z</time>
      </trkpt>
      <trkpt lat="49.4098" lon="1.14294">
        <ele>159.9</ele>
        <time>2021-09-17T13:18:42Z</time>
      </trkpt>
      <trkpt lat="49.4099" lon="1.14272">
        <ele>160</ele>
        <time>2021-09-17T13:18:44Z</time>
      </trkpt>
      <trkpt lat="49.41001" lon="1.1425">
        <ele>160.1</ele>
        <time>2021-09-17T13:18:46Z</time>
      </trkpt>
      <trkpt lat="49.41006" lon="1.14239">
        <ele>160.2</ele>
        <time>2021-09-17T13:18:47Z</time>
      </trkpt>
      <trkpt lat="49.41017" lon="1.14216">
        <ele>160.3</ele>
        <time>2021-09-17T13:18:49Z</time>
      </trkpt>
      <trkpt lat="49.41023" lon="1.14205">
        <ele>160.4</ele>
        <time>2021-09-17T13:18:50Z</time>
      </trkpt>
      <trkpt lat="49.41034" lon="1.14186">
        <ele>160.5</ele>
        <time>2021-09-17T13:18:52Z</time>
      </trkpt>
      <trkpt lat="49.41039" lon="1.14176">
        <ele>160.5</ele>
        <time>2021-09-17T13:18:53Z</time>
      </trkpt>
      <trkpt lat="49.41045" lon="1.14166">
        <ele>160.5</ele>
        <time>2021-09-17T13:18:54Z</time>
      </trkpt>
      <trkpt lat="49.41056" lon="1.14144">
        <ele>160.5</ele>
        <time>2021-09-17T13:18:56Z</time>
      </trkpt>
      <trkpt lat="49.41067" lon="1.14122">
        <ele>160.5</ele>
        <time>2021-09-17T13:18:58Z</time>
      </trkpt>
      <trkpt lat="49.41079" lon="1.14103">
        <ele>160.5</ele>
        <time>2021-09-17T13:19:00Z</time>
      </trkpt>
      <trkpt lat="49.41086" lon="1.14094">
        <ele>160.4</ele>
        <time>2021-09-17T13:19:01Z</time>
      </trkpt>
      <trkpt lat="49.41093" lon="1.14085">
        <ele>160.3</ele>
        <time>2021-09-17T13:19:02Z</time>
      </trkpt>
      <trkpt lat="49.41106" lon="1.14066">
        <ele>160.2</ele>
        <time>2021-09-17T13:19:04Z</time>
      </trkpt>
      <trkpt lat="49.4112" lon="1.14049">
        <ele>160</ele>
        <time>2021-09-17T13:19:06Z</time>
      </trkpt>
      <trkpt lat="49.41133" lon="1.14031">
        <ele>159.8</ele>
        <time>2021-09-17T13:19:08Z</time>
      </trkpt>
      <trkpt lat="49.41147" lon="1.14013">
        <ele>159.6</ele>
        <time>2021-09-17T13:19:10Z</time>
      </trkpt>
      <trkpt lat="49.41154" lon="1.14004">
        <ele>159.5</ele>
        <time>2021-09-17T13:19:11Z</time>
      </trkpt>
      <trkpt lat="49.41161" lon="1.13995">
        <ele>159.3</ele>
        <time>2021-09-17T13:19:12Z</time>
      </trkpt>
      <trkpt lat="49.41174" lon="1.13976">
        <ele>159.2</ele>
        <time>2021-09-17T13:19:14Z</time>
      </trkpt>
      <trkpt lat="49.41186" lon="1.13958">
        <ele>159.1</ele>
        <time>2021-09-17T13:19:16Z</time>
      </trkpt>
      <trkpt lat="49.41193" lon="1.13948">
        <ele>159</ele>
        <time>2021-09-17T13:19:17Z</time>
      </trkpt>
      <trkpt lat="49.41199" lon="1.13938">
        <ele>159</ele>
        <time>2021-09-17T13:19:18Z</time>
      </trkpt>
      <trkpt lat="49.41204" lon="1.13929">
        <ele>159.1</ele>
        <time>2021-09-17T13:19:19Z</time>
      </trkpt>
      <trkpt lat="49.41217" lon="1.13915">
        <ele>159.2</ele>
        <time>2021-09-17T13:19:21Z</time>
      </trkpt>
      <trkpt lat="49.41223" lon="1.13907">
        <ele>159.3</ele>
        <time>2021-09-17T13:19:22Z</time>
      </trkpt>
      <trkpt lat="49.41235" lon="1.13891">
        <ele>159.4</ele>
        <time>2021-09-17T13:19:24Z</time>
      </trkpt>
      <trkpt lat="49.41245" lon="1.13875">
        <ele>159.5</ele>
        <time>2021-09-17T13:19:26Z</time>
      </trkpt>
      <trkpt lat="49.41254" lon="1.1386">
        <ele>159.5</ele>
        <time>2021-09-17T13:19:28Z</time>
      </trkpt>
      <trkpt lat="49.41263" lon="1.13848">
        <ele>159.5</ele>
        <time>2021-09-17T13:19:30Z</time>
      </trkpt>
      <trkpt lat="49.41272" lon="1.13837">
        <ele>159.5</ele>
        <time>2021-09-17T13:19:32Z</time>
      </trkpt>
      <trkpt lat="49.41276" lon="1.13831">
        <ele>159.4</ele>
        <time>2021-09-17T13:19:33Z</time>
      </trkpt>
      <trkpt lat="49.41285" lon="1.13819">
        <ele>159.3</ele>
        <time>2021-09-17T13:19:35Z</time>
      </trkpt>
      <trkpt lat="49.41292" lon="1.13809">
        <ele>159.2</ele>
        <time>2021-09-17T13:19:37Z</time>
      </trkpt>
      <trkpt lat="49.41303" lon="1.13801">
        <ele>158.9</ele>
        <time>2021-09-17T13:19:39Z</time>
      </trkpt>
      <trkpt lat="49.41314" lon="1.13788">
        <ele>158.6</ele>
        <time>2021-09-17T13:19:41Z</time>
      </trkpt>
      <trkpt lat="49.4132" lon="1.1378">
        <ele>158.4</ele>
        <time>2021-09-17T13:19:42Z</time>
      </trkpt>
      <trkpt lat="49.41333" lon="1.13763">
        <ele>158.1</ele>
        <time>2021-09-17T13:19:44Z</time>
      </trkpt>
      <trkpt lat="49.4134" lon="1.13754">
        <ele>157.8</ele>
        <time>2021-09-17T13:19:45Z</time>
      </trkpt>
      <trkpt lat="49.41354" lon="1.13736">
        <ele>157.6</ele>
        <time>2021-09-17T13:19:47Z</time>
      </trkpt>
      <trkpt lat="49.41361" lon="1.13728">
        <ele>157.5</ele>
        <time>2021-09-17T13:19:48Z</time>
      </trkpt>
      <trkpt lat="49.41367" lon="1.13719">
        <ele>157.3</ele>
        <time>2021-09-17T13:19:49Z</time>
      </trkpt>
      <trkpt lat="49.41381" lon="1.13699">
        <ele>157.1</ele>
        <time>2021-09-17T13:19:51Z</time>
      </trkpt>
      <trkpt lat="49.41396" lon="1.1368">
        <ele>156.9</ele>
        <time>2021-09-17T13:19:53Z</time>
      </trkpt>
      <trkpt lat="49.41411" lon="1.1366">
        <ele>156.6</ele>
        <time>2021-09-17T13:19:55Z</time>
      </trkpt>
      <trkpt lat="49.41426" lon="1.13641">
        <ele>156.4</ele>
        <time>2021-09-17T13:19:57Z</time>
      </trkpt>
      <trkpt lat="49.41442" lon="1.1362">
        <ele>156.1</ele>
        <time>2021-09-17T13:19:59Z</time>
      </trkpt>
      <trkpt lat="49.41449" lon="1.13609">
        <ele>155.8</ele>
        <time>2021-09-17T13:20:00Z</time>
      </trkpt>
      <trkpt lat="49.41464" lon="1.13587">
        <ele>155.5</ele>
        <time>2021-09-17T13:20:02Z</time>
      </trkpt>
      <trkpt lat="49.4148" lon="1.13565">
        <ele>155.3</ele>
        <time>2021-09-17T13:20:04Z</time>
      </trkpt>
      <trkpt lat="49.41488" lon="1.13554">
        <ele>155</ele>
        <time>2021-09-17T13:20:05Z</time>
      </trkpt>
      <trkpt lat="49.41504" lon="1.1353">
        <ele>154.7</ele>
        <time>2021-09-17T13:20:07Z</time>
      </trkpt>
      <trkpt lat="49.4152" lon="1.13507">
        <ele>154.5</ele>
        <time>2021-09-17T13:20:09Z</time>
      </trkpt>
      <trkpt lat="49.41528" lon="1.13495">
        <ele>154.3</ele>
        <time>2021-09-17T13:20:10Z</time>
      </trkpt>
      <trkpt lat="49.41544" lon="1.13473">
        <ele>154</ele>
        <time>2021-09-17T13:20:12Z</time>
      </trkpt>
      <trkpt lat="49.4156" lon="1.13453">
        <ele>153.7</ele>
        <time>2021-09-17T13:20:14Z</time>
      </trkpt>
      <trkpt lat="49.41569" lon="1.13443">
        <ele>153.5</ele>
        <time>2021-09-17T13:20:15Z</time>
      </trkpt>
      <trkpt lat="49.41586" lon="1.13422">
        <ele>153.4</ele>
        <time>2021-09-17T13:20:17Z</time>
      </trkpt>
      <trkpt lat="49.41594" lon="1.13411">
        <ele>153.2</ele>
        <time>2021-09-17T13:20:18Z</time>
      </trkpt>
      <trkpt lat="49.4161" lon="1.13389">
        <ele>152.9</ele>
        <time>2021-09-17T13:20:20Z</time>
      </trkpt>
      <trkpt lat="49.41627" lon="1.13368">
        <ele>152.6</ele>
        <time>2021-09-17T13:20:22Z</time>
      </trkpt>
      <trkpt lat="49.41636" lon="1.13358">
        <ele>152.4</ele>
        <time>2021-09-17T13:20:23Z</time>
      </trkpt>
      <trkpt lat="49.41654" lon="1.13337">
        <ele>152</ele>
        <time>2021-09-17T13:20:25Z</time>
      </trkpt>
      <trkpt lat="49.41662" lon="1.13326">
        <ele>151.7</ele>
        <time>2021-09-17T13:20:26Z</time>
      </trkpt>
      <trkpt lat="49.41678" lon="1.13303">
        <ele>151.4</ele>
        <time>2021-09-17T13:20:28Z</time>
      </trkpt>
      <trkpt lat="49.41695" lon="1.13281">
        <ele>151.1</ele>
        <time>2021-09-17T13:20:30Z</time>
      </trkpt>
      <trkpt lat="49.41703" lon="1.1327">
        <ele>150.9</ele>
        <time>2021-09-17T13:20:31Z</time>
      </trkpt>
      <trkpt lat="49.41711" lon="1.1326">
        <ele>150.7</ele>
        <time>2021-09-17T13:20:32Z</time>
      </trkpt>
      <trkpt lat="49.41726" lon="1.13238">
        <ele>150.5</ele>
        <time>2021-09-17T13:20:34Z</time>
      </trkpt>
      <trkpt lat="49.41734" lon="1.13226">
        <ele>150.4</ele>
        <time>2021-09-17T13:20:35Z</time>
      </trkpt>
      <trkpt lat="49.41742" lon="1.13214">
        <ele>150.2</ele>
        <time>2021-09-17T13:20:36Z</time>
      </trkpt>
      <trkpt lat="49.41749" lon="1.13203">
        <ele>150.1</ele>
        <time>2021-09-17T13:20:37Z</time>
      </trkpt>
      <trkpt lat="49.41764" lon="1.1318">
        <ele>150.1</ele>
        <time>2021-09-17T13:20:39Z</time>
      </trkpt>
      <trkpt lat="49.41779" lon="1.13158">
        <ele>150.2</ele>
        <time>2021-09-17T13:20:41Z</time>
      </trkpt>
      <trkpt lat="49.41787" lon="1.13147">
        <ele>150.2</ele>
        <time>2021-09-17T13:20:42Z</time>
      </trkpt>
      <trkpt lat="49.41802" lon="1.13125">
        <ele>150.3</ele>
        <time>2021-09-17T13:20:44Z</time>
      </trkpt>
      <trkpt lat="49.41817" lon="1.13105">
        <ele>150.4</ele>
        <time>2021-09-17T13:20:46Z</time>
      </trkpt>
      <trkpt lat="49.41832" lon="1.13085">
        <ele>150.4</ele>
        <time>2021-09-17T13:20:48Z</time>
      </trkpt>
      <trkpt lat="49.41847" lon="1.13065">
        <ele>150.5</ele>
        <time>2021-09-17T13:20:50Z</time>
      </trkpt>
      <trkpt lat="49.41855" lon="1.13055">
        <ele>150.6</ele>
        <time>2021-09-17T13:20:51Z</time>
      </trkpt>
      <trkpt lat="49.4187" lon="1.13035">
        <ele>150.8</ele>
        <time>2021-09-17T13:20:53Z</time>
      </trkpt>
      <trkpt lat="49.41878" lon="1.13025">
        <ele>151.2</ele>
        <time>2021-09-17T13:20:54Z</time>
      </trkpt>
      <trkpt lat="49.41893" lon="1.13004">
        <ele>151.4</ele>
        <time>2021-09-17T13:20:56Z</time>
      </trkpt>
      <trkpt lat="49.41901" lon="1.12994">
        <ele>151.5</ele>
        <time>2021-09-17T13:20:57Z</time>
      </trkpt>
      <trkpt lat="49.41917" lon="1.12974">
        <ele>151.6</ele>
        <time>2021-09-17T13:20:59Z</time>
      </trkpt>
      <trkpt lat="49.41931" lon="1.12953">
        <ele>151.8</ele>
        <time>2021-09-17T13:21:01Z</time>
      </trkpt>
      <trkpt lat="49.41938" lon="1.12943">
        <ele>152</ele>
        <time>2021-09-17T13:21:02Z</time>
      </trkpt>
      <trkpt lat="49.4195" lon="1.1292">
        <ele>152.2</ele>
        <time>2021-09-17T13:21:04Z</time>
      </trkpt>
      <trkpt lat="49.41957" lon="1.12908">
        <ele>152.4</ele>
        <time>2021-09-17T13:21:05Z</time>
      </trkpt>
      <trkpt lat="49.41964" lon="1.12896">
        <ele>152.5</ele>
        <time>2021-09-17T13:21:06Z</time>
      </trkpt>
      <trkpt lat="49.41979" lon="1.12878">
        <ele>152.5</ele>
        <time>2021-09-17T13:21:08Z</time>
      </trkpt>
      <trkpt lat="49.41987" lon="1.12867">
        <ele>152.5</ele>
        <time>2021-09-17T13:21:09Z</time>
      </trkpt>
      <trkpt lat="49.42002" lon="1.12847">
        <ele>152.4</ele>
        <time>2021-09-17T13:21:11Z</time>
      </trkpt>
      <trkpt lat="49.42019" lon="1.12828">
        <ele>152.4</ele>
        <time>2021-09-17T13:21:13Z</time>
      </trkpt>
      <trkpt lat="49.42036" lon="1.12813">
        <ele>152.4</ele>
        <time>2021-09-17T13:21:15Z</time>
      </trkpt>
      <trkpt lat="49.42044" lon="1.12806">
        <ele>152.3</ele>
        <time>2021-09-17T13:21:16Z</time>
      </trkpt>
      <trkpt lat="49.42052" lon="1.12798">
        <ele>152.2</ele>
        <time>2021-09-17T13:21:17Z</time>
      </trkpt>
      <trkpt lat="49.42069" lon="1.12783">
        <ele>152.1</ele>
        <time>2021-09-17T13:21:19Z</time>
      </trkpt>
      <trkpt lat="49.42077" lon="1.12774">
        <ele>152</ele>
        <time>2021-09-17T13:21:20Z</time>
      </trkpt>
      <trkpt lat="49.42085" lon="1.12766">
        <ele>152</ele>
        <time>2021-09-17T13:21:21Z</time>
      </trkpt>
      <trkpt lat="49.42102" lon="1.1275">
        <ele>151.9</ele>
        <time>2021-09-17T13:21:23Z</time>
      </trkpt>
      <trkpt lat="49.4211" lon="1.12742">
        <ele>151.8</ele>
        <time>2021-09-17T13:21:24Z</time>
      </trkpt>
      <trkpt lat="49.42126" lon="1.12725">
        <ele>151.6</ele>
        <time>2021-09-17T13:21:26Z</time>
      </trkpt>
      <trkpt lat="49.42142" lon="1.12708">
        <ele>151.5</ele>
        <time>2021-09-17T13:21:28Z</time>
      </trkpt>
      <trkpt lat="49.4215" lon="1.127">
        <ele>151.2</ele>
        <time>2021-09-17T13:21:29Z</time>
      </trkpt>
      <trkpt lat="49.42165" lon="1.12683">
        <ele>150.9</ele>
        <time>2021-09-17T13:21:31Z</time>
      </trkpt>
      <trkpt lat="49.42179" lon="1.12666">
        <ele>150.6</ele>
        <time>2021-09-17T13:21:33Z</time>
      </trkpt>
      <trkpt lat="49.42194" lon="1.12648">
        <ele>150.3</ele>
        <time>2021-09-17T13:21:35Z</time>
      </trkpt>
      <trkpt lat="49.42201" lon="1.12639">
        <ele>149.9</ele>
        <time>2021-09-17T13:21:36Z</time>
      </trkpt>
      <trkpt lat="49.42215" lon="1.12624">
        <ele>149.5</ele>
        <time>2021-09-17T13:21:38Z</time>
      </trkpt>
      <trkpt lat="49.42228" lon="1.12609">
        <ele>149.2</ele>
        <time>2021-09-17T13:21:40Z</time>
      </trkpt>
      <trkpt lat="49.42235" lon="1.12602">
        <ele>148.8</ele>
        <time>2021-09-17T13:21:41Z</time>
      </trkpt>
      <trkpt lat="49.42245" lon="1.1259">
        <ele>148.5</ele>
        <time>2021-09-17T13:21:43Z</time>
      </trkpt>
      <trkpt lat="49.42251" lon="1.12585">
        <ele>148.1</ele>
        <time>2021-09-17T13:21:44Z</time>
      </trkpt>
      <trkpt lat="49.42256" lon="1.1258">
        <ele>147.7</ele>
        <time>2021-09-17T13:21:45Z</time>
      </trkpt>
      <trkpt lat="49.42262" lon="1.12575">
        <ele>147.4</ele>
        <time>2021-09-17T13:21:46Z</time>
      </trkpt>
      <trkpt lat="49.42275" lon="1.12562">
        <ele>147</ele>
        <time>2021-09-17T13:21:48Z</time>
      </trkpt>
      <trkpt lat="49.42283" lon="1.12555">
        <ele>146.6</ele>
        <time>2021-09-17T13:21:49Z</time>
      </trkpt>
      <trkpt lat="49.42298" lon="1.1254">
        <ele>146.4</ele>
        <time>2021-09-17T13:21:51Z</time>
      </trkpt>
      <trkpt lat="49.42315" lon="1.12524">
        <ele>146.1</ele>
        <time>2021-09-17T13:21:53Z</time>
      </trkpt>
      <trkpt lat="49.42323" lon="1.12516">
        <ele>145.8</ele>
        <time>2021-09-17T13:21:54Z</time>
      </trkpt>
      <trkpt lat="49.42332" lon="1.12506">
        <ele>145.5</ele>
        <time>2021-09-17T13:21:55Z</time>
      </trkpt>
      <trkpt lat="49.4234" lon="1.12497">
        <ele>145.3</ele>
        <time>2021-09-17T13:21:56Z</time>
      </trkpt>
      <trkpt lat="49.42354" lon="1.12474">
        <ele>145.1</ele>
        <time>2021-09-17T13:21:58Z</time>
      </trkpt>
      <trkpt lat="49.4236" lon="1.1246">
        <ele>144.9</ele>
        <time>2021-09-17T13:21:59Z</time>
      </trkpt>
      <trkpt lat="49.42371" lon="1.12432">
        <ele>144.6</ele>
        <time>2021-09-17T13:22:01Z</time>
      </trkpt>
      <trkpt lat="49.42376" lon="1.12417">
        <ele>144.5</ele>
        <time>2021-09-17T13:22:02Z</time>
      </trkpt>
      <trkpt lat="49.42386" lon="1.12389">
        <ele>144.3</ele>
        <time>2021-09-17T13:22:04Z</time>
      </trkpt>
      <trkpt lat="49.42398" lon="1.1236">
        <ele>144</ele>
        <time>2021-09-17T13:22:06Z</time>
      </trkpt>
      <trkpt lat="49.4241" lon="1.1233">
        <ele>143.7</ele>
        <time>2021-09-17T13:22:08Z</time>
      </trkpt>
      <trkpt lat="49.42416" lon="1.12316">
        <ele>143.4</ele>
        <time>2021-09-17T13:22:09Z</time>
      </trkpt>
      <trkpt lat="49.42427" lon="1.12287">
        <ele>143</ele>
        <time>2021-09-17T13:22:11Z</time>
      </trkpt>
      <trkpt lat="49.42439" lon="1.12258">
        <ele>142.5</ele>
        <time>2021-09-17T13:22:13Z</time>
      </trkpt>
      <trkpt lat="49.42452" lon="1.12229">
        <ele>142</ele>
        <time>2021-09-17T13:22:15Z</time>
      </trkpt>
      <trkpt lat="49.42459" lon="1.12215">
        <ele>141.5</ele>
        <time>2021-09-17T13:22:16Z</time>
      </trkpt>
      <trkpt lat="49.42466" lon="1.12202">
        <ele>141</ele>
        <time>2021-09-17T13:22:17Z</time>
      </trkpt>
      <trkpt lat="49.42474" lon="1.12189">
        <ele>140.5</ele>
        <time>2021-09-17T13:22:18Z</time>
      </trkpt>
      <trkpt lat="49.42492" lon="1.12161">
        <ele>139.7</ele>
        <time>2021-09-17T13:22:20Z</time>
      </trkpt>
      <trkpt lat="49.42501" lon="1.12146">
        <ele>138.8</ele>
        <time>2021-09-17T13:22:21Z</time>
      </trkpt>
      <trkpt lat="49.4251" lon="1.1213">
        <ele>137.7</ele>
        <time>2021-09-17T13:22:22Z</time>
      </trkpt>
      <trkpt lat="49.42526" lon="1.12096">
        <ele>136.5</ele>
        <time>2021-09-17T13:22:24Z</time>
      </trkpt>
      <trkpt lat="49.42534" lon="1.12077">
        <ele>135.3</ele>
        <time>2021-09-17T13:22:25Z</time>
      </trkpt>
      <trkpt lat="49.42542" lon="1.12057">
        <ele>133.5</ele>
        <time>2021-09-17T13:22:26Z</time>
      </trkpt>
      <trkpt lat="49.42557" lon="1.12015">
        <ele>131.5</ele>
        <time>2021-09-17T13:22:28Z</time>
      </trkpt>
      <trkpt lat="49.42572" lon="1.11971">
        <ele>129.5</ele>
        <time>2021-09-17T13:22:30Z</time>
      </trkpt>
      <trkpt lat="49.42589" lon="1.11927">
        <ele>127.1</ele>
        <time>2021-09-17T13:22:32Z</time>
      </trkpt>
      <trkpt lat="49.42602" lon="1.11882">
        <ele>124.7</ele>
        <time>2021-09-17T13:22:34Z</time>
      </trkpt>
      <trkpt lat="49.42613" lon="1.11833">
        <ele>122.5</ele>
        <time>2021-09-17T13:22:36Z</time>
      </trkpt>
      <trkpt lat="49.42615" lon="1.11807">
        <ele>119.9</ele>
        <time>2021-09-17T13:22:37Z</time>
      </trkpt>
      <trkpt lat="49.42616" lon="1.11781">
        <ele>117.3</ele>
        <time>2021-09-17T13:22:38Z</time>
      </trkpt>
      <trkpt lat="49.42618" lon="1.11733">
        <ele>114.8</ele>
        <time>2021-09-17T13:22:40Z</time>
      </trkpt>
      <trkpt lat="49.42618" lon="1.11712">
        <ele>112.5</ele>
        <time>2021-09-17T13:22:41Z</time>
      </trkpt>
      <trkpt lat="49.42615" lon="1.11678">
        <ele>110.4</ele>
        <time>2021-09-17T13:22:43Z</time>
      </trkpt>
      <trkpt lat="49.42626" lon="1.11673">
        <ele>109.2</ele>
        <time>2021-09-17T13:22:45Z</time>
      </trkpt>
      <trkpt lat="49.42637" lon="1.11697">
        <ele>108.6</ele>
        <time>2021-09-17T13:22:47Z</time>
      </trkpt>
      <trkpt lat="49.42638" lon="1.11713">
        <ele>108.3</ele>
        <time>2021-09-17T13:22:48Z</time>
      </trkpt>
      <trkpt lat="49.42638" lon="1.11744">
        <ele>107.8</ele>
        <time>2021-09-17T13:22:50Z</time>
      </trkpt>
      <trkpt lat="49.42638" lon="1.11761">
        <ele>107.3</ele>
        <time>2021-09-17T13:22:51Z</time>
      </trkpt>
      <trkpt lat="49.42636" lon="1.11796">
        <ele>106.6</ele>
        <time>2021-09-17T13:22:53Z</time>
      </trkpt>
      <trkpt lat="49.42634" lon="1.11833">
        <ele>106.2</ele>
        <time>2021-09-17T13:22:55Z</time>
      </trkpt>
      <trkpt lat="49.42632" lon="1.11871">
        <ele>105.7</ele>
        <time>2021-09-17T13:22:57Z</time>
      </trkpt>
      <trkpt lat="49.4263" lon="1.1191">
        <ele>105</ele>
        <time>2021-09-17T13:22:59Z</time>
      </trkpt>
      <trkpt lat="49.4263" lon="1.11929">
        <ele>103.9</ele>
        <time>2021-09-17T13:23:00Z</time>
      </trkpt>
      <trkpt lat="49.42634" lon="1.11945">
        <ele>102.5</ele>
        <time>2021-09-17T13:23:01Z</time>
      </trkpt>
      <trkpt lat="49.42652" lon="1.11961">
        <ele>100.5</ele>
        <time>2021-09-17T13:23:03Z</time>
      </trkpt>
      <trkpt lat="49.42667" lon="1.1196">
        <ele>98</ele>
        <time>2021-09-17T13:23:04Z</time>
      </trkpt>
      <trkpt lat="49.42692" lon="1.11939">
        <ele>95.3</ele>
        <time>2021-09-17T13:23:06Z</time>
      </trkpt>
      <trkpt lat="49.42713" lon="1.11911">
        <ele>92.6</ele>
        <time>2021-09-17T13:23:08Z</time>
      </trkpt>
      <trkpt lat="49.42723" lon="1.11897">
        <ele>90</ele>
        <time>2021-09-17T13:23:09Z</time>
      </trkpt>
      <trkpt lat="49.42742" lon="1.11867">
        <ele>87.4</ele>
        <time>2021-09-17T13:23:11Z</time>
      </trkpt>
      <trkpt lat="49.42752" lon="1.11853">
        <ele>85</ele>
        <time>2021-09-17T13:23:12Z</time>
      </trkpt>
      <trkpt lat="49.42762" lon="1.11838">
        <ele>82.9</ele>
        <time>2021-09-17T13:23:13Z</time>
      </trkpt>
      <trkpt lat="49.42783" lon="1.1181">
        <ele>81.2</ele>
        <time>2021-09-17T13:23:15Z</time>
      </trkpt>
      <trkpt lat="49.42794" lon="1.11796">
        <ele>79.6</ele>
        <time>2021-09-17T13:23:16Z</time>
      </trkpt>
      <trkpt lat="49.42809" lon="1.11771">
        <ele>78</ele>
        <time>2021-09-17T13:23:18Z</time>
      </trkpt>
      <trkpt lat="49.42815" lon="1.11759">
        <ele>76.3</ele>
        <time>2021-09-17T13:23:19Z</time>
      </trkpt>
      <trkpt lat="49.42821" lon="1.11736">
        <ele>74.5</ele>
        <time>2021-09-17T13:23:21Z</time>
      </trkpt>
      <trkpt lat="49.42823" lon="1.11723">
        <ele>73</ele>
        <time>2021-09-17T13:23:22Z</time>
      </trkpt>
      <trkpt lat="49.42825" lon="1.11707">
        <ele>71.5</ele>
        <time>2021-09-17T13:23:23Z</time>
      </trkpt>
      <trkpt lat="49.42827" lon="1.11666">
        <ele>69.8</ele>
        <time>2021-09-17T13:23:25Z</time>
      </trkpt>
      <trkpt lat="49.42829" lon="1.11621">
        <ele>68.2</ele>
        <time>2021-09-17T13:23:27Z</time>
      </trkpt>
      <trkpt lat="49.42831" lon="1.11575">
        <ele>66.3</ele>
        <time>2021-09-17T13:23:29Z</time>
      </trkpt>
      <trkpt lat="49.42836" lon="1.11551">
        <ele>64.4</ele>
        <time>2021-09-17T13:23:30Z</time>
      </trkpt>
      <trkpt lat="49.42845" lon="1.11506">
        <ele>62.4</ele>
        <time>2021-09-17T13:23:32Z</time>
      </trkpt>
      <trkpt lat="49.42851" lon="1.11483">
        <ele>60.5</ele>
        <time>2021-09-17T13:23:33Z</time>
      </trkpt>
      <trkpt lat="49.42857" lon="1.11461">
        <ele>59</ele>
        <time>2021-09-17T13:23:34Z</time>
      </trkpt>
      <trkpt lat="49.42863" lon="1.1144">
        <ele>57.9</ele>
        <time>2021-09-17T13:23:35Z</time>
      </trkpt>
      <trkpt lat="49.42879" lon="1.11398">
        <ele>57</ele>
        <time>2021-09-17T13:23:37Z</time>
      </trkpt>
      <trkpt lat="49.42888" lon="1.11378">
        <ele>55.9</ele>
        <time>2021-09-17T13:23:38Z</time>
      </trkpt>
      <trkpt lat="49.42908" lon="1.11341">
        <ele>54.9</ele>
        <time>2021-09-17T13:23:40Z</time>
      </trkpt>
      <trkpt lat="49.42918" lon="1.11323">
        <ele>53.8</ele>
        <time>2021-09-17T13:23:41Z</time>
      </trkpt>
      <trkpt lat="49.42941" lon="1.11291">
        <ele>52.8</ele>
        <time>2021-09-17T13:23:43Z</time>
      </trkpt>
      <trkpt lat="49.42953" lon="1.11275">
        <ele>52</ele>
        <time>2021-09-17T13:23:44Z</time>
      </trkpt>
      <trkpt lat="49.42976" lon="1.11242">
        <ele>51.1</ele>
        <time>2021-09-17T13:23:46Z</time>
      </trkpt>
      <trkpt lat="49.42987" lon="1.11225">
        <ele>50.2</ele>
        <time>2021-09-17T13:23:47Z</time>
      </trkpt>
      <trkpt lat="49.4301" lon="1.11191">
        <ele>49.1</ele>
        <time>2021-09-17T13:23:49Z</time>
      </trkpt>
      <trkpt lat="49.43032" lon="1.11159">
        <ele>47.8</ele>
        <time>2021-09-17T13:23:51Z</time>
      </trkpt>
      <trkpt lat="49.43042" lon="1.11143">
        <ele>46.3</ele>
        <time>2021-09-17T13:23:52Z</time>
      </trkpt>
      <trkpt lat="49.43063" lon="1.11112">
        <ele>44.6</ele>
        <time>2021-09-17T13:23:54Z</time>
      </trkpt>
      <trkpt lat="49.43074" lon="1.11097">
        <ele>43.3</ele>
        <time>2021-09-17T13:23:55Z</time>
      </trkpt>
      <trkpt lat="49.43096" lon="1.1107">
        <ele>42.1</ele>
        <time>2021-09-17T13:23:57Z</time>
      </trkpt>
      <trkpt lat="49.43117" lon="1.1104">
        <ele>41.2</ele>
        <time>2021-09-17T13:23:59Z</time>
      </trkpt>
      <trkpt lat="49.43137" lon="1.11014">
        <ele>40.4</ele>
        <time>2021-09-17T13:24:01Z</time>
      </trkpt>
      <trkpt lat="49.43147" lon="1.11">
        <ele>39.5</ele>
        <time>2021-09-17T13:24:02Z</time>
      </trkpt>
      <trkpt lat="49.43167" lon="1.10973">
        <ele>38.7</ele>
        <time>2021-09-17T13:24:04Z</time>
      </trkpt>
      <trkpt lat="49.43186" lon="1.10946">
        <ele>38.1</ele>
        <time>2021-09-17T13:24:06Z</time>
      </trkpt>
      <trkpt lat="49.43196" lon="1.10932">
        <ele>37.5</ele>
        <time>2021-09-17T13:24:07Z</time>
      </trkpt>
      <trkpt lat="49.43215" lon="1.10907">
        <ele>37.1</ele>
        <time>2021-09-17T13:24:09Z</time>
      </trkpt>
      <trkpt lat="49.43234" lon="1.10883">
        <ele>36.8</ele>
        <time>2021-09-17T13:24:11Z</time>
      </trkpt>
      <trkpt lat="49.43243" lon="1.10872">
        <ele>36.5</ele>
        <time>2021-09-17T13:24:12Z</time>
      </trkpt>
      <trkpt lat="49.43253" lon="1.10861">
        <ele>36.2</ele>
        <time>2021-09-17T13:24:13Z</time>
      </trkpt>
      <trkpt lat="49.43271" lon="1.10838">
        <ele>35.7</ele>
        <time>2021-09-17T13:24:15Z</time>
      </trkpt>
      <trkpt lat="49.4328" lon="1.10826">
        <ele>35.3</ele>
        <time>2021-09-17T13:24:16Z</time>
      </trkpt>
      <trkpt lat="49.43298" lon="1.10803">
        <ele>34.8</ele>
        <time>2021-09-17T13:24:18Z</time>
      </trkpt>
      <trkpt lat="49.43307" lon="1.10791">
        <ele>34.5</ele>
        <time>2021-09-17T13:24:19Z</time>
      </trkpt>
      <trkpt lat="49.43327" lon="1.1077">
        <ele>34</ele>
        <time>2021-09-17T13:24:21Z</time>
      </trkpt>
      <trkpt lat="49.43348" lon="1.1075">
        <ele>33.4</ele>
        <time>2021-09-17T13:24:23Z</time>
      </trkpt>
      <trkpt lat="49.43369" lon="1.10728">
        <ele>32.5</ele>
        <time>2021-09-17T13:24:25Z</time>
      </trkpt>
      <trkpt lat="49.43379" lon="1.10717">
        <ele>31.4</ele>
        <time>2021-09-17T13:24:26Z</time>
      </trkpt>
      <trkpt lat="49.43389" lon="1.10706">
        <ele>30.2</ele>
        <time>2021-09-17T13:24:27Z</time>
      </trkpt>
      <trkpt lat="49.43409" lon="1.10685">
        <ele>28.9</ele>
        <time>2021-09-17T13:24:29Z</time>
      </trkpt>
      <trkpt lat="49.43419" lon="1.10674">
        <ele>27.4</ele>
        <time>2021-09-17T13:24:30Z</time>
      </trkpt>
      <trkpt lat="49.43439" lon="1.10654">
        <ele>25.8</ele>
        <time>2021-09-17T13:24:32Z</time>
      </trkpt>
      <trkpt lat="49.43458" lon="1.10635">
        <ele>24.2</ele>
        <time>2021-09-17T13:24:34Z</time>
      </trkpt>
      <trkpt lat="49.43467" lon="1.10626">
        <ele>22.5</ele>
        <time>2021-09-17T13:24:35Z</time>
      </trkpt>
      <trkpt lat="49.43476" lon="1.10617">
        <ele>20.9</ele>
        <time>2021-09-17T13:24:36Z</time>
      </trkpt>
      <trkpt lat="49.43493" lon="1.10597">
        <ele>19.3</ele>
        <time>2021-09-17T13:24:38Z</time>
      </trkpt>
      <trkpt lat="49.435" lon="1.10583">
        <ele>17.7</ele>
        <time>2021-09-17T13:24:39Z</time>
      </trkpt>
      <trkpt lat="49.43507" lon="1.1057">
        <ele>16.5</ele>
        <time>2021-09-17T13:24:40Z</time>
      </trkpt>
      <trkpt lat="49.43513" lon="1.10556">
        <ele>15.5</ele>
        <time>2021-09-17T13:24:41Z</time>
      </trkpt>
      <trkpt lat="49.43523" lon="1.10524">
        <ele>14.5</ele>
        <time>2021-09-17T13:24:43Z</time>
      </trkpt>
      <trkpt lat="49.43526" lon="1.10484">
        <ele>13.8</ele>
        <time>2021-09-17T13:24:45Z</time>
      </trkpt>
      <trkpt lat="49.43529" lon="1.10464">
        <ele>13.3</ele>
        <time>2021-09-17T13:24:46Z</time>
      </trkpt>
      <trkpt lat="49.43534" lon="1.10424">
        <ele>12.8</ele>
        <time>2021-09-17T13:24:48Z</time>
      </trkpt>
      <trkpt lat="49.43537" lon="1.10405">
        <ele>12.5</ele>
        <time>2021-09-17T13:24:49Z</time>
      </trkpt>
      <trkpt lat="49.43546" lon="1.10368">
        <ele>12.1</ele>
        <time>2021-09-17T13:24:51Z</time>
      </trkpt>
      <trkpt lat="49.43551" lon="1.1035">
        <ele>11.6</ele>
        <time>2021-09-17T13:24:52Z</time>
      </trkpt>
      <trkpt lat="49.43562" lon="1.10315">
        <ele>11.4</ele>
        <time>2021-09-17T13:24:54Z</time>
      </trkpt>
      <trkpt lat="49.43568" lon="1.10297">
        <ele>11</ele>
        <time>2021-09-17T13:24:55Z</time>
      </trkpt>
      <trkpt lat="49.43573" lon="1.1028">
        <ele>10.7</ele>
        <time>2021-09-17T13:24:56Z</time>
      </trkpt>
      <trkpt lat="49.43582" lon="1.10246">
        <ele>10.5</ele>
        <time>2021-09-17T13:24:58Z</time>
      </trkpt>
      <trkpt lat="49.43592" lon="1.10214">
        <ele>10.2</ele>
        <time>2021-09-17T13:25:00Z</time>
      </trkpt>
      <trkpt lat="49.43599" lon="1.10185">
        <ele>9.9</ele>
        <time>2021-09-17T13:25:02Z</time>
      </trkpt>
      <trkpt lat="49.43606" lon="1.10162">
        <ele>9.7</ele>
        <time>2021-09-17T13:25:04Z</time>
      </trkpt>
      <trkpt lat="49.43613" lon="1.10144">
        <ele>9.5</ele>
        <time>2021-09-17T13:25:06Z</time>
      </trkpt>
      <trkpt lat="49.43618" lon="1.10126">
        <ele>9.4</ele>
        <time>2021-09-17T13:25:08Z</time>
      </trkpt>
      <trkpt lat="49.43622" lon="1.10116">
        <ele>9.2</ele>
        <time>2021-09-17T13:25:09Z</time>
      </trkpt>
      <trkpt lat="49.43629" lon="1.10098">
        <ele>9.1</ele>
        <time>2021-09-17T13:25:11Z</time>
      </trkpt>
      <trkpt lat="49.4363" lon="1.10095">
        <ele>9</ele>
        <time>2021-09-17T13:25:12Z</time>
      </trkpt>
      <trkpt lat="49.43629" lon="1.10098">
        <ele>9</ele>
        <time>2021-09-17T13:25:14Z</time>
      </trkpt>
      <trkpt lat="49.43629" lon="1.10099">
        <ele>9</ele>
        <time>2021-09-17T13:25:16Z</time>
      </trkpt>
      <trkpt lat="49.43628" lon="1.10099">
        <ele>9</ele>
        <time>2021-09-17T13:25:18Z</time>
      </trkpt>
      <trkpt lat="49.4363" lon="1.10096">
        <ele>9</ele>
        <time>2021-09-17T13:25:20Z</time>
      </trkpt>
      <trkpt lat="49.4363" lon="1.10094">
        <ele>9</ele>
        <time>2021-09-17T13:25:21Z</time>
      </trkpt>
      <trkpt lat="49.4363" lon="1.10093">
        <ele>9.3</ele>
        <time>2021-09-17T13:25:23Z</time>
      </trkpt>
      <trkpt lat="49.4363" lon="1.10093">
        <ele>9.4</ele>
        <time>2021-09-17T13:25:23Z</time>
      </trkpt>
      <trkpt lat="49.4363" lon="1.10093">
        <ele>9.5</ele>
        <time>2021-09-17T13:25:24Z</time>
      </trkpt>
      <trkpt lat="49.43631" lon="1.10091">
        <ele>9.6</ele>
        <time>2021-09-17T13:25:25Z</time>
      </trkpt>
      <trkpt lat="49.43637" lon="1.10075">
        <ele>9.6</ele>
        <time>2021-09-17T13:25:28Z</time>
      </trkpt>
      <trkpt lat="49.43639" lon="1.10067">
        <ele>9.6</ele>
        <time>2021-09-17T13:25:29Z</time>
      </trkpt>
      <trkpt lat="49.4364" lon="1.10059">
        <ele>9.8</ele>
        <time>2021-09-17T13:25:30Z</time>
      </trkpt>
      <trkpt lat="49.43642" lon="1.1005">
        <ele>10</ele>
        <time>2021-09-17T13:25:31Z</time>
      </trkpt>
      <trkpt lat="49.43645" lon="1.10029">
        <ele>10.2</ele>
        <time>2021-09-17T13:25:33Z</time>
      </trkpt>
      <trkpt lat="49.43647" lon="1.10019">
        <ele>10.3</ele>
        <time>2021-09-17T13:25:34Z</time>
      </trkpt>
      <trkpt lat="49.43649" lon="1.10008">
        <ele>10.3</ele>
        <time>2021-09-17T13:25:35Z</time>
      </trkpt>
      <trkpt lat="49.43655" lon="1.09985">
        <ele>10.3</ele>
        <time>2021-09-17T13:25:37Z</time>
      </trkpt>
      <trkpt lat="49.43658" lon="1.09973">
        <ele>10.2</ele>
        <time>2021-09-17T13:25:38Z</time>
      </trkpt>
      <trkpt lat="49.43663" lon="1.09948">
        <ele>10.1</ele>
        <time>2021-09-17T13:25:40Z</time>
      </trkpt>
      <trkpt lat="49.43667" lon="1.09925">
        <ele>10</ele>
        <time>2021-09-17T13:25:42Z</time>
      </trkpt>
      <trkpt lat="49.4367" lon="1.09913">
        <ele>10</ele>
        <time>2021-09-17T13:25:43Z</time>
      </trkpt>
      <trkpt lat="49.43673" lon="1.09901">
        <ele>10.2</ele>
        <time>2021-09-17T13:25:44Z</time>
      </trkpt>
      <trkpt lat="49.43678" lon="1.09877">
        <ele>10.4</ele>
        <time>2021-09-17T13:25:46Z</time>
      </trkpt>
      <trkpt lat="49.43681" lon="1.09865">
        <ele>10.5</ele>
        <time>2021-09-17T13:25:47Z</time>
      </trkpt>
      <trkpt lat="49.43683" lon="1.09853">
        <ele>10.7</ele>
        <time>2021-09-17T13:25:48Z</time>
      </trkpt>
      <trkpt lat="49.43689" lon="1.09828">
        <ele>11</ele>
        <time>2021-09-17T13:25:50Z</time>
      </trkpt>
      <trkpt lat="49.43694" lon="1.09804">
        <ele>11.3</ele>
        <time>2021-09-17T13:25:52Z</time>
      </trkpt>
      <trkpt lat="49.43699" lon="1.09781">
        <ele>11.5</ele>
        <time>2021-09-17T13:25:54Z</time>
      </trkpt>
      <trkpt lat="49.43704" lon="1.09758">
        <ele>11.9</ele>
        <time>2021-09-17T13:25:56Z</time>
      </trkpt>
      <trkpt lat="49.43707" lon="1.09746">
        <ele>12.3</ele>
        <time>2021-09-17T13:25:57Z</time>
      </trkpt>
      <trkpt lat="49.43709" lon="1.09734">
        <ele>12.6</ele>
        <time>2021-09-17T13:25:58Z</time>
      </trkpt>
      <trkpt lat="49.43715" lon="1.09711">
        <ele>12.8</ele>
        <time>2021-09-17T13:26:00Z</time>
      </trkpt>
      <trkpt lat="49.43719" lon="1.09689">
        <ele>12.8</ele>
        <time>2021-09-17T13:26:02Z</time>
      </trkpt>
      <trkpt lat="49.43722" lon="1.09679">
        <ele>12.7</ele>
        <time>2021-09-17T13:26:03Z</time>
      </trkpt>
      <trkpt lat="49.43725" lon="1.0966">
        <ele>12.6</ele>
        <time>2021-09-17T13:26:05Z</time>
      </trkpt>
      <trkpt lat="49.43726" lon="1.09651">
        <ele>12.5</ele>
        <time>2021-09-17T13:26:06Z</time>
      </trkpt>
      <trkpt lat="49.43727" lon="1.09645">
        <ele>12.5</ele>
        <time>2021-09-17T13:26:07Z</time>
      </trkpt>
      <trkpt lat="49.43727" lon="1.09642">
        <ele>12.5</ele>
        <time>2021-09-17T13:26:08Z</time>
      </trkpt>
      <trkpt lat="49.43728" lon="1.09639">
        <ele>12.5</ele>
        <time>2021-09-17T13:26:09Z</time>
      </trkpt>
      <trkpt lat="49.43729" lon="1.09637">
        <ele>12.7</ele>
        <time>2021-09-17T13:26:11Z</time>
      </trkpt>
      <trkpt lat="49.43729" lon="1.09637">
        <ele>13</ele>
        <time>2021-09-17T13:26:12Z</time>
      </trkpt>
      <trkpt lat="49.4373" lon="1.09635">
        <ele>13.4</ele>
        <time>2021-09-17T13:26:14Z</time>
      </trkpt>
      <trkpt lat="49.43733" lon="1.09632">
        <ele>13.8</ele>
        <time>2021-09-17T13:26:16Z</time>
      </trkpt>
      <trkpt lat="49.43737" lon="1.09633">
        <ele>14.3</ele>
        <time>2021-09-17T13:26:18Z</time>
      </trkpt>
      <trkpt lat="49.43741" lon="1.09635">
        <ele>14.7</ele>
        <time>2021-09-17T13:26:19Z</time>
      </trkpt>
      <trkpt lat="49.43746" lon="1.09637">
        <ele>15.2</ele>
        <time>2021-09-17T13:26:20Z</time>
      </trkpt>
      <trkpt lat="49.43751" lon="1.0964">
        <ele>15.6</ele>
        <time>2021-09-17T13:26:22Z</time>
      </trkpt>
      <trkpt lat="49.4376" lon="1.09647">
        <ele>16</ele>
        <time>2021-09-17T13:26:23Z</time>
      </trkpt>
      <trkpt lat="49.43765" lon="1.0965">
        <ele>16.3</ele>
        <time>2021-09-17T13:26:24Z</time>
      </trkpt>
      <trkpt lat="49.43771" lon="1.09651">
        <ele>16.5</ele>
        <time>2021-09-17T13:26:25Z</time>
      </trkpt>
      <trkpt lat="49.43776" lon="1.0965">
        <ele>16.5</ele>
        <time>2021-09-17T13:26:26Z</time>
      </trkpt>
      <trkpt lat="49.43787" lon="1.09652">
        <ele>16.5</ele>
        <time>2021-09-17T13:26:28Z</time>
      </trkpt>
      <trkpt lat="49.43797" lon="1.09655">
        <ele>16.5</ele>
        <time>2021-09-17T13:26:30Z</time>
      </trkpt>
      <trkpt lat="49.43801" lon="1.09656">
        <ele>16.4</ele>
        <time>2021-09-17T13:26:31Z</time>
      </trkpt>
      <trkpt lat="49.43803" lon="1.09655">
        <ele>16.3</ele>
        <time>2021-09-17T13:26:32Z</time>
      </trkpt>
      <trkpt lat="49.43804" lon="1.09655">
        <ele>16.2</ele>
        <time>2021-09-17T13:26:33Z</time>
      </trkpt>
      <trkpt lat="49.43806" lon="1.09655">
        <ele>16.1</ele>
        <time>2021-09-17T13:26:35Z</time>
      </trkpt>
      <trkpt lat="49.43808" lon="1.09656">
        <ele>15.9</ele>
        <time>2021-09-17T13:26:36Z</time>
      </trkpt>
      <trkpt lat="49.43808" lon="1.09656">
        <ele>15.8</ele>
        <time>2021-09-17T13:26:38Z</time>
      </trkpt>
      <trkpt lat="49.43808" lon="1.09655">
        <ele>15.6</ele>
        <time>2021-09-17T13:26:39Z</time>
      </trkpt>
      <trkpt lat="49.4381" lon="1.09655">
        <ele>15.5</ele>
        <time>2021-09-17T13:26:41Z</time>
      </trkpt>
      <trkpt lat="49.43814" lon="1.09657">
        <ele>15.3</ele>
        <time>2021-09-17T13:26:42Z</time>
      </trkpt>
      <trkpt lat="49.43819" lon="1.09659">
        <ele>15.1</ele>
        <time>2021-09-17T13:26:43Z</time>
      </trkpt>
      <trkpt lat="49.43832" lon="1.09665">
        <ele>14.9</ele>
        <time>2021-09-17T13:26:45Z</time>
      </trkpt>
      <trkpt lat="49.43849" lon="1.09673">
        <ele>14.8</ele>
        <time>2021-09-17T13:26:47Z</time>
      </trkpt>
      <trkpt lat="49.43859" lon="1.09676">
        <ele>14.9</ele>
        <time>2021-09-17T13:26:48Z</time>
      </trkpt>
      <trkpt lat="49.43877" lon="1.09684">
        <ele>15.1</ele>
        <time>2021-09-17T13:26:50Z</time>
      </trkpt>
      <trkpt lat="49.43885" lon="1.09688">
        <ele>15.4</ele>
        <time>2021-09-17T13:26:51Z</time>
      </trkpt>
      <trkpt lat="49.43893" lon="1.09691">
        <ele>15.7</ele>
        <time>2021-09-17T13:26:52Z</time>
      </trkpt>
      <trkpt lat="49.43907" lon="1.09698">
        <ele>16.1</ele>
        <time>2021-09-17T13:26:54Z</time>
      </trkpt>
      <trkpt lat="49.43922" lon="1.09703">
        <ele>16.5</ele>
        <time>2021-09-17T13:26:56Z</time>
      </trkpt>
      <trkpt lat="49.43936" lon="1.09707">
        <ele>17</ele>
        <time>2021-09-17T13:26:58Z</time>
      </trkpt>
      <trkpt lat="49.43949" lon="1.09711">
        <ele>17.5</ele>
        <time>2021-09-17T13:27:00Z</time>
      </trkpt>
      <trkpt lat="49.43962" lon="1.09717">
        <ele>17.9</ele>
        <time>2021-09-17T13:27:02Z</time>
      </trkpt>
      <trkpt lat="49.43968" lon="1.0972">
        <ele>18.4</ele>
        <time>2021-09-17T13:27:03Z</time>
      </trkpt>
      <trkpt lat="49.43982" lon="1.09726">
        <ele>18.7</ele>
        <time>2021-09-17T13:27:05Z</time>
      </trkpt>
      <trkpt lat="49.43995" lon="1.09734">
        <ele>18.9</ele>
        <time>2021-09-17T13:27:07Z</time>
      </trkpt>
      <trkpt lat="49.44001" lon="1.09738">
        <ele>18.9</ele>
        <time>2021-09-17T13:27:08Z</time>
      </trkpt>
      <trkpt lat="49.44014" lon="1.09742">
        <ele>18.8</ele>
        <time>2021-09-17T13:27:10Z</time>
      </trkpt>
      <trkpt lat="49.4402" lon="1.09743">
        <ele>18.7</ele>
        <time>2021-09-17T13:27:11Z</time>
      </trkpt>
      <trkpt lat="49.44027" lon="1.09745">
        <ele>18.6</ele>
        <time>2021-09-17T13:27:12Z</time>
      </trkpt>
      <trkpt lat="49.44039" lon="1.09749">
        <ele>18.6</ele>
        <time>2021-09-17T13:27:14Z</time>
      </trkpt>
      <trkpt lat="49.44052" lon="1.09755">
        <ele>18.6</ele>
        <time>2021-09-17T13:27:16Z</time>
      </trkpt>
      <trkpt lat="49.44064" lon="1.09761">
        <ele>18.7</ele>
        <time>2021-09-17T13:27:18Z</time>
      </trkpt>
      <trkpt lat="49.44071" lon="1.09764">
        <ele>18.9</ele>
        <time>2021-09-17T13:27:19Z</time>
      </trkpt>
      <trkpt lat="49.44083" lon="1.09771">
        <ele>19.1</ele>
        <time>2021-09-17T13:27:21Z</time>
      </trkpt>
      <trkpt lat="49.4409" lon="1.09774">
        <ele>19.3</ele>
        <time>2021-09-17T13:27:22Z</time>
      </trkpt>
      <trkpt lat="49.44102" lon="1.09781">
        <ele>19.5</ele>
        <time>2021-09-17T13:27:24Z</time>
      </trkpt>
      <trkpt lat="49.44115" lon="1.09788">
        <ele>19.7</ele>
        <time>2021-09-17T13:27:26Z</time>
      </trkpt>
      <trkpt lat="49.44122" lon="1.0979">
        <ele>19.9</ele>
        <time>2021-09-17T13:27:27Z</time>
      </trkpt>
      <trkpt lat="49.44129" lon="1.09792">
        <ele>20.1</ele>
        <time>2021-09-17T13:27:28Z</time>
      </trkpt>
      <trkpt lat="49.44142" lon="1.09797">
        <ele>20.3</ele>
        <time>2021-09-17T13:27:30Z</time>
      </trkpt>
      <trkpt lat="49.44154" lon="1.09803">
        <ele>20.3</ele>
        <time>2021-09-17T13:27:32Z</time>
      </trkpt>
      <trkpt lat="49.44168" lon="1.09806">
        <ele>20.3</ele>
        <time>2021-09-17T13:27:34Z</time>
      </trkpt>
      <trkpt lat="49.4418" lon="1.09811">
        <ele>20.2</ele>
        <time>2021-09-17T13:27:36Z</time>
      </trkpt>
      <trkpt lat="49.44193" lon="1.09818">
        <ele>20</ele>
        <time>2021-09-17T13:27:38Z</time>
      </trkpt>
      <trkpt lat="49.44206" lon="1.09824">
        <ele>19.7</ele>
        <time>2021-09-17T13:27:40Z</time>
      </trkpt>
      <trkpt lat="49.44218" lon="1.0983">
        <ele>19.5</ele>
        <time>2021-09-17T13:27:42Z</time>
      </trkpt>
      <trkpt lat="49.44231" lon="1.09835">
        <ele>19.2</ele>
        <time>2021-09-17T13:27:44Z</time>
      </trkpt>
      <trkpt lat="49.44244" lon="1.09841">
        <ele>19</ele>
        <time>2021-09-17T13:27:46Z</time>
      </trkpt>
      <trkpt lat="49.44251" lon="1.09845">
        <ele>18.9</ele>
        <time>2021-09-17T13:27:47Z</time>
      </trkpt>
      <trkpt lat="49.44265" lon="1.0985">
        <ele>18.8</ele>
        <time>2021-09-17T13:27:49Z</time>
      </trkpt>
      <trkpt lat="49.44279" lon="1.09854">
        <ele>18.8</ele>
        <time>2021-09-17T13:27:51Z</time>
      </trkpt>
      <trkpt lat="49.44289" lon="1.09857">
        <ele>19</ele>
        <time>2021-09-17T13:27:53Z</time>
      </trkpt>
      <trkpt lat="49.44293" lon="1.09856">
        <ele>19.2</ele>
        <time>2021-09-17T13:27:54Z</time>
      </trkpt>
      <trkpt lat="49.44304" lon="1.09859">
        <ele>19.5</ele>
        <time>2021-09-17T13:27:56Z</time>
      </trkpt>
      <trkpt lat="49.44309" lon="1.09864">
        <ele>19.7</ele>
        <time>2021-09-17T13:27:57Z</time>
      </trkpt>
      <trkpt lat="49.44321" lon="1.09868">
        <ele>20.2</ele>
        <time>2021-09-17T13:27:59Z</time>
      </trkpt>
      <trkpt lat="49.44328" lon="1.09868">
        <ele>20.6</ele>
        <time>2021-09-17T13:28:00Z</time>
      </trkpt>
      <trkpt lat="49.44334" lon="1.09867">
        <ele>21.2</ele>
        <time>2021-09-17T13:28:01Z</time>
      </trkpt>
      <trkpt lat="49.4434" lon="1.09866">
        <ele>21.6</ele>
        <time>2021-09-17T13:28:02Z</time>
      </trkpt>
      <trkpt lat="49.44345" lon="1.09862">
        <ele>22.1</ele>
        <time>2021-09-17T13:28:03Z</time>
      </trkpt>
      <trkpt lat="49.44349" lon="1.09853">
        <ele>22.6</ele>
        <time>2021-09-17T13:28:05Z</time>
      </trkpt>
      <trkpt lat="49.4435" lon="1.09847">
        <ele>23.1</ele>
        <time>2021-09-17T13:28:07Z</time>
      </trkpt>
      <trkpt lat="49.44351" lon="1.09843">
        <ele>23.5</ele>
        <time>2021-09-17T13:28:08Z</time>
      </trkpt>
      <trkpt lat="49.44352" lon="1.09836">
        <ele>23.8</ele>
        <time>2021-09-17T13:28:09Z</time>
      </trkpt>
      <trkpt lat="49.44355" lon="1.09821">
        <ele>24.1</ele>
        <time>2021-09-17T13:28:11Z</time>
      </trkpt>
      <trkpt lat="49.44358" lon="1.09812">
        <ele>24.5</ele>
        <time>2021-09-17T13:28:12Z</time>
      </trkpt>
      <trkpt lat="49.44363" lon="1.09791">
        <ele>24.8</ele>
        <time>2021-09-17T13:28:14Z</time>
      </trkpt>
      <trkpt lat="49.44366" lon="1.09781">
        <ele>25.3</ele>
        <time>2021-09-17T13:28:15Z</time>
      </trkpt>
      <trkpt lat="49.44369" lon="1.0977">
        <ele>25.6</ele>
        <time>2021-09-17T13:28:16Z</time>
      </trkpt>
      <trkpt lat="49.44373" lon="1.09747">
        <ele>26</ele>
        <time>2021-09-17T13:28:18Z</time>
      </trkpt>
      <trkpt lat="49.44378" lon="1.09725">
        <ele>26.4</ele>
        <time>2021-09-17T13:28:20Z</time>
      </trkpt>
      <trkpt lat="49.44382" lon="1.09703">
        <ele>26.5</ele>
        <time>2021-09-17T13:28:22Z</time>
      </trkpt>
      <trkpt lat="49.44384" lon="1.09682">
        <ele>26.7</ele>
        <time>2021-09-17T13:28:24Z</time>
      </trkpt>
      <trkpt lat="49.44386" lon="1.09671">
        <ele>26.8</ele>
        <time>2021-09-17T13:28:25Z</time>
      </trkpt>
      <trkpt lat="49.44388" lon="1.0966">
        <ele>26.9</ele>
        <time>2021-09-17T13:28:26Z</time>
      </trkpt>
      <trkpt lat="49.4439" lon="1.09638">
        <ele>27</ele>
        <time>2021-09-17T13:28:28Z</time>
      </trkpt>
      <trkpt lat="49.44394" lon="1.09618">
        <ele>27.1</ele>
        <time>2021-09-17T13:28:30Z</time>
      </trkpt>
      <trkpt lat="49.44395" lon="1.09607">
        <ele>27.1</ele>
        <time>2021-09-17T13:28:31Z</time>
      </trkpt>
      <trkpt lat="49.44398" lon="1.09586">
        <ele>27</ele>
        <time>2021-09-17T13:28:33Z</time>
      </trkpt>
      <trkpt lat="49.44399" lon="1.09575">
        <ele>26.9</ele>
        <time>2021-09-17T13:28:34Z</time>
      </trkpt>
      <trkpt lat="49.44403" lon="1.09554">
        <ele>26.8</ele>
        <time>2021-09-17T13:28:36Z</time>
      </trkpt>
      <trkpt lat="49.44405" lon="1.09542">
        <ele>26.7</ele>
        <time>2021-09-17T13:28:37Z</time>
      </trkpt>
      <trkpt lat="49.44409" lon="1.0952">
        <ele>26.7</ele>
        <time>2021-09-17T13:28:39Z</time>
      </trkpt>
      <trkpt lat="49.44415" lon="1.09498">
        <ele>26.7</ele>
        <time>2021-09-17T13:28:41Z</time>
      </trkpt>
      <trkpt lat="49.4442" lon="1.09477">
        <ele>26.8</ele>
        <time>2021-09-17T13:28:43Z</time>
      </trkpt>
      <trkpt lat="49.44423" lon="1.09465">
        <ele>26.8</ele>
        <time>2021-09-17T13:28:44Z</time>
      </trkpt>
      <trkpt lat="49.44426" lon="1.09454">
        <ele>26.8</ele>
        <time>2021-09-17T13:28:45Z</time>
      </trkpt>
      <trkpt lat="49.44428" lon="1.09442">
        <ele>26.7</ele>
        <time>2021-09-17T13:28:46Z</time>
      </trkpt>
      <trkpt lat="49.44432" lon="1.09419">
        <ele>26.6</ele>
        <time>2021-09-17T13:28:48Z</time>
      </trkpt>
      <trkpt lat="49.44434" lon="1.09407">
        <ele>26.5</ele>
        <time>2021-09-17T13:28:49Z</time>
      </trkpt>
      <trkpt lat="49.44435" lon="1.09395">
        <ele>26.5</ele>
        <time>2021-09-17T13:28:50Z</time>
      </trkpt>
      <trkpt lat="49.44436" lon="1.09384">
        <ele>26.4</ele>
        <time>2021-09-17T13:28:51Z</time>
      </trkpt>
      <trkpt lat="49.4444" lon="1.09361">
        <ele>26.3</ele>
        <time>2021-09-17T13:28:53Z</time>
      </trkpt>
      <trkpt lat="49.44443" lon="1.0935">
        <ele>26.3</ele>
        <time>2021-09-17T13:28:54Z</time>
      </trkpt>
      <trkpt lat="49.44445" lon="1.09339">
        <ele>26.3</ele>
        <time>2021-09-17T13:28:55Z</time>
      </trkpt>
      <trkpt lat="49.44447" lon="1.09327">
        <ele>26.3</ele>
        <time>2021-09-17T13:28:56Z</time>
      </trkpt>
      <trkpt lat="49.44448" lon="1.09316">
        <ele>26.4</ele>
        <time>2021-09-17T13:28:57Z</time>
      </trkpt>
      <trkpt lat="49.4445" lon="1.09294">
        <ele>26.5</ele>
        <time>2021-09-17T13:28:59Z</time>
      </trkpt>
      <trkpt lat="49.44452" lon="1.09274">
        <ele>26.5</ele>
        <time>2021-09-17T13:29:01Z</time>
      </trkpt>
      <trkpt lat="49.44452" lon="1.09263">
        <ele>26.6</ele>
        <time>2021-09-17T13:29:02Z</time>
      </trkpt>
      <trkpt lat="49.44451" lon="1.09253">
        <ele>26.7</ele>
        <time>2021-09-17T13:29:03Z</time>
      </trkpt>
      <trkpt lat="49.44452" lon="1.09238">
        <ele>26.8</ele>
        <time>2021-09-17T13:29:05Z</time>
      </trkpt>
      <trkpt lat="49.44462" lon="1.09229">
        <ele>27</ele>
        <time>2021-09-17T13:29:07Z</time>
      </trkpt>
      <trkpt lat="49.44468" lon="1.09228">
        <ele>27.3</ele>
        <time>2021-09-17T13:29:08Z</time>
      </trkpt>
      <trkpt lat="49.44481" lon="1.09235">
        <ele>27.5</ele>
        <time>2021-09-17T13:29:10Z</time>
      </trkpt>
      <trkpt lat="49.44488" lon="1.0924">
        <ele>27.8</ele>
        <time>2021-09-17T13:29:11Z</time>
      </trkpt>
      <trkpt lat="49.44501" lon="1.09246">
        <ele>28.2</ele>
        <time>2021-09-17T13:29:13Z</time>
      </trkpt>
      <trkpt lat="49.44515" lon="1.09251">
        <ele>28.6</ele>
        <time>2021-09-17T13:29:15Z</time>
      </trkpt>
      <trkpt lat="49.44522" lon="1.09253">
        <ele>29.1</ele>
        <time>2021-09-17T13:29:16Z</time>
      </trkpt>
      <trkpt lat="49.44528" lon="1.09257">
        <ele>29.5</ele>
        <time>2021-09-17T13:29:17Z</time>
      </trkpt>
      <trkpt lat="49.44538" lon="1.09264">
        <ele>30.1</ele>
        <time>2021-09-17T13:29:19Z</time>
      </trkpt>
      <trkpt lat="49.44547" lon="1.09269">
        <ele>30.5</ele>
        <time>2021-09-17T13:29:21Z</time>
      </trkpt>
      <trkpt lat="49.44557" lon="1.09275">
        <ele>31</ele>
        <time>2021-09-17T13:29:23Z</time>
      </trkpt>
      <trkpt lat="49.44562" lon="1.09278">
        <ele>31.4</ele>
        <time>2021-09-17T13:29:24Z</time>
      </trkpt>
      <trkpt lat="49.44573" lon="1.09284">
        <ele>31.6</ele>
        <time>2021-09-17T13:29:26Z</time>
      </trkpt>
      <trkpt lat="49.44583" lon="1.09291">
        <ele>31.9</ele>
        <time>2021-09-17T13:29:28Z</time>
      </trkpt>
      <trkpt lat="49.44594" lon="1.09296">
        <ele>32</ele>
        <time>2021-09-17T13:29:30Z</time>
      </trkpt>
      <trkpt lat="49.44605" lon="1.09301">
        <ele>32.2</ele>
        <time>2021-09-17T13:29:32Z</time>
      </trkpt>
      <trkpt lat="49.44617" lon="1.09305">
        <ele>32.4</ele>
        <time>2021-09-17T13:29:34Z</time>
      </trkpt>
      <trkpt lat="49.4463" lon="1.09305">
        <ele>32.6</ele>
        <time>2021-09-17T13:29:36Z</time>
      </trkpt>
      <trkpt lat="49.44642" lon="1.09309">
        <ele>33</ele>
        <time>2021-09-17T13:29:38Z</time>
      </trkpt>
      <trkpt lat="49.44648" lon="1.09313">
        <ele>33.4</ele>
        <time>2021-09-17T13:29:39Z</time>
      </trkpt>
      <trkpt lat="49.44659" lon="1.09319">
        <ele>33.8</ele>
        <time>2021-09-17T13:29:41Z</time>
      </trkpt>
      <trkpt lat="49.44665" lon="1.09322">
        <ele>34.3</ele>
        <time>2021-09-17T13:29:42Z</time>
      </trkpt>
      <trkpt lat="49.44677" lon="1.09332">
        <ele>34.7</ele>
        <time>2021-09-17T13:29:44Z</time>
      </trkpt>
      <trkpt lat="49.44687" lon="1.09341">
        <ele>35.3</ele>
        <time>2021-09-17T13:29:46Z</time>
      </trkpt>
      <trkpt lat="49.44696" lon="1.0935">
        <ele>35.8</ele>
        <time>2021-09-17T13:29:48Z</time>
      </trkpt>
      <trkpt lat="49.44699" lon="1.09356">
        <ele>36.4</ele>
        <time>2021-09-17T13:29:49Z</time>
      </trkpt>
      <trkpt lat="49.44702" lon="1.0936">
        <ele>36.8</ele>
        <time>2021-09-17T13:29:50Z</time>
      </trkpt>
      <trkpt lat="49.44708" lon="1.0937">
        <ele>37.2</ele>
        <time>2021-09-17T13:29:52Z</time>
      </trkpt>
      <trkpt lat="49.44709" lon="1.09375">
        <ele>37.5</ele>
        <time>2021-09-17T13:29:53Z</time>
      </trkpt>
      <trkpt lat="49.44715" lon="1.09393">
        <ele>37.8</ele>
        <time>2021-09-17T13:29:55Z</time>
      </trkpt>
      <trkpt lat="49.44716" lon="1.09412">
        <ele>38.1</ele>
        <time>2021-09-17T13:29:57Z</time>
      </trkpt>
      <trkpt lat="49.44719" lon="1.0943">
        <ele>38.4</ele>
        <time>2021-09-17T13:29:59Z</time>
      </trkpt>
      <trkpt lat="49.44721" lon="1.09449">
        <ele>38.6</ele>
        <time>2021-09-17T13:30:01Z</time>
      </trkpt>
      <trkpt lat="49.44722" lon="1.09468">
        <ele>38.9</ele>
        <time>2021-09-17T13:30:03Z</time>
      </trkpt>
      <trkpt lat="49.44722" lon="1.09477">
        <ele>39.1</ele>
        <time>2021-09-17T13:30:04Z</time>
      </trkpt>
      <trkpt lat="49.44721" lon="1.09494">
        <ele>39.3</ele>
        <time>2021-09-17T13:30:06Z</time>
      </trkpt>
      <trkpt lat="49.44721" lon="1.09501">
        <ele>39.5</ele>
        <time>2021-09-17T13:30:07Z</time>
      </trkpt>
      <trkpt lat="49.44721" lon="1.09512">
        <ele>39.6</ele>
        <time>2021-09-17T13:30:09Z</time>
      </trkpt>
      <trkpt lat="49.44722" lon="1.09517">
        <ele>39.8</ele>
        <time>2021-09-17T13:30:10Z</time>
      </trkpt>
      <trkpt lat="49.44722" lon="1.09521">
        <ele>39.9</ele>
        <time>2021-09-17T13:30:11Z</time>
      </trkpt>
      <trkpt lat="49.44723" lon="1.09521">
        <ele>40</ele>
        <time>2021-09-17T13:30:12Z</time>
      </trkpt>
      <trkpt lat="49.44724" lon="1.09518">
        <ele>40</ele>
        <time>2021-09-17T13:30:14Z</time>
      </trkpt>
      <trkpt lat="49.44724" lon="1.09518">
        <ele>40</ele>
        <time>2021-09-17T13:30:16Z</time>
      </trkpt>
      <trkpt lat="49.44724" lon="1.09518">
        <ele>40</ele>
        <time>2021-09-17T13:30:18Z</time>
      </trkpt>
      <trkpt lat="49.44724" lon="1.09518">
        <ele>40</ele>
        <time>2021-09-17T13:30:20Z</time>
      </trkpt>
      <trkpt lat="49.44724" lon="1.09518">
        <ele>40</ele>
        <time>2021-09-17T13:30:21Z</time>
      </trkpt>
      <trkpt lat="49.44724" lon="1.09518">
        <ele>40</ele>
        <time>2021-09-17T13:30:23Z</time>
      </trkpt>
      <trkpt lat="49.44724" lon="1.09518">
        <ele>40</ele>
        <time>2021-09-17T13:30:24Z</time>
      </trkpt>
      <trkpt lat="49.44724" lon="1.09518">
        <ele>40</ele>
        <time>2021-09-17T13:30:26Z</time>
      </trkpt>
      <trkpt lat="49.44724" lon="1.09518">
        <ele>40</ele>
        <time>2021-09-17T13:30:28Z</time>
      </trkpt>
      <trkpt lat="49.44724" lon="1.09518">
        <ele>40</ele>
        <time>2021-09-17T13:30:30Z</time>
      </trkpt>
      <trkpt lat="49.44724" lon="1.09518">
        <ele>40</ele>
        <time>2021-09-17T13:30:32Z</time>
      </trkpt>
      <trkpt lat="49.44724" lon="1.09521">
        <ele>40</ele>
        <time>2021-09-17T13:30:33Z</time>
      </trkpt>
      <trkpt lat="49.44724" lon="1.09524">
        <ele>40</ele>
        <time>2021-09-17T13:30:35Z</time>
      </trkpt>
      <trkpt lat="49.44724" lon="1.09525">
        <ele>40</ele>
        <time>2021-09-17T13:30:36Z</time>
      </trkpt>
      <trkpt lat="49.44724" lon="1.09525">
        <ele>40</ele>
        <time>2021-09-17T13:30:38Z</time>
      </trkpt>
      <trkpt lat="49.44724" lon="1.09525">
        <ele>40.3</ele>
        <time>2021-09-17T13:30:39Z</time>
      </trkpt>
      <trkpt lat="49.44724" lon="1.09525">
        <ele>40.6</ele>
        <time>2021-09-17T13:30:40Z</time>
      </trkpt>
      <trkpt lat="49.44724" lon="1.09525">
        <ele>41</ele>
        <time>2021-09-17T13:30:42Z</time>
      </trkpt>
      <trkpt lat="49.44724" lon="1.09525">
        <ele>41.3</ele>
        <time>2021-09-17T13:30:44Z</time>
      </trkpt>
      <trkpt lat="49.44724" lon="1.09525">
        <ele>41.5</ele>
        <time>2021-09-17T13:30:45Z</time>
      </trkpt>
      <trkpt lat="49.4476" lon="1.09537">
        <ele>41.8</ele>
        <time>2021-09-17T13:30:48Z</time>
      </trkpt>
      <trkpt lat="49.44776" lon="1.09541">
        <ele>42</ele>
        <time>2021-09-17T13:30:50Z</time>
      </trkpt>
      <trkpt lat="49.44783" lon="1.09541">
        <ele>42.2</ele>
        <time>2021-09-17T13:30:51Z</time>
      </trkpt>
      <trkpt lat="49.44794" lon="1.09543">
        <ele>42.4</ele>
        <time>2021-09-17T13:30:53Z</time>
      </trkpt>
      <trkpt lat="49.44803" lon="1.09547">
        <ele>42.5</ele>
        <time>2021-09-17T13:30:55Z</time>
      </trkpt>
      <trkpt lat="49.44812" lon="1.0955">
        <ele>42.7</ele>
        <time>2021-09-17T13:30:57Z</time>
      </trkpt>
      <trkpt lat="49.44826" lon="1.09558">
        <ele>42.5</ele>
        <time>2021-09-17T13:30:58Z</time>
      </trkpt>
      <trkpt lat="49.44827" lon="1.09559">
        <ele>42.3</ele>
        <time>2021-09-17T13:30:59Z</time>
      </trkpt>
      <trkpt lat="49.44831" lon="1.09557">
        <ele>42</ele>
        <time>2021-09-17T13:31:01Z</time>
      </trkpt>
      <trkpt lat="49.44836" lon="1.0956">
        <ele>41.8</ele>
        <time>2021-09-17T13:31:02Z</time>
      </trkpt>
      <trkpt lat="49.44842" lon="1.09564">
        <ele>41.7</ele>
        <time>2021-09-17T13:31:03Z</time>
      </trkpt>
      <trkpt lat="49.44848" lon="1.09568">
        <ele>41.6</ele>
        <time>2021-09-17T13:31:05Z</time>
      </trkpt>
      <trkpt lat="49.44852" lon="1.09569">
        <ele>41.5</ele>
        <time>2021-09-17T13:31:06Z</time>
      </trkpt>
      <trkpt lat="49.44859" lon="1.09569">
        <ele>41.4</ele>
        <time>2021-09-17T13:31:07Z</time>
      </trkpt>
      <trkpt lat="49.44859" lon="1.09569">
        <ele>41.3</ele>
        <time>2021-09-17T13:31:07Z</time>
      </trkpt>
    </trkseg>
  </trk>
</gpx>